<?xml version="1.0" encoding="UTF-8" standalone="no" ?>
<gpx xmlns="http://www.topografix.com/GPX/1/1" xmlns:xsi="http://www.w3.org/2001/XMLSchema-instance" xsi:schemaLocation="http://www.topografix.com/GPX/1/1 http://www.topografix.com/GPX/1/1/gpx.xsd" version="1.1" creator="VisuGPX - https://www.visugpx.com">
  <metadata>
    <name>Congost de Mont Rebeï / 18 mai 2022</name>
    <desc><![CDATA[Aller Randpo Pedestre
Retour Kayak

]]></desc>
  </metadata>
  <trk>
    <name><![CDATA[18 mai 2022 à 08:44:08]]></name>
    <cmt><![CDATA[18 mai 2022 à 08:44:08]]></cmt>
    <trkseg>
      <trkpt lat="42.05229" lon="0.65564">
        <ele>775</ele>
        <time>2022-05-18T06:44:08Z</time>
      </trkpt>
      <trkpt lat="42.05229" lon="0.65564">
        <ele>775</ele>
        <time>2022-05-18T06:44:09Z</time>
      </trkpt>
      <trkpt lat="42.05231" lon="0.65574">
        <ele>774</ele>
        <time>2022-05-18T06:45:24Z</time>
      </trkpt>
      <trkpt lat="42.05234" lon="0.65583">
        <ele>774</ele>
        <time>2022-05-18T06:45:35Z</time>
      </trkpt>
      <trkpt lat="42.05241" lon="0.65602">
        <ele>774</ele>
        <time>2022-05-18T06:45:49Z</time>
      </trkpt>
      <trkpt lat="42.05248" lon="0.65616">
        <ele>774</ele>
        <time>2022-05-18T06:46:00Z</time>
      </trkpt>
      <trkpt lat="42.05259" lon="0.65652">
        <ele>774</ele>
        <time>2022-05-18T06:46:25Z</time>
      </trkpt>
      <trkpt lat="42.05262" lon="0.65657">
        <ele>774</ele>
        <time>2022-05-18T06:46:29Z</time>
      </trkpt>
      <trkpt lat="42.05277" lon="0.65693">
        <ele>774</ele>
        <time>2022-05-18T06:46:56Z</time>
      </trkpt>
      <trkpt lat="42.05291" lon="0.65727">
        <ele>773</ele>
        <time>2022-05-18T06:47:31Z</time>
      </trkpt>
      <trkpt lat="42.05296" lon="0.65725">
        <ele>773</ele>
        <time>2022-05-18T06:47:36Z</time>
      </trkpt>
      <trkpt lat="42.05302" lon="0.65728">
        <ele>773</ele>
        <time>2022-05-18T06:47:45Z</time>
      </trkpt>
      <trkpt lat="42.05316" lon="0.65726">
        <ele>773</ele>
        <time>2022-05-18T06:48:02Z</time>
      </trkpt>
      <trkpt lat="42.05323" lon="0.65727">
        <ele>773</ele>
        <time>2022-05-18T06:48:14Z</time>
      </trkpt>
      <trkpt lat="42.05325" lon="0.65732">
        <ele>773</ele>
        <time>2022-05-18T06:48:26Z</time>
      </trkpt>
      <trkpt lat="42.05332" lon="0.65726">
        <ele>773</ele>
        <time>2022-05-18T06:48:39Z</time>
      </trkpt>
      <trkpt lat="42.05337" lon="0.6572">
        <ele>773</ele>
        <time>2022-05-18T06:48:45Z</time>
      </trkpt>
      <trkpt lat="42.05341" lon="0.65707">
        <ele>772</ele>
        <time>2022-05-18T06:48:55Z</time>
      </trkpt>
      <trkpt lat="42.05346" lon="0.65704">
        <ele>772</ele>
        <time>2022-05-18T06:49:03Z</time>
      </trkpt>
      <trkpt lat="42.05346" lon="0.65712">
        <ele>772</ele>
        <time>2022-05-18T06:49:09Z</time>
      </trkpt>
      <trkpt lat="42.05351" lon="0.65714">
        <ele>772</ele>
        <time>2022-05-18T06:49:17Z</time>
      </trkpt>
      <trkpt lat="42.05353" lon="0.65707">
        <ele>772</ele>
        <time>2022-05-18T06:49:22Z</time>
      </trkpt>
      <trkpt lat="42.05356" lon="0.65693">
        <ele>772</ele>
        <time>2022-05-18T06:49:33Z</time>
      </trkpt>
      <trkpt lat="42.05361" lon="0.65679">
        <ele>772</ele>
        <time>2022-05-18T06:49:43Z</time>
      </trkpt>
      <trkpt lat="42.05367" lon="0.65678">
        <ele>772</ele>
        <time>2022-05-18T06:49:52Z</time>
      </trkpt>
      <trkpt lat="42.05378" lon="0.65673">
        <ele>772</ele>
        <time>2022-05-18T06:50:04Z</time>
      </trkpt>
      <trkpt lat="42.05386" lon="0.65673">
        <ele>772</ele>
        <time>2022-05-18T06:50:10Z</time>
      </trkpt>
      <trkpt lat="42.05395" lon="0.65661">
        <ele>772</ele>
        <time>2022-05-18T06:50:26Z</time>
      </trkpt>
      <trkpt lat="42.05415" lon="0.6565">
        <ele>771</ele>
        <time>2022-05-18T06:50:49Z</time>
      </trkpt>
      <trkpt lat="42.05417" lon="0.65638">
        <ele>771</ele>
        <time>2022-05-18T06:51:02Z</time>
      </trkpt>
      <trkpt lat="42.05424" lon="0.65635">
        <ele>771</ele>
        <time>2022-05-18T06:51:23Z</time>
      </trkpt>
      <trkpt lat="42.05423" lon="0.65642">
        <ele>771</ele>
        <time>2022-05-18T06:51:29Z</time>
      </trkpt>
      <trkpt lat="42.05428" lon="0.65645">
        <ele>771</ele>
        <time>2022-05-18T06:51:47Z</time>
      </trkpt>
      <trkpt lat="42.05432" lon="0.65619">
        <ele>770</ele>
        <time>2022-05-18T06:52:15Z</time>
      </trkpt>
      <trkpt lat="42.05438" lon="0.65609">
        <ele>770</ele>
        <time>2022-05-18T06:52:27Z</time>
      </trkpt>
      <trkpt lat="42.05449" lon="0.65599">
        <ele>770</ele>
        <time>2022-05-18T06:52:42Z</time>
      </trkpt>
      <trkpt lat="42.05464" lon="0.65591">
        <ele>770</ele>
        <time>2022-05-18T06:53:07Z</time>
      </trkpt>
      <trkpt lat="42.0547" lon="0.65585">
        <ele>770</ele>
        <time>2022-05-18T06:53:19Z</time>
      </trkpt>
      <trkpt lat="42.05477" lon="0.65585">
        <ele>770</ele>
        <time>2022-05-18T06:53:32Z</time>
      </trkpt>
      <trkpt lat="42.0549" lon="0.65569">
        <ele>769</ele>
        <time>2022-05-18T06:53:56Z</time>
      </trkpt>
      <trkpt lat="42.05497" lon="0.65568">
        <ele>769</ele>
        <time>2022-05-18T06:54:14Z</time>
      </trkpt>
      <trkpt lat="42.05515" lon="0.65552">
        <ele>769</ele>
        <time>2022-05-18T06:54:35Z</time>
      </trkpt>
      <trkpt lat="42.05539" lon="0.6554">
        <ele>769</ele>
        <time>2022-05-18T06:54:56Z</time>
      </trkpt>
      <trkpt lat="42.05537" lon="0.65554">
        <ele>769</ele>
        <time>2022-05-18T06:55:11Z</time>
      </trkpt>
      <trkpt lat="42.05539" lon="0.6556">
        <ele>769</ele>
        <time>2022-05-18T06:55:16Z</time>
      </trkpt>
      <trkpt lat="42.05535" lon="0.65567">
        <ele>769</ele>
        <time>2022-05-18T06:55:23Z</time>
      </trkpt>
      <trkpt lat="42.05533" lon="0.65574">
        <ele>769</ele>
        <time>2022-05-18T06:55:28Z</time>
      </trkpt>
      <trkpt lat="42.05532" lon="0.65581">
        <ele>768</ele>
        <time>2022-05-18T06:55:32Z</time>
      </trkpt>
      <trkpt lat="42.05539" lon="0.65585">
        <ele>768</ele>
        <time>2022-05-18T06:55:42Z</time>
      </trkpt>
      <trkpt lat="42.05539" lon="0.65593">
        <ele>768</ele>
        <time>2022-05-18T06:55:53Z</time>
      </trkpt>
      <trkpt lat="42.05535" lon="0.65601">
        <ele>768</ele>
        <time>2022-05-18T06:55:59Z</time>
      </trkpt>
      <trkpt lat="42.05541" lon="0.65606">
        <ele>768</ele>
        <time>2022-05-18T06:56:27Z</time>
      </trkpt>
      <trkpt lat="42.05548" lon="0.65608">
        <ele>768</ele>
        <time>2022-05-18T06:56:39Z</time>
      </trkpt>
      <trkpt lat="42.05562" lon="0.65595">
        <ele>768</ele>
        <time>2022-05-18T06:57:05Z</time>
      </trkpt>
      <trkpt lat="42.05568" lon="0.65593">
        <ele>767</ele>
        <time>2022-05-18T06:57:19Z</time>
      </trkpt>
      <trkpt lat="42.0557" lon="0.656">
        <ele>767</ele>
        <time>2022-05-18T06:57:25Z</time>
      </trkpt>
      <trkpt lat="42.05575" lon="0.65604">
        <ele>767</ele>
        <time>2022-05-18T06:57:30Z</time>
      </trkpt>
      <trkpt lat="42.05573" lon="0.65611">
        <ele>767</ele>
        <time>2022-05-18T06:57:38Z</time>
      </trkpt>
      <trkpt lat="42.05584" lon="0.65615">
        <ele>767</ele>
        <time>2022-05-18T06:57:57Z</time>
      </trkpt>
      <trkpt lat="42.0559" lon="0.65641">
        <ele>767</ele>
        <time>2022-05-18T06:58:28Z</time>
      </trkpt>
      <trkpt lat="42.05595" lon="0.65649">
        <ele>767</ele>
        <time>2022-05-18T06:58:40Z</time>
      </trkpt>
      <trkpt lat="42.05599" lon="0.65636">
        <ele>766</ele>
        <time>2022-05-18T06:59:01Z</time>
      </trkpt>
      <trkpt lat="42.05602" lon="0.65626">
        <ele>766</ele>
        <time>2022-05-18T06:59:10Z</time>
      </trkpt>
      <trkpt lat="42.05607" lon="0.6562">
        <ele>766</ele>
        <time>2022-05-18T06:59:20Z</time>
      </trkpt>
      <trkpt lat="42.05618" lon="0.65612">
        <ele>766</ele>
        <time>2022-05-18T06:59:30Z</time>
      </trkpt>
      <trkpt lat="42.05623" lon="0.6562">
        <ele>766</ele>
        <time>2022-05-18T06:59:45Z</time>
      </trkpt>
      <trkpt lat="42.05625" lon="0.65631">
        <ele>766</ele>
        <time>2022-05-18T07:00:03Z</time>
      </trkpt>
      <trkpt lat="42.05622" lon="0.65641">
        <ele>766</ele>
        <time>2022-05-18T07:00:15Z</time>
      </trkpt>
      <trkpt lat="42.05623" lon="0.6565">
        <ele>765</ele>
        <time>2022-05-18T07:00:52Z</time>
      </trkpt>
      <trkpt lat="42.05622" lon="0.65656">
        <ele>765</ele>
        <time>2022-05-18T07:00:58Z</time>
      </trkpt>
      <trkpt lat="42.05618" lon="0.65681">
        <ele>765</ele>
        <time>2022-05-18T07:01:18Z</time>
      </trkpt>
      <trkpt lat="42.05628" lon="0.65698">
        <ele>765</ele>
        <time>2022-05-18T07:01:44Z</time>
      </trkpt>
      <trkpt lat="42.05628" lon="0.65706">
        <ele>765</ele>
        <time>2022-05-18T07:01:50Z</time>
      </trkpt>
      <trkpt lat="42.0562" lon="0.65755">
        <ele>764</ele>
        <time>2022-05-18T07:02:21Z</time>
      </trkpt>
      <trkpt lat="42.05615" lon="0.65777">
        <ele>764</ele>
        <time>2022-05-18T07:02:36Z</time>
      </trkpt>
      <trkpt lat="42.05617" lon="0.65786">
        <ele>764</ele>
        <time>2022-05-18T07:02:42Z</time>
      </trkpt>
      <trkpt lat="42.05621" lon="0.65792">
        <ele>764</ele>
        <time>2022-05-18T07:02:45Z</time>
      </trkpt>
      <trkpt lat="42.05647" lon="0.65819">
        <ele>764</ele>
        <time>2022-05-18T07:03:17Z</time>
      </trkpt>
      <trkpt lat="42.05647" lon="0.6583">
        <ele>764</ele>
        <time>2022-05-18T07:03:25Z</time>
      </trkpt>
      <trkpt lat="42.05646" lon="0.65838">
        <ele>764</ele>
        <time>2022-05-18T07:03:29Z</time>
      </trkpt>
      <trkpt lat="42.05652" lon="0.65851">
        <ele>764</ele>
        <time>2022-05-18T07:03:38Z</time>
      </trkpt>
      <trkpt lat="42.0566" lon="0.65858">
        <ele>764</ele>
        <time>2022-05-18T07:03:47Z</time>
      </trkpt>
      <trkpt lat="42.05662" lon="0.65866">
        <ele>763</ele>
        <time>2022-05-18T07:03:53Z</time>
      </trkpt>
      <trkpt lat="42.05658" lon="0.65887">
        <ele>763</ele>
        <time>2022-05-18T07:04:05Z</time>
      </trkpt>
      <trkpt lat="42.05655" lon="0.65894">
        <ele>763</ele>
        <time>2022-05-18T07:04:11Z</time>
      </trkpt>
      <trkpt lat="42.05651" lon="0.65917">
        <ele>763</ele>
        <time>2022-05-18T07:04:24Z</time>
      </trkpt>
      <trkpt lat="42.05651" lon="0.65924">
        <ele>763</ele>
        <time>2022-05-18T07:04:28Z</time>
      </trkpt>
      <trkpt lat="42.05653" lon="0.65931">
        <ele>763</ele>
        <time>2022-05-18T07:04:33Z</time>
      </trkpt>
      <trkpt lat="42.05648" lon="0.65936">
        <ele>763</ele>
        <time>2022-05-18T07:04:37Z</time>
      </trkpt>
      <trkpt lat="42.05646" lon="0.65942">
        <ele>763</ele>
        <time>2022-05-18T07:04:42Z</time>
      </trkpt>
      <trkpt lat="42.05638" lon="0.65968">
        <ele>763</ele>
        <time>2022-05-18T07:05:01Z</time>
      </trkpt>
      <trkpt lat="42.05637" lon="0.65975">
        <ele>763</ele>
        <time>2022-05-18T07:05:05Z</time>
      </trkpt>
      <trkpt lat="42.05634" lon="0.65982">
        <ele>763</ele>
        <time>2022-05-18T07:05:09Z</time>
      </trkpt>
      <trkpt lat="42.05634" lon="0.65989">
        <ele>763</ele>
        <time>2022-05-18T07:05:13Z</time>
      </trkpt>
      <trkpt lat="42.05636" lon="0.65996">
        <ele>763</ele>
        <time>2022-05-18T07:05:17Z</time>
      </trkpt>
      <trkpt lat="42.05636" lon="0.66007">
        <ele>763</ele>
        <time>2022-05-18T07:05:26Z</time>
      </trkpt>
      <trkpt lat="42.05637" lon="0.66014">
        <ele>763</ele>
        <time>2022-05-18T07:05:30Z</time>
      </trkpt>
      <trkpt lat="42.05648" lon="0.66033">
        <ele>762</ele>
        <time>2022-05-18T07:05:48Z</time>
      </trkpt>
      <trkpt lat="42.05663" lon="0.66046">
        <ele>762</ele>
        <time>2022-05-18T07:06:05Z</time>
      </trkpt>
      <trkpt lat="42.05669" lon="0.66048">
        <ele>762</ele>
        <time>2022-05-18T07:06:09Z</time>
      </trkpt>
      <trkpt lat="42.05684" lon="0.66061">
        <ele>762</ele>
        <time>2022-05-18T07:06:28Z</time>
      </trkpt>
      <trkpt lat="42.0569" lon="0.66056">
        <ele>762</ele>
        <time>2022-05-18T07:06:35Z</time>
      </trkpt>
      <trkpt lat="42.05695" lon="0.66048">
        <ele>762</ele>
        <time>2022-05-18T07:06:44Z</time>
      </trkpt>
      <trkpt lat="42.05705" lon="0.66043">
        <ele>762</ele>
        <time>2022-05-18T07:06:56Z</time>
      </trkpt>
      <trkpt lat="42.0571" lon="0.66048">
        <ele>762</ele>
        <time>2022-05-18T07:07:01Z</time>
      </trkpt>
      <trkpt lat="42.05713" lon="0.66054">
        <ele>762</ele>
        <time>2022-05-18T07:07:08Z</time>
      </trkpt>
      <trkpt lat="42.05738" lon="0.66072">
        <ele>761</ele>
        <time>2022-05-18T07:07:30Z</time>
      </trkpt>
      <trkpt lat="42.05744" lon="0.66074">
        <ele>761</ele>
        <time>2022-05-18T07:07:35Z</time>
      </trkpt>
      <trkpt lat="42.05748" lon="0.66077">
        <ele>761</ele>
        <time>2022-05-18T07:07:39Z</time>
      </trkpt>
      <trkpt lat="42.05759" lon="0.66093">
        <ele>761</ele>
        <time>2022-05-18T07:07:51Z</time>
      </trkpt>
      <trkpt lat="42.05781" lon="0.661">
        <ele>761</ele>
        <time>2022-05-18T07:08:09Z</time>
      </trkpt>
      <trkpt lat="42.0579" lon="0.66108">
        <ele>761</ele>
        <time>2022-05-18T07:08:18Z</time>
      </trkpt>
      <trkpt lat="42.05796" lon="0.66121">
        <ele>761</ele>
        <time>2022-05-18T07:08:28Z</time>
      </trkpt>
      <trkpt lat="42.05796" lon="0.66137">
        <ele>761</ele>
        <time>2022-05-18T07:08:36Z</time>
      </trkpt>
      <trkpt lat="42.05799" lon="0.66143">
        <ele>761</ele>
        <time>2022-05-18T07:08:42Z</time>
      </trkpt>
      <trkpt lat="42.05799" lon="0.66153">
        <ele>761</ele>
        <time>2022-05-18T07:08:50Z</time>
      </trkpt>
      <trkpt lat="42.05807" lon="0.6618">
        <ele>760</ele>
        <time>2022-05-18T07:09:24Z</time>
      </trkpt>
      <trkpt lat="42.05813" lon="0.66193">
        <ele>760</ele>
        <time>2022-05-18T07:09:32Z</time>
      </trkpt>
      <trkpt lat="42.05819" lon="0.66201">
        <ele>760</ele>
        <time>2022-05-18T07:09:45Z</time>
      </trkpt>
      <trkpt lat="42.05824" lon="0.66203">
        <ele>760</ele>
        <time>2022-05-18T07:09:49Z</time>
      </trkpt>
      <trkpt lat="42.05837" lon="0.66198">
        <ele>760</ele>
        <time>2022-05-18T07:10:04Z</time>
      </trkpt>
      <trkpt lat="42.0585" lon="0.66199">
        <ele>760</ele>
        <time>2022-05-18T07:10:16Z</time>
      </trkpt>
      <trkpt lat="42.05859" lon="0.66197">
        <ele>760</ele>
        <time>2022-05-18T07:10:25Z</time>
      </trkpt>
      <trkpt lat="42.05865" lon="0.66198">
        <ele>760</ele>
        <time>2022-05-18T07:10:30Z</time>
      </trkpt>
      <trkpt lat="42.0587" lon="0.66201">
        <ele>759</ele>
        <time>2022-05-18T07:10:34Z</time>
      </trkpt>
      <trkpt lat="42.0588" lon="0.66204">
        <ele>759</ele>
        <time>2022-05-18T07:10:43Z</time>
      </trkpt>
      <trkpt lat="42.05886" lon="0.66208">
        <ele>759</ele>
        <time>2022-05-18T07:10:48Z</time>
      </trkpt>
      <trkpt lat="42.05895" lon="0.66213">
        <ele>759</ele>
        <time>2022-05-18T07:10:55Z</time>
      </trkpt>
      <trkpt lat="42.05897" lon="0.66219">
        <ele>759</ele>
        <time>2022-05-18T07:10:59Z</time>
      </trkpt>
      <trkpt lat="42.05905" lon="0.66223">
        <ele>759</ele>
        <time>2022-05-18T07:11:10Z</time>
      </trkpt>
      <trkpt lat="42.0591" lon="0.66223">
        <ele>759</ele>
        <time>2022-05-18T07:11:15Z</time>
      </trkpt>
      <trkpt lat="42.0594" lon="0.66238">
        <ele>759</ele>
        <time>2022-05-18T07:11:48Z</time>
      </trkpt>
      <trkpt lat="42.05946" lon="0.6624">
        <ele>759</ele>
        <time>2022-05-18T07:11:55Z</time>
      </trkpt>
      <trkpt lat="42.0595" lon="0.66246">
        <ele>759</ele>
        <time>2022-05-18T07:12:02Z</time>
      </trkpt>
      <trkpt lat="42.05954" lon="0.66251">
        <ele>759</ele>
        <time>2022-05-18T07:12:07Z</time>
      </trkpt>
      <trkpt lat="42.05958" lon="0.66262">
        <ele>758</ele>
        <time>2022-05-18T07:12:17Z</time>
      </trkpt>
      <trkpt lat="42.05959" lon="0.6628">
        <ele>758</ele>
        <time>2022-05-18T07:12:30Z</time>
      </trkpt>
      <trkpt lat="42.05962" lon="0.66292">
        <ele>758</ele>
        <time>2022-05-18T07:12:41Z</time>
      </trkpt>
      <trkpt lat="42.05962" lon="0.66301">
        <ele>758</ele>
        <time>2022-05-18T07:12:53Z</time>
      </trkpt>
      <trkpt lat="42.05967" lon="0.66311">
        <ele>758</ele>
        <time>2022-05-18T07:13:05Z</time>
      </trkpt>
      <trkpt lat="42.05989" lon="0.66336">
        <ele>758</ele>
        <time>2022-05-18T07:13:37Z</time>
      </trkpt>
      <trkpt lat="42.05996" lon="0.66344">
        <ele>758</ele>
        <time>2022-05-18T07:13:45Z</time>
      </trkpt>
      <trkpt lat="42.06002" lon="0.66347">
        <ele>758</ele>
        <time>2022-05-18T07:13:50Z</time>
      </trkpt>
      <trkpt lat="42.06022" lon="0.66367">
        <ele>757</ele>
        <time>2022-05-18T07:14:11Z</time>
      </trkpt>
      <trkpt lat="42.06044" lon="0.66384">
        <ele>757</ele>
        <time>2022-05-18T07:14:33Z</time>
      </trkpt>
      <trkpt lat="42.06053" lon="0.66402">
        <ele>757</ele>
        <time>2022-05-18T07:14:48Z</time>
      </trkpt>
      <trkpt lat="42.06058" lon="0.66422">
        <ele>757</ele>
        <time>2022-05-18T07:15:01Z</time>
      </trkpt>
      <trkpt lat="42.06058" lon="0.66448">
        <ele>757</ele>
        <time>2022-05-18T07:15:15Z</time>
      </trkpt>
      <trkpt lat="42.06054" lon="0.66455">
        <ele>757</ele>
        <time>2022-05-18T07:15:23Z</time>
      </trkpt>
      <trkpt lat="42.06055" lon="0.66466">
        <ele>757</ele>
        <time>2022-05-18T07:15:30Z</time>
      </trkpt>
      <trkpt lat="42.06058" lon="0.66474">
        <ele>756</ele>
        <time>2022-05-18T07:15:35Z</time>
      </trkpt>
      <trkpt lat="42.06059" lon="0.66499">
        <ele>756</ele>
        <time>2022-05-18T07:15:53Z</time>
      </trkpt>
      <trkpt lat="42.06066" lon="0.66517">
        <ele>756</ele>
        <time>2022-05-18T07:16:12Z</time>
      </trkpt>
      <trkpt lat="42.06071" lon="0.66531">
        <ele>756</ele>
        <time>2022-05-18T07:16:23Z</time>
      </trkpt>
      <trkpt lat="42.06084" lon="0.66539">
        <ele>756</ele>
        <time>2022-05-18T07:16:37Z</time>
      </trkpt>
      <trkpt lat="42.06094" lon="0.66543">
        <ele>756</ele>
        <time>2022-05-18T07:16:49Z</time>
      </trkpt>
      <trkpt lat="42.06099" lon="0.66548">
        <ele>756</ele>
        <time>2022-05-18T07:16:55Z</time>
      </trkpt>
      <trkpt lat="42.06111" lon="0.66553">
        <ele>756</ele>
        <time>2022-05-18T07:17:08Z</time>
      </trkpt>
      <trkpt lat="42.06111" lon="0.6657">
        <ele>755</ele>
        <time>2022-05-18T07:17:22Z</time>
      </trkpt>
      <trkpt lat="42.06124" lon="0.66589">
        <ele>755</ele>
        <time>2022-05-18T07:17:49Z</time>
      </trkpt>
      <trkpt lat="42.06127" lon="0.666">
        <ele>755</ele>
        <time>2022-05-18T07:18:01Z</time>
      </trkpt>
      <trkpt lat="42.06137" lon="0.6661">
        <ele>755</ele>
        <time>2022-05-18T07:18:12Z</time>
      </trkpt>
      <trkpt lat="42.06136" lon="0.66624">
        <ele>755</ele>
        <time>2022-05-18T07:18:25Z</time>
      </trkpt>
      <trkpt lat="42.06141" lon="0.66626">
        <ele>755</ele>
        <time>2022-05-18T07:18:30Z</time>
      </trkpt>
      <trkpt lat="42.06148" lon="0.66633">
        <ele>755</ele>
        <time>2022-05-18T07:18:39Z</time>
      </trkpt>
      <trkpt lat="42.06162" lon="0.66659">
        <ele>754</ele>
        <time>2022-05-18T07:19:12Z</time>
      </trkpt>
      <trkpt lat="42.06166" lon="0.66669">
        <ele>754</ele>
        <time>2022-05-18T07:19:20Z</time>
      </trkpt>
      <trkpt lat="42.06166" lon="0.66676">
        <ele>754</ele>
        <time>2022-05-18T07:19:35Z</time>
      </trkpt>
      <trkpt lat="42.06169" lon="0.66687">
        <ele>754</ele>
        <time>2022-05-18T07:19:47Z</time>
      </trkpt>
      <trkpt lat="42.0617" lon="0.66698">
        <ele>754</ele>
        <time>2022-05-18T07:20:05Z</time>
      </trkpt>
      <trkpt lat="42.06175" lon="0.66697">
        <ele>754</ele>
        <time>2022-05-18T07:20:25Z</time>
      </trkpt>
      <trkpt lat="42.06178" lon="0.66714">
        <ele>753</ele>
        <time>2022-05-18T07:21:07Z</time>
      </trkpt>
      <trkpt lat="42.06179" lon="0.66723">
        <ele>753</ele>
        <time>2022-05-18T07:21:12Z</time>
      </trkpt>
      <trkpt lat="42.06178" lon="0.66735">
        <ele>753</ele>
        <time>2022-05-18T07:21:30Z</time>
      </trkpt>
      <trkpt lat="42.06185" lon="0.66753">
        <ele>753</ele>
        <time>2022-05-18T07:21:44Z</time>
      </trkpt>
      <trkpt lat="42.0619" lon="0.66754">
        <ele>753</ele>
        <time>2022-05-18T07:21:50Z</time>
      </trkpt>
      <trkpt lat="42.06195" lon="0.66771">
        <ele>752</ele>
        <time>2022-05-18T07:22:14Z</time>
      </trkpt>
      <trkpt lat="42.06202" lon="0.66775">
        <ele>752</ele>
        <time>2022-05-18T07:22:30Z</time>
      </trkpt>
      <trkpt lat="42.06213" lon="0.66784">
        <ele>752</ele>
        <time>2022-05-18T07:23:28Z</time>
      </trkpt>
      <trkpt lat="42.06223" lon="0.66807">
        <ele>751</ele>
        <time>2022-05-18T07:24:11Z</time>
      </trkpt>
      <trkpt lat="42.06232" lon="0.66826">
        <ele>751</ele>
        <time>2022-05-18T07:24:36Z</time>
      </trkpt>
      <trkpt lat="42.06244" lon="0.66836">
        <ele>751</ele>
        <time>2022-05-18T07:24:56Z</time>
      </trkpt>
      <trkpt lat="42.06245" lon="0.66845">
        <ele>751</ele>
        <time>2022-05-18T07:25:20Z</time>
      </trkpt>
      <trkpt lat="42.0626" lon="0.66836">
        <ele>750</ele>
        <time>2022-05-18T07:25:45Z</time>
      </trkpt>
      <trkpt lat="42.06267" lon="0.6683">
        <ele>750</ele>
        <time>2022-05-18T07:26:34Z</time>
      </trkpt>
      <trkpt lat="42.06267" lon="0.66838">
        <ele>750</ele>
        <time>2022-05-18T07:26:43Z</time>
      </trkpt>
      <trkpt lat="42.06242" lon="0.66853">
        <ele>750</ele>
        <time>2022-05-18T07:27:02Z</time>
      </trkpt>
      <trkpt lat="42.06242" lon="0.66845">
        <ele>749</ele>
        <time>2022-05-18T07:27:28Z</time>
      </trkpt>
      <trkpt lat="42.06248" lon="0.6684">
        <ele>749</ele>
        <time>2022-05-18T07:27:47Z</time>
      </trkpt>
      <trkpt lat="42.06259" lon="0.66839">
        <ele>749</ele>
        <time>2022-05-18T07:28:01Z</time>
      </trkpt>
      <trkpt lat="42.06257" lon="0.66856">
        <ele>749</ele>
        <time>2022-05-18T07:28:11Z</time>
      </trkpt>
      <trkpt lat="42.06269" lon="0.66851">
        <ele>749</ele>
        <time>2022-05-18T07:28:28Z</time>
      </trkpt>
      <trkpt lat="42.06268" lon="0.66851">
        <ele>749</ele>
        <time>2022-05-18T07:28:33Z</time>
      </trkpt>
      <trkpt lat="42.06263" lon="0.66857">
        <ele>749</ele>
        <time>2022-05-18T07:28:50Z</time>
      </trkpt>
      <trkpt lat="42.06265" lon="0.66856">
        <ele>748</ele>
        <time>2022-05-18T07:29:19Z</time>
      </trkpt>
      <trkpt lat="42.06261" lon="0.66863">
        <ele>748</ele>
        <time>2022-05-18T07:29:30Z</time>
      </trkpt>
      <trkpt lat="42.06264" lon="0.66858">
        <ele>748</ele>
        <time>2022-05-18T07:30:19Z</time>
      </trkpt>
      <trkpt lat="42.06257" lon="0.66852">
        <ele>748</ele>
        <time>2022-05-18T07:30:26Z</time>
      </trkpt>
      <trkpt lat="42.0626" lon="0.66854">
        <ele>747</ele>
        <time>2022-05-18T07:30:41Z</time>
      </trkpt>
      <trkpt lat="42.06271" lon="0.66872">
        <ele>747</ele>
        <time>2022-05-18T07:30:47Z</time>
      </trkpt>
      <trkpt lat="42.06269" lon="0.66877">
        <ele>747</ele>
        <time>2022-05-18T07:30:50Z</time>
      </trkpt>
      <trkpt lat="42.06263" lon="0.66884">
        <ele>747</ele>
        <time>2022-05-18T07:31:10Z</time>
      </trkpt>
      <trkpt lat="42.06267" lon="0.66888">
        <ele>747</ele>
        <time>2022-05-18T07:31:39Z</time>
      </trkpt>
      <trkpt lat="42.06273" lon="0.6689">
        <ele>747</ele>
        <time>2022-05-18T07:31:51Z</time>
      </trkpt>
      <trkpt lat="42.06277" lon="0.66893">
        <ele>747</ele>
        <time>2022-05-18T07:31:54Z</time>
      </trkpt>
      <trkpt lat="42.06283" lon="0.66896">
        <ele>747</ele>
        <time>2022-05-18T07:32:00Z</time>
      </trkpt>
      <trkpt lat="42.06294" lon="0.6689">
        <ele>746</ele>
        <time>2022-05-18T07:32:12Z</time>
      </trkpt>
      <trkpt lat="42.06297" lon="0.66885">
        <ele>746</ele>
        <time>2022-05-18T07:32:17Z</time>
      </trkpt>
      <trkpt lat="42.06302" lon="0.66879">
        <ele>746</ele>
        <time>2022-05-18T07:32:23Z</time>
      </trkpt>
      <trkpt lat="42.06305" lon="0.66873">
        <ele>746</ele>
        <time>2022-05-18T07:32:31Z</time>
      </trkpt>
      <trkpt lat="42.0631" lon="0.6687">
        <ele>746</ele>
        <time>2022-05-18T07:32:43Z</time>
      </trkpt>
      <trkpt lat="42.06325" lon="0.66869">
        <ele>746</ele>
        <time>2022-05-18T07:33:01Z</time>
      </trkpt>
      <trkpt lat="42.06326" lon="0.66876">
        <ele>746</ele>
        <time>2022-05-18T07:33:08Z</time>
      </trkpt>
      <trkpt lat="42.06329" lon="0.66882">
        <ele>746</ele>
        <time>2022-05-18T07:33:15Z</time>
      </trkpt>
      <trkpt lat="42.06333" lon="0.66889">
        <ele>746</ele>
        <time>2022-05-18T07:33:26Z</time>
      </trkpt>
      <trkpt lat="42.06334" lon="0.66899">
        <ele>746</ele>
        <time>2022-05-18T07:33:50Z</time>
      </trkpt>
      <trkpt lat="42.0634" lon="0.66901">
        <ele>745</ele>
        <time>2022-05-18T07:34:04Z</time>
      </trkpt>
      <trkpt lat="42.06345" lon="0.66902">
        <ele>745</ele>
        <time>2022-05-18T07:34:16Z</time>
      </trkpt>
      <trkpt lat="42.06346" lon="0.66909">
        <ele>745</ele>
        <time>2022-05-18T07:34:22Z</time>
      </trkpt>
      <trkpt lat="42.06345" lon="0.66916">
        <ele>745</ele>
        <time>2022-05-18T07:34:27Z</time>
      </trkpt>
      <trkpt lat="42.06351" lon="0.66918">
        <ele>745</ele>
        <time>2022-05-18T07:35:15Z</time>
      </trkpt>
      <trkpt lat="42.06357" lon="0.66909">
        <ele>744</ele>
        <time>2022-05-18T07:35:57Z</time>
      </trkpt>
      <trkpt lat="42.06363" lon="0.66904">
        <ele>744</ele>
        <time>2022-05-18T07:36:10Z</time>
      </trkpt>
      <trkpt lat="42.06369" lon="0.66897">
        <ele>744</ele>
        <time>2022-05-18T07:36:22Z</time>
      </trkpt>
      <trkpt lat="42.06381" lon="0.66878">
        <ele>744</ele>
        <time>2022-05-18T07:36:55Z</time>
      </trkpt>
      <trkpt lat="42.06387" lon="0.66886">
        <ele>743</ele>
        <time>2022-05-18T07:37:18Z</time>
      </trkpt>
      <trkpt lat="42.06387" lon="0.66893">
        <ele>743</ele>
        <time>2022-05-18T07:37:23Z</time>
      </trkpt>
      <trkpt lat="42.06384" lon="0.66899">
        <ele>743</ele>
        <time>2022-05-18T07:37:43Z</time>
      </trkpt>
      <trkpt lat="42.06387" lon="0.66915">
        <ele>743</ele>
        <time>2022-05-18T07:38:07Z</time>
      </trkpt>
      <trkpt lat="42.06382" lon="0.6694">
        <ele>743</ele>
        <time>2022-05-18T07:38:38Z</time>
      </trkpt>
      <trkpt lat="42.06382" lon="0.66947">
        <ele>743</ele>
        <time>2022-05-18T07:38:43Z</time>
      </trkpt>
      <trkpt lat="42.06382" lon="0.66956">
        <ele>742</ele>
        <time>2022-05-18T07:38:53Z</time>
      </trkpt>
      <trkpt lat="42.06388" lon="0.66976">
        <ele>742</ele>
        <time>2022-05-18T07:39:29Z</time>
      </trkpt>
      <trkpt lat="42.06397" lon="0.66987">
        <ele>742</ele>
        <time>2022-05-18T07:39:46Z</time>
      </trkpt>
      <trkpt lat="42.06411" lon="0.66996">
        <ele>742</ele>
        <time>2022-05-18T07:40:04Z</time>
      </trkpt>
      <trkpt lat="42.06406" lon="0.67005">
        <ele>742</ele>
        <time>2022-05-18T07:40:18Z</time>
      </trkpt>
      <trkpt lat="42.06414" lon="0.67006">
        <ele>741</ele>
        <time>2022-05-18T07:40:42Z</time>
      </trkpt>
      <trkpt lat="42.06426" lon="0.67015">
        <ele>741</ele>
        <time>2022-05-18T07:41:00Z</time>
      </trkpt>
      <trkpt lat="42.06437" lon="0.67021">
        <ele>741</ele>
        <time>2022-05-18T07:41:12Z</time>
      </trkpt>
      <trkpt lat="42.06441" lon="0.67025">
        <ele>741</ele>
        <time>2022-05-18T07:41:18Z</time>
      </trkpt>
      <trkpt lat="42.06444" lon="0.67033">
        <ele>741</ele>
        <time>2022-05-18T07:41:29Z</time>
      </trkpt>
      <trkpt lat="42.06444" lon="0.6704">
        <ele>741</ele>
        <time>2022-05-18T07:41:59Z</time>
      </trkpt>
      <trkpt lat="42.0645" lon="0.67047">
        <ele>740</ele>
        <time>2022-05-18T07:42:11Z</time>
      </trkpt>
      <trkpt lat="42.06477" lon="0.67058">
        <ele>740</ele>
        <time>2022-05-18T07:42:42Z</time>
      </trkpt>
      <trkpt lat="42.06488" lon="0.67063">
        <ele>740</ele>
        <time>2022-05-18T07:42:56Z</time>
      </trkpt>
      <trkpt lat="42.06492" lon="0.67068">
        <ele>740</ele>
        <time>2022-05-18T07:43:00Z</time>
      </trkpt>
      <trkpt lat="42.06508" lon="0.67072">
        <ele>740</ele>
        <time>2022-05-18T07:43:23Z</time>
      </trkpt>
      <trkpt lat="42.06544" lon="0.67079">
        <ele>739</ele>
        <time>2022-05-18T07:43:56Z</time>
      </trkpt>
      <trkpt lat="42.06551" lon="0.67077">
        <ele>739</ele>
        <time>2022-05-18T07:44:08Z</time>
      </trkpt>
      <trkpt lat="42.06559" lon="0.67082">
        <ele>739</ele>
        <time>2022-05-18T07:44:22Z</time>
      </trkpt>
      <trkpt lat="42.06555" lon="0.67087">
        <ele>739</ele>
        <time>2022-05-18T07:44:28Z</time>
      </trkpt>
      <trkpt lat="42.06565" lon="0.67087">
        <ele>739</ele>
        <time>2022-05-18T07:44:52Z</time>
      </trkpt>
      <trkpt lat="42.06565" lon="0.67082">
        <ele>737</ele>
        <time>2022-05-18T07:47:23Z</time>
      </trkpt>
      <trkpt lat="42.06571" lon="0.67084">
        <ele>737</ele>
        <time>2022-05-18T07:47:41Z</time>
      </trkpt>
      <trkpt lat="42.06578" lon="0.67087">
        <ele>737</ele>
        <time>2022-05-18T07:47:53Z</time>
      </trkpt>
      <trkpt lat="42.06586" lon="0.67082">
        <ele>737</ele>
        <time>2022-05-18T07:48:18Z</time>
      </trkpt>
      <trkpt lat="42.06592" lon="0.67084">
        <ele>737</ele>
        <time>2022-05-18T07:48:30Z</time>
      </trkpt>
      <trkpt lat="42.06599" lon="0.67085">
        <ele>736</ele>
        <time>2022-05-18T07:48:54Z</time>
      </trkpt>
      <trkpt lat="42.06607" lon="0.67081">
        <ele>736</ele>
        <time>2022-05-18T07:49:04Z</time>
      </trkpt>
      <trkpt lat="42.06626" lon="0.67081">
        <ele>736</ele>
        <time>2022-05-18T07:49:20Z</time>
      </trkpt>
      <trkpt lat="42.06625" lon="0.67088">
        <ele>736</ele>
        <time>2022-05-18T07:49:34Z</time>
      </trkpt>
      <trkpt lat="42.06622" lon="0.67113">
        <ele>735</ele>
        <time>2022-05-18T07:52:03Z</time>
      </trkpt>
      <trkpt lat="42.06627" lon="0.67102">
        <ele>734</ele>
        <time>2022-05-18T07:52:15Z</time>
      </trkpt>
      <trkpt lat="42.06628" lon="0.67095">
        <ele>734</ele>
        <time>2022-05-18T07:52:29Z</time>
      </trkpt>
      <trkpt lat="42.06624" lon="0.67088">
        <ele>734</ele>
        <time>2022-05-18T07:53:12Z</time>
      </trkpt>
      <trkpt lat="42.06616" lon="0.67087">
        <ele>734</ele>
        <time>2022-05-18T07:53:26Z</time>
      </trkpt>
      <trkpt lat="42.06622" lon="0.67076">
        <ele>733</ele>
        <time>2022-05-18T07:54:12Z</time>
      </trkpt>
      <trkpt lat="42.06635" lon="0.67084">
        <ele>733</ele>
        <time>2022-05-18T07:55:12Z</time>
      </trkpt>
      <trkpt lat="42.06622" lon="0.67095">
        <ele>733</ele>
        <time>2022-05-18T07:55:28Z</time>
      </trkpt>
      <trkpt lat="42.0662" lon="0.67083">
        <ele>732</ele>
        <time>2022-05-18T07:55:39Z</time>
      </trkpt>
      <trkpt lat="42.06629" lon="0.67084">
        <ele>731</ele>
        <time>2022-05-18T07:57:29Z</time>
      </trkpt>
      <trkpt lat="42.06635" lon="0.67082">
        <ele>730</ele>
        <time>2022-05-18T07:59:29Z</time>
      </trkpt>
      <trkpt lat="42.0664" lon="0.67084">
        <ele>730</ele>
        <time>2022-05-18T07:59:47Z</time>
      </trkpt>
      <trkpt lat="42.06645" lon="0.67079">
        <ele>729</ele>
        <time>2022-05-18T08:01:26Z</time>
      </trkpt>
      <trkpt lat="42.06648" lon="0.67076">
        <ele>729</ele>
        <time>2022-05-18T08:01:44Z</time>
      </trkpt>
      <trkpt lat="42.06654" lon="0.67073">
        <ele>728</ele>
        <time>2022-05-18T08:02:25Z</time>
      </trkpt>
      <trkpt lat="42.06662" lon="0.67077">
        <ele>728</ele>
        <time>2022-05-18T08:02:43Z</time>
      </trkpt>
      <trkpt lat="42.06668" lon="0.6708">
        <ele>728</ele>
        <time>2022-05-18T08:03:21Z</time>
      </trkpt>
      <trkpt lat="42.06669" lon="0.67087">
        <ele>728</ele>
        <time>2022-05-18T08:03:26Z</time>
      </trkpt>
      <trkpt lat="42.06678" lon="0.67102">
        <ele>728</ele>
        <time>2022-05-18T08:03:45Z</time>
      </trkpt>
      <trkpt lat="42.06683" lon="0.67105">
        <ele>727</ele>
        <time>2022-05-18T08:03:51Z</time>
      </trkpt>
      <trkpt lat="42.06683" lon="0.6712">
        <ele>727</ele>
        <time>2022-05-18T08:04:08Z</time>
      </trkpt>
      <trkpt lat="42.06689" lon="0.67123">
        <ele>727</ele>
        <time>2022-05-18T08:05:18Z</time>
      </trkpt>
      <trkpt lat="42.06697" lon="0.67119">
        <ele>727</ele>
        <time>2022-05-18T08:05:30Z</time>
      </trkpt>
      <trkpt lat="42.06702" lon="0.67123">
        <ele>726</ele>
        <time>2022-05-18T08:05:48Z</time>
      </trkpt>
      <trkpt lat="42.06704" lon="0.67131">
        <ele>726</ele>
        <time>2022-05-18T08:06:00Z</time>
      </trkpt>
      <trkpt lat="42.06705" lon="0.67137">
        <ele>726</ele>
        <time>2022-05-18T08:06:12Z</time>
      </trkpt>
      <trkpt lat="42.06708" lon="0.67143">
        <ele>726</ele>
        <time>2022-05-18T08:06:24Z</time>
      </trkpt>
      <trkpt lat="42.06712" lon="0.67158">
        <ele>726</ele>
        <time>2022-05-18T08:07:04Z</time>
      </trkpt>
      <trkpt lat="42.06718" lon="0.67155">
        <ele>725</ele>
        <time>2022-05-18T08:07:22Z</time>
      </trkpt>
      <trkpt lat="42.06722" lon="0.67179">
        <ele>725</ele>
        <time>2022-05-18T08:07:58Z</time>
      </trkpt>
      <trkpt lat="42.06722" lon="0.67186">
        <ele>725</ele>
        <time>2022-05-18T08:08:03Z</time>
      </trkpt>
      <trkpt lat="42.06721" lon="0.67193">
        <ele>725</ele>
        <time>2022-05-18T08:08:12Z</time>
      </trkpt>
      <trkpt lat="42.06722" lon="0.67199">
        <ele>725</ele>
        <time>2022-05-18T08:08:18Z</time>
      </trkpt>
      <trkpt lat="42.06724" lon="0.67205">
        <ele>725</ele>
        <time>2022-05-18T08:08:30Z</time>
      </trkpt>
      <trkpt lat="42.06724" lon="0.67212">
        <ele>725</ele>
        <time>2022-05-18T08:08:40Z</time>
      </trkpt>
      <trkpt lat="42.06734" lon="0.67218">
        <ele>724</ele>
        <time>2022-05-18T08:09:10Z</time>
      </trkpt>
      <trkpt lat="42.06742" lon="0.67205">
        <ele>724</ele>
        <time>2022-05-18T08:09:40Z</time>
      </trkpt>
      <trkpt lat="42.06748" lon="0.67221">
        <ele>724</ele>
        <time>2022-05-18T08:10:04Z</time>
      </trkpt>
      <trkpt lat="42.06753" lon="0.67222">
        <ele>723</ele>
        <time>2022-05-18T08:10:40Z</time>
      </trkpt>
      <trkpt lat="42.06756" lon="0.6723">
        <ele>723</ele>
        <time>2022-05-18T08:10:57Z</time>
      </trkpt>
      <trkpt lat="42.06759" lon="0.67236">
        <ele>723</ele>
        <time>2022-05-18T08:11:15Z</time>
      </trkpt>
      <trkpt lat="42.06762" lon="0.67241">
        <ele>723</ele>
        <time>2022-05-18T08:11:27Z</time>
      </trkpt>
      <trkpt lat="42.06766" lon="0.67235">
        <ele>723</ele>
        <time>2022-05-18T08:11:45Z</time>
      </trkpt>
      <trkpt lat="42.06769" lon="0.67241">
        <ele>723</ele>
        <time>2022-05-18T08:11:52Z</time>
      </trkpt>
      <trkpt lat="42.06772" lon="0.67246">
        <ele>723</ele>
        <time>2022-05-18T08:11:58Z</time>
      </trkpt>
      <trkpt lat="42.06774" lon="0.67252">
        <ele>723</ele>
        <time>2022-05-18T08:12:10Z</time>
      </trkpt>
      <trkpt lat="42.06784" lon="0.6727">
        <ele>722</ele>
        <time>2022-05-18T08:12:46Z</time>
      </trkpt>
      <trkpt lat="42.06787" lon="0.67275">
        <ele>722</ele>
        <time>2022-05-18T08:12:56Z</time>
      </trkpt>
      <trkpt lat="42.06788" lon="0.67283">
        <ele>722</ele>
        <time>2022-05-18T08:13:08Z</time>
      </trkpt>
      <trkpt lat="42.06798" lon="0.67302">
        <ele>721</ele>
        <time>2022-05-18T08:13:56Z</time>
      </trkpt>
      <trkpt lat="42.06801" lon="0.67307">
        <ele>721</ele>
        <time>2022-05-18T08:14:14Z</time>
      </trkpt>
      <trkpt lat="42.06804" lon="0.67312">
        <ele>721</ele>
        <time>2022-05-18T08:14:38Z</time>
      </trkpt>
      <trkpt lat="42.06807" lon="0.67316">
        <ele>721</ele>
        <time>2022-05-18T08:14:50Z</time>
      </trkpt>
      <trkpt lat="42.06813" lon="0.67334">
        <ele>720</ele>
        <time>2022-05-18T08:15:34Z</time>
      </trkpt>
      <trkpt lat="42.06816" lon="0.67343">
        <ele>720</ele>
        <time>2022-05-18T08:15:47Z</time>
      </trkpt>
      <trkpt lat="42.06816" lon="0.6735">
        <ele>720</ele>
        <time>2022-05-18T08:16:05Z</time>
      </trkpt>
      <trkpt lat="42.0682" lon="0.67354">
        <ele>720</ele>
        <time>2022-05-18T08:16:47Z</time>
      </trkpt>
      <trkpt lat="42.06821" lon="0.67372">
        <ele>719</ele>
        <time>2022-05-18T08:17:18Z</time>
      </trkpt>
      <trkpt lat="42.06821" lon="0.67381">
        <ele>719</ele>
        <time>2022-05-18T08:17:27Z</time>
      </trkpt>
      <trkpt lat="42.06822" lon="0.67387">
        <ele>719</ele>
        <time>2022-05-18T08:17:32Z</time>
      </trkpt>
      <trkpt lat="42.06812" lon="0.67398">
        <ele>719</ele>
        <time>2022-05-18T08:18:22Z</time>
      </trkpt>
      <trkpt lat="42.06808" lon="0.67397">
        <ele>719</ele>
        <time>2022-05-18T08:18:27Z</time>
      </trkpt>
      <trkpt lat="42.0681" lon="0.67404">
        <ele>718</ele>
        <time>2022-05-18T08:19:05Z</time>
      </trkpt>
      <trkpt lat="42.06807" lon="0.67408">
        <ele>718</ele>
        <time>2022-05-18T08:19:21Z</time>
      </trkpt>
      <trkpt lat="42.06805" lon="0.67414">
        <ele>718</ele>
        <time>2022-05-18T08:19:27Z</time>
      </trkpt>
      <trkpt lat="42.068" lon="0.67409">
        <ele>718</ele>
        <time>2022-05-18T08:19:57Z</time>
      </trkpt>
      <trkpt lat="42.06789" lon="0.67426">
        <ele>717</ele>
        <time>2022-05-18T08:20:33Z</time>
      </trkpt>
      <trkpt lat="42.06789" lon="0.67437">
        <ele>717</ele>
        <time>2022-05-18T08:20:45Z</time>
      </trkpt>
      <trkpt lat="42.06787" lon="0.67448">
        <ele>717</ele>
        <time>2022-05-18T08:21:59Z</time>
      </trkpt>
      <trkpt lat="42.06788" lon="0.67456">
        <ele>717</ele>
        <time>2022-05-18T08:22:06Z</time>
      </trkpt>
      <trkpt lat="42.06788" lon="0.67454">
        <ele>715</ele>
        <time>2022-05-18T08:25:17Z</time>
      </trkpt>
      <trkpt lat="42.0679" lon="0.67465">
        <ele>714</ele>
        <time>2022-05-18T08:26:03Z</time>
      </trkpt>
      <trkpt lat="42.06789" lon="0.67462">
        <ele>713</ele>
        <time>2022-05-18T08:27:12Z</time>
      </trkpt>
      <trkpt lat="42.06788" lon="0.67465">
        <ele>713</ele>
        <time>2022-05-18T08:27:45Z</time>
      </trkpt>
      <trkpt lat="42.06791" lon="0.67481">
        <ele>713</ele>
        <time>2022-05-18T08:28:08Z</time>
      </trkpt>
      <trkpt lat="42.06803" lon="0.67514">
        <ele>713</ele>
        <time>2022-05-18T08:28:47Z</time>
      </trkpt>
      <trkpt lat="42.06804" lon="0.6752">
        <ele>712</ele>
        <time>2022-05-18T08:28:53Z</time>
      </trkpt>
      <trkpt lat="42.06808" lon="0.67527">
        <ele>712</ele>
        <time>2022-05-18T08:28:59Z</time>
      </trkpt>
      <trkpt lat="42.06809" lon="0.67539">
        <ele>712</ele>
        <time>2022-05-18T08:29:13Z</time>
      </trkpt>
      <trkpt lat="42.06814" lon="0.67549">
        <ele>712</ele>
        <time>2022-05-18T08:29:26Z</time>
      </trkpt>
      <trkpt lat="42.06819" lon="0.6755">
        <ele>712</ele>
        <time>2022-05-18T08:29:31Z</time>
      </trkpt>
      <trkpt lat="42.0682" lon="0.67557">
        <ele>712</ele>
        <time>2022-05-18T08:29:47Z</time>
      </trkpt>
      <trkpt lat="42.06827" lon="0.67565">
        <ele>712</ele>
        <time>2022-05-18T08:29:59Z</time>
      </trkpt>
      <trkpt lat="42.06831" lon="0.67569">
        <ele>711</ele>
        <time>2022-05-18T08:31:00Z</time>
      </trkpt>
      <trkpt lat="42.06841" lon="0.6758">
        <ele>711</ele>
        <time>2022-05-18T08:31:23Z</time>
      </trkpt>
      <trkpt lat="42.06839" lon="0.67585">
        <ele>710</ele>
        <time>2022-05-18T08:32:29Z</time>
      </trkpt>
      <trkpt lat="42.06835" lon="0.67589">
        <ele>710</ele>
        <time>2022-05-18T08:32:53Z</time>
      </trkpt>
      <trkpt lat="42.06831" lon="0.67595">
        <ele>710</ele>
        <time>2022-05-18T08:33:23Z</time>
      </trkpt>
      <trkpt lat="42.06831" lon="0.67602">
        <ele>709</ele>
        <time>2022-05-18T08:33:54Z</time>
      </trkpt>
      <trkpt lat="42.06835" lon="0.67624">
        <ele>709</ele>
        <time>2022-05-18T08:34:39Z</time>
      </trkpt>
      <trkpt lat="42.0683" lon="0.67631">
        <ele>709</ele>
        <time>2022-05-18T08:34:53Z</time>
      </trkpt>
      <trkpt lat="42.06833" lon="0.67645">
        <ele>709</ele>
        <time>2022-05-18T08:35:09Z</time>
      </trkpt>
      <trkpt lat="42.0684" lon="0.67664">
        <ele>708</ele>
        <time>2022-05-18T08:35:38Z</time>
      </trkpt>
      <trkpt lat="42.06846" lon="0.67671">
        <ele>708</ele>
        <time>2022-05-18T08:35:52Z</time>
      </trkpt>
      <trkpt lat="42.06854" lon="0.67684">
        <ele>708</ele>
        <time>2022-05-18T08:37:05Z</time>
      </trkpt>
      <trkpt lat="42.06858" lon="0.67697">
        <ele>707</ele>
        <time>2022-05-18T08:37:22Z</time>
      </trkpt>
      <trkpt lat="42.06872" lon="0.67722">
        <ele>707</ele>
        <time>2022-05-18T08:38:37Z</time>
      </trkpt>
      <trkpt lat="42.06878" lon="0.67739">
        <ele>706</ele>
        <time>2022-05-18T08:39:00Z</time>
      </trkpt>
      <trkpt lat="42.06879" lon="0.67761">
        <ele>706</ele>
        <time>2022-05-18T08:39:27Z</time>
      </trkpt>
      <trkpt lat="42.06884" lon="0.67771">
        <ele>706</ele>
        <time>2022-05-18T08:39:51Z</time>
      </trkpt>
      <trkpt lat="42.06886" lon="0.67777">
        <ele>705</ele>
        <time>2022-05-18T08:40:38Z</time>
      </trkpt>
      <trkpt lat="42.06892" lon="0.67791">
        <ele>705</ele>
        <time>2022-05-18T08:40:55Z</time>
      </trkpt>
      <trkpt lat="42.06898" lon="0.67795">
        <ele>705</ele>
        <time>2022-05-18T08:41:04Z</time>
      </trkpt>
      <trkpt lat="42.06901" lon="0.67801">
        <ele>705</ele>
        <time>2022-05-18T08:41:16Z</time>
      </trkpt>
      <trkpt lat="42.06913" lon="0.67808">
        <ele>705</ele>
        <time>2022-05-18T08:41:33Z</time>
      </trkpt>
      <trkpt lat="42.06915" lon="0.67814">
        <ele>705</ele>
        <time>2022-05-18T08:41:47Z</time>
      </trkpt>
      <trkpt lat="42.06924" lon="0.6782">
        <ele>705</ele>
        <time>2022-05-18T08:41:58Z</time>
      </trkpt>
      <trkpt lat="42.06926" lon="0.67827">
        <ele>704</ele>
        <time>2022-05-18T08:42:17Z</time>
      </trkpt>
      <trkpt lat="42.06943" lon="0.67835">
        <ele>704</ele>
        <time>2022-05-18T08:42:43Z</time>
      </trkpt>
      <trkpt lat="42.06949" lon="0.67835">
        <ele>704</ele>
        <time>2022-05-18T08:42:55Z</time>
      </trkpt>
      <trkpt lat="42.06957" lon="0.6784">
        <ele>704</ele>
        <time>2022-05-18T08:43:24Z</time>
      </trkpt>
      <trkpt lat="42.06961" lon="0.67845">
        <ele>704</ele>
        <time>2022-05-18T08:43:35Z</time>
      </trkpt>
      <trkpt lat="42.06967" lon="0.67854">
        <ele>703</ele>
        <time>2022-05-18T08:43:54Z</time>
      </trkpt>
      <trkpt lat="42.06972" lon="0.67856">
        <ele>703</ele>
        <time>2022-05-18T08:44:01Z</time>
      </trkpt>
      <trkpt lat="42.06975" lon="0.67863">
        <ele>703</ele>
        <time>2022-05-18T08:44:18Z</time>
      </trkpt>
      <trkpt lat="42.0698" lon="0.67865">
        <ele>703</ele>
        <time>2022-05-18T08:44:30Z</time>
      </trkpt>
      <trkpt lat="42.06986" lon="0.67862">
        <ele>703</ele>
        <time>2022-05-18T08:44:55Z</time>
      </trkpt>
      <trkpt lat="42.06993" lon="0.67864">
        <ele>703</ele>
        <time>2022-05-18T08:45:07Z</time>
      </trkpt>
      <trkpt lat="42.07007" lon="0.67865">
        <ele>702</ele>
        <time>2022-05-18T08:45:50Z</time>
      </trkpt>
      <trkpt lat="42.07022" lon="0.67866">
        <ele>702</ele>
        <time>2022-05-18T08:46:04Z</time>
      </trkpt>
      <trkpt lat="42.07037" lon="0.67874">
        <ele>702</ele>
        <time>2022-05-18T08:46:57Z</time>
      </trkpt>
      <trkpt lat="42.07044" lon="0.67877">
        <ele>702</ele>
        <time>2022-05-18T08:47:09Z</time>
      </trkpt>
      <trkpt lat="42.07049" lon="0.67877">
        <ele>701</ele>
        <time>2022-05-18T08:47:15Z</time>
      </trkpt>
      <trkpt lat="42.07055" lon="0.67877">
        <ele>701</ele>
        <time>2022-05-18T08:48:11Z</time>
      </trkpt>
      <trkpt lat="42.07059" lon="0.67884">
        <ele>701</ele>
        <time>2022-05-18T08:48:40Z</time>
      </trkpt>
      <trkpt lat="42.07064" lon="0.67891">
        <ele>701</ele>
        <time>2022-05-18T08:48:49Z</time>
      </trkpt>
      <trkpt lat="42.07062" lon="0.67895">
        <ele>700</ele>
        <time>2022-05-18T08:49:27Z</time>
      </trkpt>
      <trkpt lat="42.07067" lon="0.67897">
        <ele>700</ele>
        <time>2022-05-18T08:49:39Z</time>
      </trkpt>
      <trkpt lat="42.07085" lon="0.6791">
        <ele>700</ele>
        <time>2022-05-18T08:50:07Z</time>
      </trkpt>
      <trkpt lat="42.07087" lon="0.67917">
        <ele>700</ele>
        <time>2022-05-18T08:50:15Z</time>
      </trkpt>
      <trkpt lat="42.07091" lon="0.67915">
        <ele>699</ele>
        <time>2022-05-18T08:51:16Z</time>
      </trkpt>
      <trkpt lat="42.07097" lon="0.67918">
        <ele>699</ele>
        <time>2022-05-18T08:51:22Z</time>
      </trkpt>
      <trkpt lat="42.07119" lon="0.67922">
        <ele>698</ele>
        <time>2022-05-18T08:52:15Z</time>
      </trkpt>
      <trkpt lat="42.07128" lon="0.67919">
        <ele>698</ele>
        <time>2022-05-18T08:52:34Z</time>
      </trkpt>
      <trkpt lat="42.07135" lon="0.67914">
        <ele>698</ele>
        <time>2022-05-18T08:52:45Z</time>
      </trkpt>
      <trkpt lat="42.07142" lon="0.67908">
        <ele>698</ele>
        <time>2022-05-18T08:53:09Z</time>
      </trkpt>
      <trkpt lat="42.07146" lon="0.67901">
        <ele>698</ele>
        <time>2022-05-18T08:53:16Z</time>
      </trkpt>
      <trkpt lat="42.07156" lon="0.67908">
        <ele>698</ele>
        <time>2022-05-18T08:53:20Z</time>
      </trkpt>
      <trkpt lat="42.0716" lon="0.67909">
        <ele>698</ele>
        <time>2022-05-18T08:53:46Z</time>
      </trkpt>
      <trkpt lat="42.07165" lon="0.67923">
        <ele>697</ele>
        <time>2022-05-18T08:54:19Z</time>
      </trkpt>
      <trkpt lat="42.07173" lon="0.67935">
        <ele>697</ele>
        <time>2022-05-18T08:54:35Z</time>
      </trkpt>
      <trkpt lat="42.07183" lon="0.67952">
        <ele>697</ele>
        <time>2022-05-18T08:55:01Z</time>
      </trkpt>
      <trkpt lat="42.07187" lon="0.67958">
        <ele>697</ele>
        <time>2022-05-18T08:55:16Z</time>
      </trkpt>
      <trkpt lat="42.07192" lon="0.67969">
        <ele>696</ele>
        <time>2022-05-18T08:55:34Z</time>
      </trkpt>
      <trkpt lat="42.07199" lon="0.6797">
        <ele>696</ele>
        <time>2022-05-18T08:55:40Z</time>
      </trkpt>
      <trkpt lat="42.07219" lon="0.67986">
        <ele>696</ele>
        <time>2022-05-18T08:56:17Z</time>
      </trkpt>
      <trkpt lat="42.07228" lon="0.67987">
        <ele>696</ele>
        <time>2022-05-18T08:56:30Z</time>
      </trkpt>
      <trkpt lat="42.07237" lon="0.67985">
        <ele>696</ele>
        <time>2022-05-18T08:56:43Z</time>
      </trkpt>
      <trkpt lat="42.07244" lon="0.6798">
        <ele>696</ele>
        <time>2022-05-18T08:56:47Z</time>
      </trkpt>
      <trkpt lat="42.07251" lon="0.67988">
        <ele>696</ele>
        <time>2022-05-18T08:57:05Z</time>
      </trkpt>
      <trkpt lat="42.07258" lon="0.67987">
        <ele>695</ele>
        <time>2022-05-18T08:57:37Z</time>
      </trkpt>
      <trkpt lat="42.07265" lon="0.67988">
        <ele>695</ele>
        <time>2022-05-18T08:57:42Z</time>
      </trkpt>
      <trkpt lat="42.07282" lon="0.67976">
        <ele>695</ele>
        <time>2022-05-18T08:57:58Z</time>
      </trkpt>
      <trkpt lat="42.07297" lon="0.67972">
        <ele>695</ele>
        <time>2022-05-18T08:58:08Z</time>
      </trkpt>
      <trkpt lat="42.07303" lon="0.67976">
        <ele>695</ele>
        <time>2022-05-18T08:58:16Z</time>
      </trkpt>
      <trkpt lat="42.07307" lon="0.67988">
        <ele>695</ele>
        <time>2022-05-18T08:58:27Z</time>
      </trkpt>
      <trkpt lat="42.07312" lon="0.67991">
        <ele>694</ele>
        <time>2022-05-18T08:58:50Z</time>
      </trkpt>
      <trkpt lat="42.0731" lon="0.67998">
        <ele>694</ele>
        <time>2022-05-18T08:58:56Z</time>
      </trkpt>
      <trkpt lat="42.07306" lon="0.68001">
        <ele>694</ele>
        <time>2022-05-18T08:59:15Z</time>
      </trkpt>
      <trkpt lat="42.07301" lon="0.68004">
        <ele>694</ele>
        <time>2022-05-18T08:59:54Z</time>
      </trkpt>
      <trkpt lat="42.07301" lon="0.68">
        <ele>694</ele>
        <time>2022-05-18T09:00:18Z</time>
      </trkpt>
      <trkpt lat="42.07317" lon="0.67997">
        <ele>693</ele>
        <time>2022-05-18T09:00:46Z</time>
      </trkpt>
      <trkpt lat="42.07324" lon="0.67999">
        <ele>693</ele>
        <time>2022-05-18T09:01:48Z</time>
      </trkpt>
      <trkpt lat="42.07331" lon="0.68001">
        <ele>693</ele>
        <time>2022-05-18T09:02:00Z</time>
      </trkpt>
      <trkpt lat="42.07345" lon="0.68003">
        <ele>692</ele>
        <time>2022-05-18T09:02:27Z</time>
      </trkpt>
      <trkpt lat="42.07352" lon="0.68005">
        <ele>692</ele>
        <time>2022-05-18T09:02:34Z</time>
      </trkpt>
      <trkpt lat="42.0736" lon="0.68007">
        <ele>692</ele>
        <time>2022-05-18T09:02:47Z</time>
      </trkpt>
      <trkpt lat="42.07367" lon="0.68011">
        <ele>692</ele>
        <time>2022-05-18T09:03:00Z</time>
      </trkpt>
      <trkpt lat="42.07375" lon="0.68012">
        <ele>692</ele>
        <time>2022-05-18T09:03:13Z</time>
      </trkpt>
      <trkpt lat="42.074" lon="0.68017">
        <ele>692</ele>
        <time>2022-05-18T09:03:41Z</time>
      </trkpt>
      <trkpt lat="42.074" lon="0.68031">
        <ele>691</ele>
        <time>2022-05-18T09:03:56Z</time>
      </trkpt>
      <trkpt lat="42.07393" lon="0.68033">
        <ele>691</ele>
        <time>2022-05-18T09:03:59Z</time>
      </trkpt>
      <trkpt lat="42.07401" lon="0.68039">
        <ele>691</ele>
        <time>2022-05-18T09:04:28Z</time>
      </trkpt>
      <trkpt lat="42.07416" lon="0.68016">
        <ele>691</ele>
        <time>2022-05-18T09:04:58Z</time>
      </trkpt>
      <trkpt lat="42.07434" lon="0.68014">
        <ele>691</ele>
        <time>2022-05-18T09:05:06Z</time>
      </trkpt>
      <trkpt lat="42.07444" lon="0.68024">
        <ele>691</ele>
        <time>2022-05-18T09:05:10Z</time>
      </trkpt>
      <trkpt lat="42.07447" lon="0.68033">
        <ele>691</ele>
        <time>2022-05-18T09:05:15Z</time>
      </trkpt>
      <trkpt lat="42.07443" lon="0.68044">
        <ele>691</ele>
        <time>2022-05-18T09:05:21Z</time>
      </trkpt>
      <trkpt lat="42.07426" lon="0.68062">
        <ele>690</ele>
        <time>2022-05-18T09:05:31Z</time>
      </trkpt>
      <trkpt lat="42.07417" lon="0.68064">
        <ele>690</ele>
        <time>2022-05-18T09:05:35Z</time>
      </trkpt>
      <trkpt lat="42.07415" lon="0.6805">
        <ele>690</ele>
        <time>2022-05-18T09:05:47Z</time>
      </trkpt>
      <trkpt lat="42.07426" lon="0.68046">
        <ele>690</ele>
        <time>2022-05-18T09:06:04Z</time>
      </trkpt>
      <trkpt lat="42.07449" lon="0.68046">
        <ele>690</ele>
        <time>2022-05-18T09:06:27Z</time>
      </trkpt>
      <trkpt lat="42.07461" lon="0.68059">
        <ele>690</ele>
        <time>2022-05-18T09:07:00Z</time>
      </trkpt>
      <trkpt lat="42.07462" lon="0.68063">
        <ele>689</ele>
        <time>2022-05-18T09:07:48Z</time>
      </trkpt>
      <trkpt lat="42.07475" lon="0.68065">
        <ele>689</ele>
        <time>2022-05-18T09:08:19Z</time>
      </trkpt>
      <trkpt lat="42.07501" lon="0.68058">
        <ele>689</ele>
        <time>2022-05-18T09:08:48Z</time>
      </trkpt>
      <trkpt lat="42.07505" lon="0.68063">
        <ele>688</ele>
        <time>2022-05-18T09:08:53Z</time>
      </trkpt>
      <trkpt lat="42.07511" lon="0.68061">
        <ele>688</ele>
        <time>2022-05-18T09:09:00Z</time>
      </trkpt>
      <trkpt lat="42.07524" lon="0.68054">
        <ele>688</ele>
        <time>2022-05-18T09:09:09Z</time>
      </trkpt>
      <trkpt lat="42.07531" lon="0.68056">
        <ele>688</ele>
        <time>2022-05-18T09:09:15Z</time>
      </trkpt>
      <trkpt lat="42.0753" lon="0.68063">
        <ele>688</ele>
        <time>2022-05-18T09:09:18Z</time>
      </trkpt>
      <trkpt lat="42.07524" lon="0.6807">
        <ele>688</ele>
        <time>2022-05-18T09:09:20Z</time>
      </trkpt>
      <trkpt lat="42.07519" lon="0.68071">
        <ele>688</ele>
        <time>2022-05-18T09:09:22Z</time>
      </trkpt>
      <trkpt lat="42.07505" lon="0.68071">
        <ele>688</ele>
        <time>2022-05-18T09:09:33Z</time>
      </trkpt>
      <trkpt lat="42.07502" lon="0.68079">
        <ele>688</ele>
        <time>2022-05-18T09:09:41Z</time>
      </trkpt>
      <trkpt lat="42.07495" lon="0.68078">
        <ele>688</ele>
        <time>2022-05-18T09:10:03Z</time>
      </trkpt>
      <trkpt lat="42.07496" lon="0.68071">
        <ele>687</ele>
        <time>2022-05-18T09:11:58Z</time>
      </trkpt>
      <trkpt lat="42.07496" lon="0.68068">
        <ele>686</ele>
        <time>2022-05-18T09:12:31Z</time>
      </trkpt>
      <trkpt lat="42.07494" lon="0.68065">
        <ele>686</ele>
        <time>2022-05-18T09:13:00Z</time>
      </trkpt>
      <trkpt lat="42.07502" lon="0.68069">
        <ele>686</ele>
        <time>2022-05-18T09:13:04Z</time>
      </trkpt>
      <trkpt lat="42.07505" lon="0.68074">
        <ele>686</ele>
        <time>2022-05-18T09:13:06Z</time>
      </trkpt>
      <trkpt lat="42.07499" lon="0.68059">
        <ele>686</ele>
        <time>2022-05-18T09:13:14Z</time>
      </trkpt>
      <trkpt lat="42.07492" lon="0.6805">
        <ele>686</ele>
        <time>2022-05-18T09:13:16Z</time>
      </trkpt>
      <trkpt lat="42.07488" lon="0.68041">
        <ele>686</ele>
        <time>2022-05-18T09:13:18Z</time>
      </trkpt>
      <trkpt lat="42.07525" lon="0.68038">
        <ele>686</ele>
        <time>2022-05-18T09:13:36Z</time>
      </trkpt>
      <trkpt lat="42.07539" lon="0.6803">
        <ele>686</ele>
        <time>2022-05-18T09:13:41Z</time>
      </trkpt>
      <trkpt lat="42.0756" lon="0.68039">
        <ele>686</ele>
        <time>2022-05-18T09:13:45Z</time>
      </trkpt>
      <trkpt lat="42.07563" lon="0.68043">
        <ele>686</ele>
        <time>2022-05-18T09:13:47Z</time>
      </trkpt>
      <trkpt lat="42.0757" lon="0.68032">
        <ele>685</ele>
        <time>2022-05-18T09:13:58Z</time>
      </trkpt>
      <trkpt lat="42.07576" lon="0.68029">
        <ele>685</ele>
        <time>2022-05-18T09:14:02Z</time>
      </trkpt>
      <trkpt lat="42.07584" lon="0.68032">
        <ele>685</ele>
        <time>2022-05-18T09:14:04Z</time>
      </trkpt>
      <trkpt lat="42.07586" lon="0.68016">
        <ele>685</ele>
        <time>2022-05-18T09:14:10Z</time>
      </trkpt>
      <trkpt lat="42.07564" lon="0.67966">
        <ele>685</ele>
        <time>2022-05-18T09:14:25Z</time>
      </trkpt>
      <trkpt lat="42.07571" lon="0.67956">
        <ele>685</ele>
        <time>2022-05-18T09:14:35Z</time>
      </trkpt>
      <trkpt lat="42.07584" lon="0.67936">
        <ele>685</ele>
        <time>2022-05-18T09:14:46Z</time>
      </trkpt>
      <trkpt lat="42.07581" lon="0.67921">
        <ele>685</ele>
        <time>2022-05-18T09:15:05Z</time>
      </trkpt>
      <trkpt lat="42.07568" lon="0.67915">
        <ele>685</ele>
        <time>2022-05-18T09:15:19Z</time>
      </trkpt>
      <trkpt lat="42.07616" lon="0.67906">
        <ele>684</ele>
        <time>2022-05-18T09:15:33Z</time>
      </trkpt>
      <trkpt lat="42.07645" lon="0.67887">
        <ele>684</ele>
        <time>2022-05-18T09:15:52Z</time>
      </trkpt>
      <trkpt lat="42.07647" lon="0.67879">
        <ele>684</ele>
        <time>2022-05-18T09:15:57Z</time>
      </trkpt>
      <trkpt lat="42.07656" lon="0.67886">
        <ele>684</ele>
        <time>2022-05-18T09:16:13Z</time>
      </trkpt>
      <trkpt lat="42.07659" lon="0.67907">
        <ele>684</ele>
        <time>2022-05-18T09:16:19Z</time>
      </trkpt>
      <trkpt lat="42.07655" lon="0.6792">
        <ele>684</ele>
        <time>2022-05-18T09:16:23Z</time>
      </trkpt>
      <trkpt lat="42.0766" lon="0.67973">
        <ele>684</ele>
        <time>2022-05-18T09:16:37Z</time>
      </trkpt>
      <trkpt lat="42.07648" lon="0.67979">
        <ele>684</ele>
        <time>2022-05-18T09:16:40Z</time>
      </trkpt>
      <trkpt lat="42.0764" lon="0.6798">
        <ele>684</ele>
        <time>2022-05-18T09:16:43Z</time>
      </trkpt>
      <trkpt lat="42.07639" lon="0.67998">
        <ele>684</ele>
        <time>2022-05-18T09:16:48Z</time>
      </trkpt>
      <trkpt lat="42.07642" lon="0.6801">
        <ele>684</ele>
        <time>2022-05-18T09:16:54Z</time>
      </trkpt>
      <trkpt lat="42.07664" lon="0.68057">
        <ele>683</ele>
        <time>2022-05-18T09:17:22Z</time>
      </trkpt>
      <trkpt lat="42.07686" lon="0.68054">
        <ele>683</ele>
        <time>2022-05-18T09:17:38Z</time>
      </trkpt>
      <trkpt lat="42.07702" lon="0.6806">
        <ele>683</ele>
        <time>2022-05-18T09:17:50Z</time>
      </trkpt>
      <trkpt lat="42.07724" lon="0.68055">
        <ele>683</ele>
        <time>2022-05-18T09:18:01Z</time>
      </trkpt>
      <trkpt lat="42.07706" lon="0.68029">
        <ele>683</ele>
        <time>2022-05-18T09:18:23Z</time>
      </trkpt>
      <trkpt lat="42.07696" lon="0.68021">
        <ele>683</ele>
        <time>2022-05-18T09:18:32Z</time>
      </trkpt>
      <trkpt lat="42.07665" lon="0.68008">
        <ele>683</ele>
        <time>2022-05-18T09:18:47Z</time>
      </trkpt>
      <trkpt lat="42.0766" lon="0.67978">
        <ele>682</ele>
        <time>2022-05-18T09:18:52Z</time>
      </trkpt>
      <trkpt lat="42.07671" lon="0.67981">
        <ele>682</ele>
        <time>2022-05-18T09:19:09Z</time>
      </trkpt>
      <trkpt lat="42.07675" lon="0.67997">
        <ele>682</ele>
        <time>2022-05-18T09:19:12Z</time>
      </trkpt>
      <trkpt lat="42.07674" lon="0.68012">
        <ele>682</ele>
        <time>2022-05-18T09:19:16Z</time>
      </trkpt>
      <trkpt lat="42.07671" lon="0.68043">
        <ele>682</ele>
        <time>2022-05-18T09:19:22Z</time>
      </trkpt>
      <trkpt lat="42.07665" lon="0.68055">
        <ele>682</ele>
        <time>2022-05-18T09:19:25Z</time>
      </trkpt>
      <trkpt lat="42.07672" lon="0.68076">
        <ele>682</ele>
        <time>2022-05-18T09:19:33Z</time>
      </trkpt>
      <trkpt lat="42.07685" lon="0.68093">
        <ele>682</ele>
        <time>2022-05-18T09:19:38Z</time>
      </trkpt>
      <trkpt lat="42.07703" lon="0.68086">
        <ele>682</ele>
        <time>2022-05-18T09:19:41Z</time>
      </trkpt>
      <trkpt lat="42.07713" lon="0.68087">
        <ele>682</ele>
        <time>2022-05-18T09:19:42Z</time>
      </trkpt>
      <trkpt lat="42.07718" lon="0.68096">
        <ele>682</ele>
        <time>2022-05-18T09:19:43Z</time>
      </trkpt>
      <trkpt lat="42.07718" lon="0.68105">
        <ele>682</ele>
        <time>2022-05-18T09:19:45Z</time>
      </trkpt>
      <trkpt lat="42.07728" lon="0.68094">
        <ele>682</ele>
        <time>2022-05-18T09:19:52Z</time>
      </trkpt>
      <trkpt lat="42.07734" lon="0.68089">
        <ele>682</ele>
        <time>2022-05-18T09:19:54Z</time>
      </trkpt>
      <trkpt lat="42.07738" lon="0.6808">
        <ele>682</ele>
        <time>2022-05-18T09:19:57Z</time>
      </trkpt>
      <trkpt lat="42.07746" lon="0.6807">
        <ele>682</ele>
        <time>2022-05-18T09:20:02Z</time>
      </trkpt>
      <trkpt lat="42.07752" lon="0.68055">
        <ele>682</ele>
        <time>2022-05-18T09:20:06Z</time>
      </trkpt>
      <trkpt lat="42.07739" lon="0.68045">
        <ele>682</ele>
        <time>2022-05-18T09:20:18Z</time>
      </trkpt>
      <trkpt lat="42.07715" lon="0.67992">
        <ele>681</ele>
        <time>2022-05-18T09:20:34Z</time>
      </trkpt>
      <trkpt lat="42.07706" lon="0.67988">
        <ele>681</ele>
        <time>2022-05-18T09:20:43Z</time>
      </trkpt>
      <trkpt lat="42.07717" lon="0.67981">
        <ele>681</ele>
        <time>2022-05-18T09:21:25Z</time>
      </trkpt>
      <trkpt lat="42.07724" lon="0.67984">
        <ele>681</ele>
        <time>2022-05-18T09:21:30Z</time>
      </trkpt>
      <trkpt lat="42.07729" lon="0.67997">
        <ele>681</ele>
        <time>2022-05-18T09:21:41Z</time>
      </trkpt>
      <trkpt lat="42.07778" lon="0.68041">
        <ele>681</ele>
        <time>2022-05-18T09:22:02Z</time>
      </trkpt>
      <trkpt lat="42.07802" lon="0.68044">
        <ele>680</ele>
        <time>2022-05-18T09:22:18Z</time>
      </trkpt>
      <trkpt lat="42.07824" lon="0.68076">
        <ele>680</ele>
        <time>2022-05-18T09:22:33Z</time>
      </trkpt>
      <trkpt lat="42.07835" lon="0.68085">
        <ele>680</ele>
        <time>2022-05-18T09:22:54Z</time>
      </trkpt>
      <trkpt lat="42.07847" lon="0.68103">
        <ele>680</ele>
        <time>2022-05-18T09:23:37Z</time>
      </trkpt>
      <trkpt lat="42.07855" lon="0.68112">
        <ele>679</ele>
        <time>2022-05-18T09:24:20Z</time>
      </trkpt>
      <trkpt lat="42.07863" lon="0.6812">
        <ele>679</ele>
        <time>2022-05-18T09:24:27Z</time>
      </trkpt>
      <trkpt lat="42.07876" lon="0.68109">
        <ele>679</ele>
        <time>2022-05-18T09:24:48Z</time>
      </trkpt>
      <trkpt lat="42.07876" lon="0.68098">
        <ele>678</ele>
        <time>2022-05-18T09:25:51Z</time>
      </trkpt>
      <trkpt lat="42.07893" lon="0.68102">
        <ele>678</ele>
        <time>2022-05-18T09:26:52Z</time>
      </trkpt>
      <trkpt lat="42.07902" lon="0.68096">
        <ele>677</ele>
        <time>2022-05-18T09:27:14Z</time>
      </trkpt>
      <trkpt lat="42.07907" lon="0.68102">
        <ele>677</ele>
        <time>2022-05-18T09:27:20Z</time>
      </trkpt>
      <trkpt lat="42.07911" lon="0.68112">
        <ele>677</ele>
        <time>2022-05-18T09:28:27Z</time>
      </trkpt>
      <trkpt lat="42.0792" lon="0.6811">
        <ele>677</ele>
        <time>2022-05-18T09:28:34Z</time>
      </trkpt>
      <trkpt lat="42.07938" lon="0.6811">
        <ele>677</ele>
        <time>2022-05-18T09:28:44Z</time>
      </trkpt>
      <trkpt lat="42.07955" lon="0.68099">
        <ele>676</ele>
        <time>2022-05-18T09:29:08Z</time>
      </trkpt>
      <trkpt lat="42.07966" lon="0.681">
        <ele>676</ele>
        <time>2022-05-18T09:29:15Z</time>
      </trkpt>
      <trkpt lat="42.07971" lon="0.68105">
        <ele>676</ele>
        <time>2022-05-18T09:29:21Z</time>
      </trkpt>
      <trkpt lat="42.07966" lon="0.68122">
        <ele>676</ele>
        <time>2022-05-18T09:29:31Z</time>
      </trkpt>
      <trkpt lat="42.0797" lon="0.68128">
        <ele>676</ele>
        <time>2022-05-18T09:29:34Z</time>
      </trkpt>
      <trkpt lat="42.07983" lon="0.68121">
        <ele>676</ele>
        <time>2022-05-18T09:29:45Z</time>
      </trkpt>
      <trkpt lat="42.07989" lon="0.68127">
        <ele>676</ele>
        <time>2022-05-18T09:29:51Z</time>
      </trkpt>
      <trkpt lat="42.07995" lon="0.68139">
        <ele>676</ele>
        <time>2022-05-18T09:29:54Z</time>
      </trkpt>
      <trkpt lat="42.07992" lon="0.68148">
        <ele>676</ele>
        <time>2022-05-18T09:30:01Z</time>
      </trkpt>
      <trkpt lat="42.08009" lon="0.68161">
        <ele>676</ele>
        <time>2022-05-18T09:30:12Z</time>
      </trkpt>
      <trkpt lat="42.08014" lon="0.68176">
        <ele>676</ele>
        <time>2022-05-18T09:30:24Z</time>
      </trkpt>
      <trkpt lat="42.08024" lon="0.68189">
        <ele>675</ele>
        <time>2022-05-18T09:30:42Z</time>
      </trkpt>
      <trkpt lat="42.08032" lon="0.68199">
        <ele>675</ele>
        <time>2022-05-18T09:30:59Z</time>
      </trkpt>
      <trkpt lat="42.08028" lon="0.68194">
        <ele>675</ele>
        <time>2022-05-18T09:31:39Z</time>
      </trkpt>
      <trkpt lat="42.08015" lon="0.68177">
        <ele>675</ele>
        <time>2022-05-18T09:32:10Z</time>
      </trkpt>
      <trkpt lat="42.08006" lon="0.68169">
        <ele>674</ele>
        <time>2022-05-18T09:32:20Z</time>
      </trkpt>
      <trkpt lat="42.08003" lon="0.68161">
        <ele>674</ele>
        <time>2022-05-18T09:32:25Z</time>
      </trkpt>
      <trkpt lat="42.07989" lon="0.68151">
        <ele>674</ele>
        <time>2022-05-18T09:32:43Z</time>
      </trkpt>
      <trkpt lat="42.07983" lon="0.68143">
        <ele>674</ele>
        <time>2022-05-18T09:32:49Z</time>
      </trkpt>
      <trkpt lat="42.07975" lon="0.68149">
        <ele>674</ele>
        <time>2022-05-18T09:32:56Z</time>
      </trkpt>
      <trkpt lat="42.07962" lon="0.68119">
        <ele>674</ele>
        <time>2022-05-18T09:33:20Z</time>
      </trkpt>
      <trkpt lat="42.07939" lon="0.68109">
        <ele>674</ele>
        <time>2022-05-18T09:33:45Z</time>
      </trkpt>
      <trkpt lat="42.07925" lon="0.68101">
        <ele>673</ele>
        <time>2022-05-18T09:33:57Z</time>
      </trkpt>
      <trkpt lat="42.07909" lon="0.68092">
        <ele>673</ele>
        <time>2022-05-18T09:34:09Z</time>
      </trkpt>
      <trkpt lat="42.07897" lon="0.68096">
        <ele>673</ele>
        <time>2022-05-18T09:34:25Z</time>
      </trkpt>
      <trkpt lat="42.07879" lon="0.68091">
        <ele>673</ele>
        <time>2022-05-18T09:34:54Z</time>
      </trkpt>
      <trkpt lat="42.07857" lon="0.68094">
        <ele>672</ele>
        <time>2022-05-18T09:36:30Z</time>
      </trkpt>
      <trkpt lat="42.07816" lon="0.68078">
        <ele>672</ele>
        <time>2022-05-18T09:37:07Z</time>
      </trkpt>
      <trkpt lat="42.07803" lon="0.68054">
        <ele>671</ele>
        <time>2022-05-18T09:37:48Z</time>
      </trkpt>
      <trkpt lat="42.07795" lon="0.6808">
        <ele>671</ele>
        <time>2022-05-18T09:38:14Z</time>
      </trkpt>
      <trkpt lat="42.0781" lon="0.68102">
        <ele>671</ele>
        <time>2022-05-18T09:38:21Z</time>
      </trkpt>
      <trkpt lat="42.0781" lon="0.68099">
        <ele>670</ele>
        <time>2022-05-18T09:38:50Z</time>
      </trkpt>
      <trkpt lat="42.07804" lon="0.68067">
        <ele>670</ele>
        <time>2022-05-18T09:38:55Z</time>
      </trkpt>
      <trkpt lat="42.07798" lon="0.68054">
        <ele>670</ele>
        <time>2022-05-18T09:38:59Z</time>
      </trkpt>
      <trkpt lat="42.07784" lon="0.68032">
        <ele>670</ele>
        <time>2022-05-18T09:39:12Z</time>
      </trkpt>
      <trkpt lat="42.0776" lon="0.68009">
        <ele>670</ele>
        <time>2022-05-18T09:39:38Z</time>
      </trkpt>
      <trkpt lat="42.07719" lon="0.67987">
        <ele>670</ele>
        <time>2022-05-18T09:39:40Z</time>
      </trkpt>
      <trkpt lat="42.07731" lon="0.68032">
        <ele>670</ele>
        <time>2022-05-18T09:40:14Z</time>
      </trkpt>
      <trkpt lat="42.07733" lon="0.68035">
        <ele>670</ele>
        <time>2022-05-18T09:40:18Z</time>
      </trkpt>
      <trkpt lat="42.07732" lon="0.68055">
        <ele>670</ele>
        <time>2022-05-18T09:40:24Z</time>
      </trkpt>
      <trkpt lat="42.07722" lon="0.68061">
        <ele>669</ele>
        <time>2022-05-18T09:40:49Z</time>
      </trkpt>
      <trkpt lat="42.07705" lon="0.68065">
        <ele>669</ele>
        <time>2022-05-18T09:41:04Z</time>
      </trkpt>
      <trkpt lat="42.07676" lon="0.68013">
        <ele>669</ele>
        <time>2022-05-18T09:41:38Z</time>
      </trkpt>
      <trkpt lat="42.07664" lon="0.67984">
        <ele>669</ele>
        <time>2022-05-18T09:41:56Z</time>
      </trkpt>
      <trkpt lat="42.07659" lon="0.67938">
        <ele>669</ele>
        <time>2022-05-18T09:42:08Z</time>
      </trkpt>
      <trkpt lat="42.07647" lon="0.67927">
        <ele>668</ele>
        <time>2022-05-18T09:42:14Z</time>
      </trkpt>
      <trkpt lat="42.07633" lon="0.67921">
        <ele>668</ele>
        <time>2022-05-18T09:42:33Z</time>
      </trkpt>
      <trkpt lat="42.07621" lon="0.67902">
        <ele>668</ele>
        <time>2022-05-18T09:42:48Z</time>
      </trkpt>
      <trkpt lat="42.0762" lon="0.67942">
        <ele>668</ele>
        <time>2022-05-18T09:43:15Z</time>
      </trkpt>
      <trkpt lat="42.07635" lon="0.67995">
        <ele>668</ele>
        <time>2022-05-18T09:43:26Z</time>
      </trkpt>
      <trkpt lat="42.07636" lon="0.68011">
        <ele>668</ele>
        <time>2022-05-18T09:43:37Z</time>
      </trkpt>
      <trkpt lat="42.07624" lon="0.68019">
        <ele>668</ele>
        <time>2022-05-18T09:43:55Z</time>
      </trkpt>
      <trkpt lat="42.07581" lon="0.6794">
        <ele>668</ele>
        <time>2022-05-18T09:44:27Z</time>
      </trkpt>
      <trkpt lat="42.07574" lon="0.67924">
        <ele>668</ele>
        <time>2022-05-18T09:44:30Z</time>
      </trkpt>
      <trkpt lat="42.0756" lon="0.67903">
        <ele>668</ele>
        <time>2022-05-18T09:44:33Z</time>
      </trkpt>
      <trkpt lat="42.07544" lon="0.67881">
        <ele>668</ele>
        <time>2022-05-18T09:44:37Z</time>
      </trkpt>
      <trkpt lat="42.07519" lon="0.67875">
        <ele>668</ele>
        <time>2022-05-18T09:44:43Z</time>
      </trkpt>
      <trkpt lat="42.07505" lon="0.67854">
        <ele>668</ele>
        <time>2022-05-18T09:44:52Z</time>
      </trkpt>
      <trkpt lat="42.07511" lon="0.67832">
        <ele>668</ele>
        <time>2022-05-18T09:44:59Z</time>
      </trkpt>
      <trkpt lat="42.07485" lon="0.67784">
        <ele>668</ele>
        <time>2022-05-18T09:45:05Z</time>
      </trkpt>
      <trkpt lat="42.07474" lon="0.67776">
        <ele>668</ele>
        <time>2022-05-18T09:45:08Z</time>
      </trkpt>
      <trkpt lat="42.07485" lon="0.67773">
        <ele>669</ele>
        <time>2022-05-18T09:45:27Z</time>
      </trkpt>
      <trkpt lat="42.07491" lon="0.67782">
        <ele>669</ele>
        <time>2022-05-18T09:45:31Z</time>
      </trkpt>
      <trkpt lat="42.075" lon="0.67788">
        <ele>669</ele>
        <time>2022-05-18T09:46:09Z</time>
      </trkpt>
      <trkpt lat="42.07513" lon="0.67797">
        <ele>669</ele>
        <time>2022-05-18T09:46:29Z</time>
      </trkpt>
      <trkpt lat="42.07508" lon="0.67782">
        <ele>669</ele>
        <time>2022-05-18T09:47:23Z</time>
      </trkpt>
      <trkpt lat="42.0749" lon="0.67824">
        <ele>669</ele>
        <time>2022-05-18T09:48:16Z</time>
      </trkpt>
      <trkpt lat="42.07496" lon="0.67848">
        <ele>669</ele>
        <time>2022-05-18T09:48:22Z</time>
      </trkpt>
      <trkpt lat="42.07511" lon="0.67893">
        <ele>668</ele>
        <time>2022-05-18T09:48:34Z</time>
      </trkpt>
      <trkpt lat="42.07508" lon="0.6791">
        <ele>668</ele>
        <time>2022-05-18T09:48:40Z</time>
      </trkpt>
      <trkpt lat="42.07496" lon="0.6794">
        <ele>668</ele>
        <time>2022-05-18T09:48:44Z</time>
      </trkpt>
      <trkpt lat="42.0745" lon="0.67989">
        <ele>668</ele>
        <time>2022-05-18T09:48:59Z</time>
      </trkpt>
      <trkpt lat="42.07453" lon="0.68036">
        <ele>668</ele>
        <time>2022-05-18T09:49:03Z</time>
      </trkpt>
      <trkpt lat="42.07435" lon="0.68052">
        <ele>668</ele>
        <time>2022-05-18T09:49:08Z</time>
      </trkpt>
      <trkpt lat="42.07427" lon="0.68049">
        <ele>668</ele>
        <time>2022-05-18T09:49:13Z</time>
      </trkpt>
      <trkpt lat="42.07413" lon="0.68061">
        <ele>668</ele>
        <time>2022-05-18T09:49:29Z</time>
      </trkpt>
      <trkpt lat="42.07407" lon="0.68047">
        <ele>668</ele>
        <time>2022-05-18T09:49:40Z</time>
      </trkpt>
      <trkpt lat="42.0739" lon="0.68059">
        <ele>667</ele>
        <time>2022-05-18T09:50:20Z</time>
      </trkpt>
      <trkpt lat="42.07386" lon="0.6804">
        <ele>667</ele>
        <time>2022-05-18T09:50:54Z</time>
      </trkpt>
      <trkpt lat="42.07361" lon="0.68031">
        <ele>667</ele>
        <time>2022-05-18T09:51:25Z</time>
      </trkpt>
      <trkpt lat="42.07369" lon="0.68018">
        <ele>666</ele>
        <time>2022-05-18T09:51:43Z</time>
      </trkpt>
      <trkpt lat="42.07355" lon="0.68024">
        <ele>666</ele>
        <time>2022-05-18T09:52:02Z</time>
      </trkpt>
      <trkpt lat="42.07334" lon="0.68017">
        <ele>666</ele>
        <time>2022-05-18T09:52:26Z</time>
      </trkpt>
      <trkpt lat="42.0733" lon="0.68007">
        <ele>666</ele>
        <time>2022-05-18T09:52:52Z</time>
      </trkpt>
      <trkpt lat="42.07317" lon="0.68008">
        <ele>666</ele>
        <time>2022-05-18T09:53:16Z</time>
      </trkpt>
      <trkpt lat="42.07308" lon="0.68005">
        <ele>665</ele>
        <time>2022-05-18T09:53:44Z</time>
      </trkpt>
      <trkpt lat="42.07309" lon="0.68021">
        <ele>665</ele>
        <time>2022-05-18T09:53:55Z</time>
      </trkpt>
      <trkpt lat="42.07301" lon="0.6801">
        <ele>665</ele>
        <time>2022-05-18T09:54:14Z</time>
      </trkpt>
      <trkpt lat="42.07301" lon="0.68001">
        <ele>665</ele>
        <time>2022-05-18T09:54:28Z</time>
      </trkpt>
      <trkpt lat="42.0729" lon="0.68008">
        <ele>665</ele>
        <time>2022-05-18T09:54:46Z</time>
      </trkpt>
      <trkpt lat="42.07279" lon="0.68014">
        <ele>665</ele>
        <time>2022-05-18T09:54:51Z</time>
      </trkpt>
      <trkpt lat="42.07277" lon="0.68001">
        <ele>665</ele>
        <time>2022-05-18T09:55:00Z</time>
      </trkpt>
      <trkpt lat="42.07265" lon="0.68005">
        <ele>664</ele>
        <time>2022-05-18T09:55:12Z</time>
      </trkpt>
      <trkpt lat="42.07261" lon="0.67995">
        <ele>664</ele>
        <time>2022-05-18T09:55:34Z</time>
      </trkpt>
      <trkpt lat="42.07255" lon="0.67998">
        <ele>664</ele>
        <time>2022-05-18T09:55:50Z</time>
      </trkpt>
      <trkpt lat="42.07245" lon="0.67992">
        <ele>664</ele>
        <time>2022-05-18T09:56:18Z</time>
      </trkpt>
      <trkpt lat="42.07236" lon="0.67988">
        <ele>664</ele>
        <time>2022-05-18T09:56:36Z</time>
      </trkpt>
      <trkpt lat="42.07231" lon="0.67985">
        <ele>663</ele>
        <time>2022-05-18T09:56:48Z</time>
      </trkpt>
      <trkpt lat="42.07225" lon="0.67985">
        <ele>663</ele>
        <time>2022-05-18T09:57:00Z</time>
      </trkpt>
      <trkpt lat="42.07215" lon="0.67977">
        <ele>663</ele>
        <time>2022-05-18T09:57:32Z</time>
      </trkpt>
      <trkpt lat="42.07204" lon="0.67969">
        <ele>663</ele>
        <time>2022-05-18T09:58:01Z</time>
      </trkpt>
      <trkpt lat="42.07199" lon="0.67969">
        <ele>662</ele>
        <time>2022-05-18T09:58:32Z</time>
      </trkpt>
      <trkpt lat="42.0719" lon="0.67964">
        <ele>662</ele>
        <time>2022-05-18T09:59:06Z</time>
      </trkpt>
      <trkpt lat="42.07183" lon="0.67956">
        <ele>662</ele>
        <time>2022-05-18T09:59:25Z</time>
      </trkpt>
      <trkpt lat="42.07179" lon="0.67948">
        <ele>662</ele>
        <time>2022-05-18T09:59:45Z</time>
      </trkpt>
      <trkpt lat="42.07173" lon="0.67938">
        <ele>661</ele>
        <time>2022-05-18T10:00:03Z</time>
      </trkpt>
      <trkpt lat="42.07165" lon="0.67928">
        <ele>661</ele>
        <time>2022-05-18T10:00:22Z</time>
      </trkpt>
      <trkpt lat="42.07155" lon="0.67909">
        <ele>661</ele>
        <time>2022-05-18T10:00:56Z</time>
      </trkpt>
      <trkpt lat="42.07144" lon="0.67903">
        <ele>661</ele>
        <time>2022-05-18T10:01:10Z</time>
      </trkpt>
      <trkpt lat="42.07149" lon="0.67905">
        <ele>660</ele>
        <time>2022-05-18T10:01:52Z</time>
      </trkpt>
      <trkpt lat="42.07142" lon="0.67912">
        <ele>659</ele>
        <time>2022-05-18T10:04:22Z</time>
      </trkpt>
      <trkpt lat="42.0713" lon="0.67918">
        <ele>659</ele>
        <time>2022-05-18T10:04:37Z</time>
      </trkpt>
      <trkpt lat="42.07123" lon="0.67919">
        <ele>659</ele>
        <time>2022-05-18T10:04:45Z</time>
      </trkpt>
      <trkpt lat="42.07112" lon="0.67918">
        <ele>658</ele>
        <time>2022-05-18T10:05:13Z</time>
      </trkpt>
      <trkpt lat="42.07102" lon="0.6792">
        <ele>658</ele>
        <time>2022-05-18T10:05:28Z</time>
      </trkpt>
      <trkpt lat="42.07093" lon="0.67918">
        <ele>658</ele>
        <time>2022-05-18T10:05:41Z</time>
      </trkpt>
      <trkpt lat="42.07072" lon="0.67898">
        <ele>658</ele>
        <time>2022-05-18T10:06:22Z</time>
      </trkpt>
      <trkpt lat="42.07066" lon="0.67895">
        <ele>658</ele>
        <time>2022-05-18T10:06:29Z</time>
      </trkpt>
      <trkpt lat="42.07062" lon="0.67887">
        <ele>657</ele>
        <time>2022-05-18T10:06:43Z</time>
      </trkpt>
      <trkpt lat="42.07059" lon="0.67877">
        <ele>657</ele>
        <time>2022-05-18T10:07:24Z</time>
      </trkpt>
      <trkpt lat="42.07053" lon="0.67877">
        <ele>657</ele>
        <time>2022-05-18T10:07:41Z</time>
      </trkpt>
      <trkpt lat="42.07047" lon="0.67875">
        <ele>657</ele>
        <time>2022-05-18T10:07:53Z</time>
      </trkpt>
      <trkpt lat="42.07032" lon="0.67865">
        <ele>657</ele>
        <time>2022-05-18T10:08:11Z</time>
      </trkpt>
      <trkpt lat="42.07026" lon="0.67864">
        <ele>657</ele>
        <time>2022-05-18T10:08:17Z</time>
      </trkpt>
      <trkpt lat="42.06995" lon="0.67865">
        <ele>656</ele>
        <time>2022-05-18T10:08:51Z</time>
      </trkpt>
      <trkpt lat="42.0699" lon="0.67861">
        <ele>656</ele>
        <time>2022-05-18T10:08:56Z</time>
      </trkpt>
      <trkpt lat="42.06978" lon="0.6786">
        <ele>656</ele>
        <time>2022-05-18T10:09:08Z</time>
      </trkpt>
      <trkpt lat="42.06968" lon="0.67852">
        <ele>656</ele>
        <time>2022-05-18T10:09:30Z</time>
      </trkpt>
      <trkpt lat="42.06958" lon="0.67837">
        <ele>656</ele>
        <time>2022-05-18T10:09:48Z</time>
      </trkpt>
      <trkpt lat="42.06952" lon="0.67833">
        <ele>656</ele>
        <time>2022-05-18T10:09:52Z</time>
      </trkpt>
      <trkpt lat="42.06938" lon="0.67829">
        <ele>655</ele>
        <time>2022-05-18T10:10:04Z</time>
      </trkpt>
      <trkpt lat="42.06932" lon="0.67824">
        <ele>655</ele>
        <time>2022-05-18T10:10:09Z</time>
      </trkpt>
      <trkpt lat="42.06927" lon="0.67818">
        <ele>655</ele>
        <time>2022-05-18T10:10:20Z</time>
      </trkpt>
      <trkpt lat="42.06904" lon="0.67801">
        <ele>655</ele>
        <time>2022-05-18T10:10:53Z</time>
      </trkpt>
      <trkpt lat="42.06891" lon="0.67789">
        <ele>655</ele>
        <time>2022-05-18T10:11:07Z</time>
      </trkpt>
      <trkpt lat="42.06888" lon="0.67774">
        <ele>655</ele>
        <time>2022-05-18T10:11:21Z</time>
      </trkpt>
      <trkpt lat="42.06885" lon="0.67767">
        <ele>654</ele>
        <time>2022-05-18T10:11:47Z</time>
      </trkpt>
      <trkpt lat="42.06882" lon="0.67759">
        <ele>654</ele>
        <time>2022-05-18T10:13:03Z</time>
      </trkpt>
      <trkpt lat="42.06878" lon="0.67739">
        <ele>653</ele>
        <time>2022-05-18T10:13:26Z</time>
      </trkpt>
      <trkpt lat="42.06875" lon="0.67723">
        <ele>653</ele>
        <time>2022-05-18T10:13:59Z</time>
      </trkpt>
      <trkpt lat="42.06871" lon="0.67715">
        <ele>653</ele>
        <time>2022-05-18T10:14:10Z</time>
      </trkpt>
      <trkpt lat="42.06863" lon="0.67695">
        <ele>653</ele>
        <time>2022-05-18T10:14:52Z</time>
      </trkpt>
      <trkpt lat="42.0686" lon="0.67688">
        <ele>652</ele>
        <time>2022-05-18T10:15:06Z</time>
      </trkpt>
      <trkpt lat="42.06847" lon="0.67674">
        <ele>652</ele>
        <time>2022-05-18T10:15:31Z</time>
      </trkpt>
      <trkpt lat="42.06847" lon="0.67667">
        <ele>652</ele>
        <time>2022-05-18T10:15:57Z</time>
      </trkpt>
      <trkpt lat="42.06845" lon="0.67658">
        <ele>652</ele>
        <time>2022-05-18T10:16:15Z</time>
      </trkpt>
      <trkpt lat="42.0684" lon="0.67646">
        <ele>652</ele>
        <time>2022-05-18T10:16:28Z</time>
      </trkpt>
      <trkpt lat="42.06836" lon="0.6764">
        <ele>651</ele>
        <time>2022-05-18T10:17:03Z</time>
      </trkpt>
      <trkpt lat="42.06832" lon="0.67632">
        <ele>651</ele>
        <time>2022-05-18T10:17:15Z</time>
      </trkpt>
      <trkpt lat="42.06833" lon="0.67621">
        <ele>651</ele>
        <time>2022-05-18T10:18:14Z</time>
      </trkpt>
      <trkpt lat="42.06831" lon="0.67614">
        <ele>651</ele>
        <time>2022-05-18T10:18:20Z</time>
      </trkpt>
      <trkpt lat="42.06832" lon="0.67605">
        <ele>650</ele>
        <time>2022-05-18T10:18:34Z</time>
      </trkpt>
      <trkpt lat="42.06836" lon="0.67596">
        <ele>650</ele>
        <time>2022-05-18T10:19:03Z</time>
      </trkpt>
      <trkpt lat="42.06837" lon="0.67584">
        <ele>650</ele>
        <time>2022-05-18T10:19:47Z</time>
      </trkpt>
      <trkpt lat="42.06842" lon="0.6758">
        <ele>649</ele>
        <time>2022-05-18T10:20:05Z</time>
      </trkpt>
      <trkpt lat="42.0684" lon="0.67571">
        <ele>649</ele>
        <time>2022-05-18T10:20:53Z</time>
      </trkpt>
      <trkpt lat="42.0682" lon="0.67546">
        <ele>649</ele>
        <time>2022-05-18T10:21:24Z</time>
      </trkpt>
      <trkpt lat="42.06806" lon="0.67519">
        <ele>648</ele>
        <time>2022-05-18T10:21:53Z</time>
      </trkpt>
      <trkpt lat="42.06802" lon="0.67499">
        <ele>648</ele>
        <time>2022-05-18T10:22:05Z</time>
      </trkpt>
      <trkpt lat="42.06798" lon="0.67492">
        <ele>648</ele>
        <time>2022-05-18T10:22:14Z</time>
      </trkpt>
      <trkpt lat="42.06797" lon="0.67485">
        <ele>648</ele>
        <time>2022-05-18T10:22:18Z</time>
      </trkpt>
      <trkpt lat="42.06793" lon="0.67479">
        <ele>648</ele>
        <time>2022-05-18T10:22:23Z</time>
      </trkpt>
      <trkpt lat="42.06792" lon="0.67473">
        <ele>648</ele>
        <time>2022-05-18T10:22:26Z</time>
      </trkpt>
      <trkpt lat="42.0679" lon="0.67458">
        <ele>648</ele>
        <time>2022-05-18T10:22:42Z</time>
      </trkpt>
      <trkpt lat="42.06788" lon="0.67451">
        <ele>648</ele>
        <time>2022-05-18T10:22:50Z</time>
      </trkpt>
      <trkpt lat="42.06793" lon="0.67426">
        <ele>648</ele>
        <time>2022-05-18T10:23:14Z</time>
      </trkpt>
      <trkpt lat="42.06796" lon="0.67418">
        <ele>647</ele>
        <time>2022-05-18T10:23:32Z</time>
      </trkpt>
      <trkpt lat="42.06801" lon="0.67407">
        <ele>647</ele>
        <time>2022-05-18T10:23:50Z</time>
      </trkpt>
      <trkpt lat="42.06804" lon="0.67412">
        <ele>647</ele>
        <time>2022-05-18T10:24:02Z</time>
      </trkpt>
      <trkpt lat="42.06808" lon="0.67405">
        <ele>647</ele>
        <time>2022-05-18T10:24:37Z</time>
      </trkpt>
      <trkpt lat="42.06808" lon="0.67399">
        <ele>647</ele>
        <time>2022-05-18T10:24:57Z</time>
      </trkpt>
      <trkpt lat="42.06814" lon="0.67396">
        <ele>646</ele>
        <time>2022-05-18T10:25:37Z</time>
      </trkpt>
      <trkpt lat="42.06815" lon="0.6739">
        <ele>646</ele>
        <time>2022-05-18T10:25:41Z</time>
      </trkpt>
      <trkpt lat="42.0682" lon="0.67389">
        <ele>646</ele>
        <time>2022-05-18T10:25:46Z</time>
      </trkpt>
      <trkpt lat="42.0682" lon="0.6738">
        <ele>646</ele>
        <time>2022-05-18T10:26:12Z</time>
      </trkpt>
      <trkpt lat="42.06824" lon="0.67377">
        <ele>646</ele>
        <time>2022-05-18T10:26:16Z</time>
      </trkpt>
      <trkpt lat="42.06828" lon="0.67365">
        <ele>646</ele>
        <time>2022-05-18T10:26:23Z</time>
      </trkpt>
      <trkpt lat="42.06825" lon="0.67358">
        <ele>646</ele>
        <time>2022-05-18T10:26:31Z</time>
      </trkpt>
      <trkpt lat="42.06826" lon="0.67352">
        <ele>646</ele>
        <time>2022-05-18T10:26:36Z</time>
      </trkpt>
      <trkpt lat="42.06832" lon="0.67347">
        <ele>643</ele>
        <time>2022-05-18T10:31:38Z</time>
      </trkpt>
      <trkpt lat="42.06842" lon="0.6735">
        <ele>641</ele>
        <time>2022-05-18T10:33:35Z</time>
      </trkpt>
      <trkpt lat="42.06843" lon="0.67359">
        <ele>641</ele>
        <time>2022-05-18T10:35:00Z</time>
      </trkpt>
      <trkpt lat="42.0685" lon="0.67365">
        <ele>640</ele>
        <time>2022-05-18T10:35:41Z</time>
      </trkpt>
      <trkpt lat="42.06858" lon="0.67367">
        <ele>640</ele>
        <time>2022-05-18T10:36:22Z</time>
      </trkpt>
      <trkpt lat="42.06862" lon="0.67374">
        <ele>639</ele>
        <time>2022-05-18T10:36:46Z</time>
      </trkpt>
      <trkpt lat="42.06871" lon="0.67379">
        <ele>639</ele>
        <time>2022-05-18T10:37:23Z</time>
      </trkpt>
      <trkpt lat="42.06882" lon="0.67375">
        <ele>639</ele>
        <time>2022-05-18T10:37:59Z</time>
      </trkpt>
      <trkpt lat="42.06883" lon="0.67387">
        <ele>639</ele>
        <time>2022-05-18T10:38:10Z</time>
      </trkpt>
      <trkpt lat="42.06884" lon="0.67397">
        <ele>638</ele>
        <time>2022-05-18T10:38:24Z</time>
      </trkpt>
      <trkpt lat="42.06877" lon="0.67403">
        <ele>638</ele>
        <time>2022-05-18T10:38:42Z</time>
      </trkpt>
      <trkpt lat="42.06876" lon="0.67402">
        <ele>637</ele>
        <time>2022-05-18T10:40:20Z</time>
      </trkpt>
      <trkpt lat="42.06875" lon="0.67399">
        <ele>635</ele>
        <time>2022-05-18T10:43:53Z</time>
      </trkpt>
      <trkpt lat="42.06875" lon="0.67399">
        <ele>634</ele>
        <time>2022-05-18T10:45:52Z</time>
      </trkpt>
      <trkpt lat="42.06875" lon="0.67402">
        <ele>632</ele>
        <time>2022-05-18T10:49:05Z</time>
      </trkpt>
      <trkpt lat="42.06868" lon="0.67399">
        <ele>631</ele>
        <time>2022-05-18T10:51:21Z</time>
      </trkpt>
      <trkpt lat="42.06867" lon="0.67407">
        <ele>631</ele>
        <time>2022-05-18T10:51:23Z</time>
      </trkpt>
      <trkpt lat="42.06869" lon="0.67404">
        <ele>630</ele>
        <time>2022-05-18T10:52:24Z</time>
      </trkpt>
      <trkpt lat="42.06873" lon="0.67403">
        <ele>630</ele>
        <time>2022-05-18T10:53:17Z</time>
      </trkpt>
      <trkpt lat="42.06875" lon="0.67406">
        <ele>629</ele>
        <time>2022-05-18T10:54:55Z</time>
      </trkpt>
      <trkpt lat="42.06871" lon="0.67414">
        <ele>627</ele>
        <time>2022-05-18T10:57:37Z</time>
      </trkpt>
      <trkpt lat="42.06873" lon="0.67406">
        <ele>626</ele>
        <time>2022-05-18T10:59:11Z</time>
      </trkpt>
      <trkpt lat="42.06871" lon="0.67404">
        <ele>625</ele>
        <time>2022-05-18T11:01:06Z</time>
      </trkpt>
      <trkpt lat="42.06868" lon="0.67407">
        <ele>624</ele>
        <time>2022-05-18T11:02:07Z</time>
      </trkpt>
      <trkpt lat="42.06869" lon="0.67428">
        <ele>624</ele>
        <time>2022-05-18T11:02:20Z</time>
      </trkpt>
      <trkpt lat="42.0688" lon="0.67461">
        <ele>624</ele>
        <time>2022-05-18T11:02:41Z</time>
      </trkpt>
      <trkpt lat="42.06886" lon="0.67472">
        <ele>624</ele>
        <time>2022-05-18T11:02:52Z</time>
      </trkpt>
      <trkpt lat="42.06906" lon="0.67494">
        <ele>623</ele>
        <time>2022-05-18T11:03:28Z</time>
      </trkpt>
      <trkpt lat="42.0692" lon="0.6751">
        <ele>623</ele>
        <time>2022-05-18T11:04:03Z</time>
      </trkpt>
      <trkpt lat="42.06923" lon="0.67518">
        <ele>623</ele>
        <time>2022-05-18T11:04:15Z</time>
      </trkpt>
      <trkpt lat="42.0694" lon="0.67534">
        <ele>623</ele>
        <time>2022-05-18T11:04:51Z</time>
      </trkpt>
      <trkpt lat="42.06948" lon="0.67543">
        <ele>623</ele>
        <time>2022-05-18T11:05:01Z</time>
      </trkpt>
      <trkpt lat="42.06951" lon="0.67548">
        <ele>622</ele>
        <time>2022-05-18T11:05:05Z</time>
      </trkpt>
      <trkpt lat="42.06967" lon="0.67563">
        <ele>622</ele>
        <time>2022-05-18T11:05:25Z</time>
      </trkpt>
      <trkpt lat="42.06996" lon="0.67584">
        <ele>622</ele>
        <time>2022-05-18T11:06:01Z</time>
      </trkpt>
      <trkpt lat="42.07013" lon="0.67606">
        <ele>622</ele>
        <time>2022-05-18T11:06:32Z</time>
      </trkpt>
      <trkpt lat="42.07029" lon="0.67625">
        <ele>621</ele>
        <time>2022-05-18T11:06:53Z</time>
      </trkpt>
      <trkpt lat="42.07034" lon="0.67624">
        <ele>621</ele>
        <time>2022-05-18T11:07:01Z</time>
      </trkpt>
      <trkpt lat="42.07044" lon="0.6763">
        <ele>621</ele>
        <time>2022-05-18T11:07:12Z</time>
      </trkpt>
      <trkpt lat="42.07055" lon="0.67642">
        <ele>621</ele>
        <time>2022-05-18T11:07:24Z</time>
      </trkpt>
      <trkpt lat="42.07059" lon="0.67644">
        <ele>621</ele>
        <time>2022-05-18T11:07:28Z</time>
      </trkpt>
      <trkpt lat="42.07063" lon="0.6765">
        <ele>621</ele>
        <time>2022-05-18T11:07:33Z</time>
      </trkpt>
      <trkpt lat="42.07082" lon="0.67665">
        <ele>621</ele>
        <time>2022-05-18T11:08:06Z</time>
      </trkpt>
      <trkpt lat="42.07105" lon="0.67689">
        <ele>620</ele>
        <time>2022-05-18T11:08:47Z</time>
      </trkpt>
      <trkpt lat="42.07113" lon="0.67696">
        <ele>620</ele>
        <time>2022-05-18T11:08:54Z</time>
      </trkpt>
      <trkpt lat="42.07118" lon="0.67699">
        <ele>620</ele>
        <time>2022-05-18T11:08:57Z</time>
      </trkpt>
      <trkpt lat="42.07122" lon="0.67704">
        <ele>620</ele>
        <time>2022-05-18T11:09:00Z</time>
      </trkpt>
      <trkpt lat="42.07129" lon="0.67707">
        <ele>620</ele>
        <time>2022-05-18T11:09:07Z</time>
      </trkpt>
      <trkpt lat="42.07141" lon="0.67706">
        <ele>620</ele>
        <time>2022-05-18T11:09:18Z</time>
      </trkpt>
      <trkpt lat="42.07146" lon="0.6771">
        <ele>620</ele>
        <time>2022-05-18T11:09:22Z</time>
      </trkpt>
      <trkpt lat="42.07158" lon="0.67702">
        <ele>620</ele>
        <time>2022-05-18T11:09:36Z</time>
      </trkpt>
      <trkpt lat="42.07172" lon="0.67704">
        <ele>620</ele>
        <time>2022-05-18T11:09:48Z</time>
      </trkpt>
      <trkpt lat="42.07177" lon="0.67707">
        <ele>620</ele>
        <time>2022-05-18T11:09:52Z</time>
      </trkpt>
      <trkpt lat="42.07203" lon="0.67738">
        <ele>619</ele>
        <time>2022-05-18T11:10:19Z</time>
      </trkpt>
      <trkpt lat="42.07211" lon="0.67743">
        <ele>619</ele>
        <time>2022-05-18T11:10:27Z</time>
      </trkpt>
      <trkpt lat="42.07214" lon="0.6775">
        <ele>619</ele>
        <time>2022-05-18T11:10:33Z</time>
      </trkpt>
      <trkpt lat="42.07219" lon="0.67757">
        <ele>619</ele>
        <time>2022-05-18T11:10:40Z</time>
      </trkpt>
      <trkpt lat="42.07228" lon="0.6776">
        <ele>619</ele>
        <time>2022-05-18T11:10:49Z</time>
      </trkpt>
      <trkpt lat="42.07233" lon="0.67766">
        <ele>619</ele>
        <time>2022-05-18T11:10:56Z</time>
      </trkpt>
      <trkpt lat="42.07244" lon="0.67757">
        <ele>619</ele>
        <time>2022-05-18T11:11:02Z</time>
      </trkpt>
      <trkpt lat="42.07257" lon="0.6776">
        <ele>619</ele>
        <time>2022-05-18T11:11:23Z</time>
      </trkpt>
      <trkpt lat="42.0726" lon="0.67765">
        <ele>619</ele>
        <time>2022-05-18T11:11:28Z</time>
      </trkpt>
      <trkpt lat="42.07263" lon="0.67771">
        <ele>619</ele>
        <time>2022-05-18T11:11:32Z</time>
      </trkpt>
      <trkpt lat="42.0727" lon="0.67781">
        <ele>619</ele>
        <time>2022-05-18T11:11:40Z</time>
      </trkpt>
      <trkpt lat="42.07287" lon="0.67816">
        <ele>618</ele>
        <time>2022-05-18T11:12:04Z</time>
      </trkpt>
      <trkpt lat="42.0729" lon="0.67829">
        <ele>618</ele>
        <time>2022-05-18T11:12:12Z</time>
      </trkpt>
      <trkpt lat="42.07304" lon="0.67855">
        <ele>618</ele>
        <time>2022-05-18T11:12:32Z</time>
      </trkpt>
      <trkpt lat="42.07339" lon="0.67885">
        <ele>618</ele>
        <time>2022-05-18T11:13:10Z</time>
      </trkpt>
      <trkpt lat="42.0737" lon="0.67909">
        <ele>617</ele>
        <time>2022-05-18T11:13:46Z</time>
      </trkpt>
      <trkpt lat="42.07383" lon="0.67922">
        <ele>617</ele>
        <time>2022-05-18T11:13:59Z</time>
      </trkpt>
      <trkpt lat="42.074" lon="0.67936">
        <ele>617</ele>
        <time>2022-05-18T11:14:19Z</time>
      </trkpt>
      <trkpt lat="42.07404" lon="0.67941">
        <ele>617</ele>
        <time>2022-05-18T11:14:23Z</time>
      </trkpt>
      <trkpt lat="42.0741" lon="0.67946">
        <ele>617</ele>
        <time>2022-05-18T11:14:32Z</time>
      </trkpt>
      <trkpt lat="42.0742" lon="0.6795">
        <ele>617</ele>
        <time>2022-05-18T11:14:45Z</time>
      </trkpt>
      <trkpt lat="42.07431" lon="0.67963">
        <ele>617</ele>
        <time>2022-05-18T11:14:58Z</time>
      </trkpt>
      <trkpt lat="42.07438" lon="0.67964">
        <ele>616</ele>
        <time>2022-05-18T11:15:04Z</time>
      </trkpt>
      <trkpt lat="42.0745" lon="0.67973">
        <ele>616</ele>
        <time>2022-05-18T11:15:16Z</time>
      </trkpt>
      <trkpt lat="42.0747" lon="0.67976">
        <ele>616</ele>
        <time>2022-05-18T11:15:34Z</time>
      </trkpt>
      <trkpt lat="42.07486" lon="0.6799">
        <ele>616</ele>
        <time>2022-05-18T11:16:03Z</time>
      </trkpt>
      <trkpt lat="42.07502" lon="0.68001">
        <ele>616</ele>
        <time>2022-05-18T11:16:28Z</time>
      </trkpt>
      <trkpt lat="42.07528" lon="0.67998">
        <ele>615</ele>
        <time>2022-05-18T11:17:00Z</time>
      </trkpt>
      <trkpt lat="42.07538" lon="0.68004">
        <ele>615</ele>
        <time>2022-05-18T11:17:07Z</time>
      </trkpt>
      <trkpt lat="42.0755" lon="0.68022">
        <ele>615</ele>
        <time>2022-05-18T11:17:17Z</time>
      </trkpt>
      <trkpt lat="42.07552" lon="0.68033">
        <ele>615</ele>
        <time>2022-05-18T11:17:21Z</time>
      </trkpt>
      <trkpt lat="42.07558" lon="0.68027">
        <ele>615</ele>
        <time>2022-05-18T11:17:31Z</time>
      </trkpt>
      <trkpt lat="42.07559" lon="0.68024">
        <ele>615</ele>
        <time>2022-05-18T11:17:53Z</time>
      </trkpt>
      <trkpt lat="42.07576" lon="0.67998">
        <ele>615</ele>
        <time>2022-05-18T11:18:19Z</time>
      </trkpt>
      <trkpt lat="42.07584" lon="0.68023">
        <ele>614</ele>
        <time>2022-05-18T11:18:51Z</time>
      </trkpt>
      <trkpt lat="42.0759" lon="0.68034">
        <ele>614</ele>
        <time>2022-05-18T11:19:01Z</time>
      </trkpt>
      <trkpt lat="42.07587" lon="0.68041">
        <ele>614</ele>
        <time>2022-05-18T11:19:05Z</time>
      </trkpt>
      <trkpt lat="42.07591" lon="0.68064">
        <ele>614</ele>
        <time>2022-05-18T11:19:16Z</time>
      </trkpt>
      <trkpt lat="42.07597" lon="0.68076">
        <ele>614</ele>
        <time>2022-05-18T11:19:27Z</time>
      </trkpt>
      <trkpt lat="42.07604" lon="0.68083">
        <ele>614</ele>
        <time>2022-05-18T11:19:39Z</time>
      </trkpt>
      <trkpt lat="42.07596" lon="0.68097">
        <ele>614</ele>
        <time>2022-05-18T11:19:55Z</time>
      </trkpt>
      <trkpt lat="42.07594" lon="0.68105">
        <ele>614</ele>
        <time>2022-05-18T11:19:58Z</time>
      </trkpt>
      <trkpt lat="42.07586" lon="0.68115">
        <ele>613</ele>
        <time>2022-05-18T11:20:15Z</time>
      </trkpt>
      <trkpt lat="42.07585" lon="0.68123">
        <ele>613</ele>
        <time>2022-05-18T11:20:20Z</time>
      </trkpt>
      <trkpt lat="42.07589" lon="0.68128">
        <ele>614</ele>
        <time>2022-05-18T11:20:48Z</time>
      </trkpt>
      <trkpt lat="42.07601" lon="0.68123">
        <ele>614</ele>
        <time>2022-05-18T11:21:00Z</time>
      </trkpt>
      <trkpt lat="42.07611" lon="0.68131">
        <ele>614</ele>
        <time>2022-05-18T11:21:14Z</time>
      </trkpt>
      <trkpt lat="42.07616" lon="0.68131">
        <ele>614</ele>
        <time>2022-05-18T11:21:18Z</time>
      </trkpt>
      <trkpt lat="42.07624" lon="0.68137">
        <ele>614</ele>
        <time>2022-05-18T11:21:32Z</time>
      </trkpt>
      <trkpt lat="42.0763" lon="0.68138">
        <ele>614</ele>
        <time>2022-05-18T11:21:39Z</time>
      </trkpt>
      <trkpt lat="42.07642" lon="0.68142">
        <ele>614</ele>
        <time>2022-05-18T11:21:53Z</time>
      </trkpt>
      <trkpt lat="42.07651" lon="0.68141">
        <ele>614</ele>
        <time>2022-05-18T11:22:01Z</time>
      </trkpt>
      <trkpt lat="42.07656" lon="0.68128">
        <ele>614</ele>
        <time>2022-05-18T11:22:10Z</time>
      </trkpt>
      <trkpt lat="42.07673" lon="0.68123">
        <ele>615</ele>
        <time>2022-05-18T11:22:26Z</time>
      </trkpt>
      <trkpt lat="42.07679" lon="0.68115">
        <ele>615</ele>
        <time>2022-05-18T11:22:31Z</time>
      </trkpt>
      <trkpt lat="42.0768" lon="0.68105">
        <ele>615</ele>
        <time>2022-05-18T11:22:34Z</time>
      </trkpt>
      <trkpt lat="42.07684" lon="0.68097">
        <ele>615</ele>
        <time>2022-05-18T11:22:40Z</time>
      </trkpt>
      <trkpt lat="42.07686" lon="0.6808">
        <ele>615</ele>
        <time>2022-05-18T11:22:43Z</time>
      </trkpt>
      <trkpt lat="42.07693" lon="0.68073">
        <ele>615</ele>
        <time>2022-05-18T11:22:49Z</time>
      </trkpt>
      <trkpt lat="42.07696" lon="0.68061">
        <ele>615</ele>
        <time>2022-05-18T11:22:52Z</time>
      </trkpt>
      <trkpt lat="42.07701" lon="0.68053">
        <ele>615</ele>
        <time>2022-05-18T11:22:57Z</time>
      </trkpt>
      <trkpt lat="42.07709" lon="0.68045">
        <ele>615</ele>
        <time>2022-05-18T11:23:03Z</time>
      </trkpt>
      <trkpt lat="42.07717" lon="0.68052">
        <ele>615</ele>
        <time>2022-05-18T11:23:17Z</time>
      </trkpt>
      <trkpt lat="42.07728" lon="0.68081">
        <ele>615</ele>
        <time>2022-05-18T11:23:38Z</time>
      </trkpt>
      <trkpt lat="42.07733" lon="0.68092">
        <ele>615</ele>
        <time>2022-05-18T11:23:46Z</time>
      </trkpt>
      <trkpt lat="42.07734" lon="0.68102">
        <ele>615</ele>
        <time>2022-05-18T11:23:59Z</time>
      </trkpt>
      <trkpt lat="42.07745" lon="0.68105">
        <ele>615</ele>
        <time>2022-05-18T11:24:27Z</time>
      </trkpt>
      <trkpt lat="42.07752" lon="0.68108">
        <ele>615</ele>
        <time>2022-05-18T11:24:35Z</time>
      </trkpt>
      <trkpt lat="42.0776" lon="0.6812">
        <ele>615</ele>
        <time>2022-05-18T11:24:43Z</time>
      </trkpt>
      <trkpt lat="42.07768" lon="0.68124">
        <ele>615</ele>
        <time>2022-05-18T11:24:49Z</time>
      </trkpt>
      <trkpt lat="42.0778" lon="0.68128">
        <ele>615</ele>
        <time>2022-05-18T11:25:08Z</time>
      </trkpt>
      <trkpt lat="42.07785" lon="0.68137">
        <ele>615</ele>
        <time>2022-05-18T11:25:12Z</time>
      </trkpt>
      <trkpt lat="42.07793" lon="0.68146">
        <ele>615</ele>
        <time>2022-05-18T11:25:18Z</time>
      </trkpt>
      <trkpt lat="42.07793" lon="0.68137">
        <ele>614</ele>
        <time>2022-05-18T11:25:59Z</time>
      </trkpt>
      <trkpt lat="42.07805" lon="0.6814">
        <ele>614</ele>
        <time>2022-05-18T11:26:14Z</time>
      </trkpt>
      <trkpt lat="42.07816" lon="0.68146">
        <ele>614</ele>
        <time>2022-05-18T11:26:27Z</time>
      </trkpt>
      <trkpt lat="42.07822" lon="0.68139">
        <ele>614</ele>
        <time>2022-05-18T11:26:32Z</time>
      </trkpt>
      <trkpt lat="42.07831" lon="0.68146">
        <ele>614</ele>
        <time>2022-05-18T11:26:46Z</time>
      </trkpt>
      <trkpt lat="42.07843" lon="0.68146">
        <ele>613</ele>
        <time>2022-05-18T11:27:12Z</time>
      </trkpt>
      <trkpt lat="42.07885" lon="0.68172">
        <ele>613</ele>
        <time>2022-05-18T11:27:51Z</time>
      </trkpt>
      <trkpt lat="42.07901" lon="0.6817">
        <ele>613</ele>
        <time>2022-05-18T11:28:11Z</time>
      </trkpt>
      <trkpt lat="42.07914" lon="0.68172">
        <ele>613</ele>
        <time>2022-05-18T11:28:36Z</time>
      </trkpt>
      <trkpt lat="42.07922" lon="0.68176">
        <ele>612</ele>
        <time>2022-05-18T11:28:50Z</time>
      </trkpt>
      <trkpt lat="42.07929" lon="0.68183">
        <ele>612</ele>
        <time>2022-05-18T11:29:16Z</time>
      </trkpt>
      <trkpt lat="42.07947" lon="0.68178">
        <ele>612</ele>
        <time>2022-05-18T11:29:49Z</time>
      </trkpt>
      <trkpt lat="42.07963" lon="0.68168">
        <ele>612</ele>
        <time>2022-05-18T11:30:00Z</time>
      </trkpt>
      <trkpt lat="42.0797" lon="0.68176">
        <ele>612</ele>
        <time>2022-05-18T11:30:14Z</time>
      </trkpt>
      <trkpt lat="42.07979" lon="0.68173">
        <ele>612</ele>
        <time>2022-05-18T11:30:21Z</time>
      </trkpt>
      <trkpt lat="42.07991" lon="0.68172">
        <ele>611</ele>
        <time>2022-05-18T11:30:40Z</time>
      </trkpt>
      <trkpt lat="42.07997" lon="0.68179">
        <ele>611</ele>
        <time>2022-05-18T11:30:49Z</time>
      </trkpt>
      <trkpt lat="42.08007" lon="0.68193">
        <ele>611</ele>
        <time>2022-05-18T11:31:05Z</time>
      </trkpt>
      <trkpt lat="42.08015" lon="0.68187">
        <ele>611</ele>
        <time>2022-05-18T11:31:21Z</time>
      </trkpt>
      <trkpt lat="42.08024" lon="0.6819">
        <ele>611</ele>
        <time>2022-05-18T11:32:03Z</time>
      </trkpt>
      <trkpt lat="42.08032" lon="0.68193">
        <ele>610</ele>
        <time>2022-05-18T11:32:15Z</time>
      </trkpt>
      <trkpt lat="42.08024" lon="0.68225">
        <ele>610</ele>
        <time>2022-05-18T11:32:43Z</time>
      </trkpt>
      <trkpt lat="42.08013" lon="0.68248">
        <ele>610</ele>
        <time>2022-05-18T11:32:59Z</time>
      </trkpt>
      <trkpt lat="42.08021" lon="0.68245">
        <ele>610</ele>
        <time>2022-05-18T11:33:10Z</time>
      </trkpt>
      <trkpt lat="42.08025" lon="0.68252">
        <ele>610</ele>
        <time>2022-05-18T11:33:17Z</time>
      </trkpt>
      <trkpt lat="42.08032" lon="0.6825">
        <ele>610</ele>
        <time>2022-05-18T11:33:47Z</time>
      </trkpt>
      <trkpt lat="42.08035" lon="0.68247">
        <ele>611</ele>
        <time>2022-05-18T11:34:04Z</time>
      </trkpt>
      <trkpt lat="42.08039" lon="0.68244">
        <ele>611</ele>
        <time>2022-05-18T11:34:08Z</time>
      </trkpt>
      <trkpt lat="42.0803" lon="0.68251">
        <ele>611</ele>
        <time>2022-05-18T11:34:25Z</time>
      </trkpt>
      <trkpt lat="42.08022" lon="0.68246">
        <ele>611</ele>
        <time>2022-05-18T11:34:32Z</time>
      </trkpt>
      <trkpt lat="42.08025" lon="0.68235">
        <ele>611</ele>
        <time>2022-05-18T11:34:36Z</time>
      </trkpt>
      <trkpt lat="42.08018" lon="0.682">
        <ele>611</ele>
        <time>2022-05-18T11:35:06Z</time>
      </trkpt>
      <trkpt lat="42.08004" lon="0.68184">
        <ele>611</ele>
        <time>2022-05-18T11:35:20Z</time>
      </trkpt>
      <trkpt lat="42.07988" lon="0.68182">
        <ele>611</ele>
        <time>2022-05-18T11:35:29Z</time>
      </trkpt>
      <trkpt lat="42.07978" lon="0.6818">
        <ele>612</ele>
        <time>2022-05-18T11:36:15Z</time>
      </trkpt>
      <trkpt lat="42.07953" lon="0.68171">
        <ele>612</ele>
        <time>2022-05-18T11:36:41Z</time>
      </trkpt>
      <trkpt lat="42.07944" lon="0.68171">
        <ele>612</ele>
        <time>2022-05-18T11:36:48Z</time>
      </trkpt>
      <trkpt lat="42.0791" lon="0.68182">
        <ele>611</ele>
        <time>2022-05-18T11:37:12Z</time>
      </trkpt>
      <trkpt lat="42.07899" lon="0.68179">
        <ele>611</ele>
        <time>2022-05-18T11:37:32Z</time>
      </trkpt>
      <trkpt lat="42.0789" lon="0.68178">
        <ele>611</ele>
        <time>2022-05-18T11:37:56Z</time>
      </trkpt>
      <trkpt lat="42.07882" lon="0.68169">
        <ele>611</ele>
        <time>2022-05-18T11:38:03Z</time>
      </trkpt>
      <trkpt lat="42.07872" lon="0.68165">
        <ele>611</ele>
        <time>2022-05-18T11:38:11Z</time>
      </trkpt>
      <trkpt lat="42.07862" lon="0.68158">
        <ele>611</ele>
        <time>2022-05-18T11:38:16Z</time>
      </trkpt>
      <trkpt lat="42.07849" lon="0.68162">
        <ele>611</ele>
        <time>2022-05-18T11:38:29Z</time>
      </trkpt>
      <trkpt lat="42.07842" lon="0.68159">
        <ele>611</ele>
        <time>2022-05-18T11:38:34Z</time>
      </trkpt>
      <trkpt lat="42.07816" lon="0.68139">
        <ele>610</ele>
        <time>2022-05-18T11:38:45Z</time>
      </trkpt>
      <trkpt lat="42.07808" lon="0.68149">
        <ele>610</ele>
        <time>2022-05-18T11:38:58Z</time>
      </trkpt>
      <trkpt lat="42.07803" lon="0.68146">
        <ele>610</ele>
        <time>2022-05-18T11:39:01Z</time>
      </trkpt>
      <trkpt lat="42.07795" lon="0.68149">
        <ele>610</ele>
        <time>2022-05-18T11:39:21Z</time>
      </trkpt>
      <trkpt lat="42.07768" lon="0.68155">
        <ele>610</ele>
        <time>2022-05-18T11:39:35Z</time>
      </trkpt>
      <trkpt lat="42.07739" lon="0.68155">
        <ele>610</ele>
        <time>2022-05-18T11:39:50Z</time>
      </trkpt>
      <trkpt lat="42.07727" lon="0.68151">
        <ele>610</ele>
        <time>2022-05-18T11:39:53Z</time>
      </trkpt>
      <trkpt lat="42.07709" lon="0.68152">
        <ele>610</ele>
        <time>2022-05-18T11:39:58Z</time>
      </trkpt>
      <trkpt lat="42.07693" lon="0.6815">
        <ele>610</ele>
        <time>2022-05-18T11:40:11Z</time>
      </trkpt>
      <trkpt lat="42.0766" lon="0.6816">
        <ele>609</ele>
        <time>2022-05-18T11:40:35Z</time>
      </trkpt>
      <trkpt lat="42.07637" lon="0.68156">
        <ele>609</ele>
        <time>2022-05-18T11:40:56Z</time>
      </trkpt>
      <trkpt lat="42.07611" lon="0.68164">
        <ele>609</ele>
        <time>2022-05-18T11:41:20Z</time>
      </trkpt>
      <trkpt lat="42.07601" lon="0.68165">
        <ele>609</ele>
        <time>2022-05-18T11:41:30Z</time>
      </trkpt>
      <trkpt lat="42.07596" lon="0.68166">
        <ele>609</ele>
        <time>2022-05-18T11:41:35Z</time>
      </trkpt>
      <trkpt lat="42.07589" lon="0.68161">
        <ele>609</ele>
        <time>2022-05-18T11:41:44Z</time>
      </trkpt>
      <trkpt lat="42.07582" lon="0.68146">
        <ele>609</ele>
        <time>2022-05-18T11:42:00Z</time>
      </trkpt>
      <trkpt lat="42.07575" lon="0.68144">
        <ele>608</ele>
        <time>2022-05-18T11:42:12Z</time>
      </trkpt>
      <trkpt lat="42.07568" lon="0.68137">
        <ele>608</ele>
        <time>2022-05-18T11:42:24Z</time>
      </trkpt>
      <trkpt lat="42.07561" lon="0.68127">
        <ele>608</ele>
        <time>2022-05-18T11:42:37Z</time>
      </trkpt>
      <trkpt lat="42.07554" lon="0.6813">
        <ele>608</ele>
        <time>2022-05-18T11:42:44Z</time>
      </trkpt>
      <trkpt lat="42.07549" lon="0.68129">
        <ele>608</ele>
        <time>2022-05-18T11:42:50Z</time>
      </trkpt>
      <trkpt lat="42.07541" lon="0.68123">
        <ele>608</ele>
        <time>2022-05-18T11:42:59Z</time>
      </trkpt>
      <trkpt lat="42.07536" lon="0.68119">
        <ele>608</ele>
        <time>2022-05-18T11:43:03Z</time>
      </trkpt>
      <trkpt lat="42.07532" lon="0.68113">
        <ele>608</ele>
        <time>2022-05-18T11:43:08Z</time>
      </trkpt>
      <trkpt lat="42.07527" lon="0.68111">
        <ele>608</ele>
        <time>2022-05-18T11:43:14Z</time>
      </trkpt>
      <trkpt lat="42.07508" lon="0.68114">
        <ele>608</ele>
        <time>2022-05-18T11:43:30Z</time>
      </trkpt>
      <trkpt lat="42.07496" lon="0.68098">
        <ele>608</ele>
        <time>2022-05-18T11:43:40Z</time>
      </trkpt>
      <trkpt lat="42.07486" lon="0.68101">
        <ele>607</ele>
        <time>2022-05-18T11:43:46Z</time>
      </trkpt>
      <trkpt lat="42.07478" lon="0.68093">
        <ele>607</ele>
        <time>2022-05-18T11:43:51Z</time>
      </trkpt>
      <trkpt lat="42.0744" lon="0.68076">
        <ele>607</ele>
        <time>2022-05-18T11:44:20Z</time>
      </trkpt>
      <trkpt lat="42.07425" lon="0.68051">
        <ele>607</ele>
        <time>2022-05-18T11:44:36Z</time>
      </trkpt>
      <trkpt lat="42.07404" lon="0.68067">
        <ele>607</ele>
        <time>2022-05-18T11:44:52Z</time>
      </trkpt>
      <trkpt lat="42.07398" lon="0.68075">
        <ele>607</ele>
        <time>2022-05-18T11:44:55Z</time>
      </trkpt>
      <trkpt lat="42.07387" lon="0.68052">
        <ele>607</ele>
        <time>2022-05-18T11:45:19Z</time>
      </trkpt>
      <trkpt lat="42.07374" lon="0.68062">
        <ele>606</ele>
        <time>2022-05-18T11:45:38Z</time>
      </trkpt>
      <trkpt lat="42.0737" lon="0.68051">
        <ele>606</ele>
        <time>2022-05-18T11:45:42Z</time>
      </trkpt>
      <trkpt lat="42.07372" lon="0.6803">
        <ele>606</ele>
        <time>2022-05-18T11:45:48Z</time>
      </trkpt>
      <trkpt lat="42.0738" lon="0.68027">
        <ele>606</ele>
        <time>2022-05-18T11:46:01Z</time>
      </trkpt>
      <trkpt lat="42.07392" lon="0.68">
        <ele>606</ele>
        <time>2022-05-18T11:46:31Z</time>
      </trkpt>
      <trkpt lat="42.07394" lon="0.68011">
        <ele>606</ele>
        <time>2022-05-18T11:46:40Z</time>
      </trkpt>
      <trkpt lat="42.07391" lon="0.68017">
        <ele>606</ele>
        <time>2022-05-18T11:46:43Z</time>
      </trkpt>
      <trkpt lat="42.07366" lon="0.68032">
        <ele>606</ele>
        <time>2022-05-18T11:46:59Z</time>
      </trkpt>
      <trkpt lat="42.0736" lon="0.68033">
        <ele>605</ele>
        <time>2022-05-18T11:47:04Z</time>
      </trkpt>
      <trkpt lat="42.07353" lon="0.68041">
        <ele>605</ele>
        <time>2022-05-18T11:47:07Z</time>
      </trkpt>
      <trkpt lat="42.0735" lon="0.6803">
        <ele>605</ele>
        <time>2022-05-18T11:47:13Z</time>
      </trkpt>
      <trkpt lat="42.07332" lon="0.68055">
        <ele>605</ele>
        <time>2022-05-18T11:47:24Z</time>
      </trkpt>
      <trkpt lat="42.07325" lon="0.68058">
        <ele>605</ele>
        <time>2022-05-18T11:47:28Z</time>
      </trkpt>
      <trkpt lat="42.07311" lon="0.68062">
        <ele>605</ele>
        <time>2022-05-18T11:47:35Z</time>
      </trkpt>
      <trkpt lat="42.07304" lon="0.68062">
        <ele>605</ele>
        <time>2022-05-18T11:47:40Z</time>
      </trkpt>
      <trkpt lat="42.07297" lon="0.68064">
        <ele>605</ele>
        <time>2022-05-18T11:47:44Z</time>
      </trkpt>
      <trkpt lat="42.07291" lon="0.6806">
        <ele>605</ele>
        <time>2022-05-18T11:47:52Z</time>
      </trkpt>
      <trkpt lat="42.07282" lon="0.68055">
        <ele>605</ele>
        <time>2022-05-18T11:48:02Z</time>
      </trkpt>
      <trkpt lat="42.07268" lon="0.68057">
        <ele>605</ele>
        <time>2022-05-18T11:48:13Z</time>
      </trkpt>
      <trkpt lat="42.07259" lon="0.68071">
        <ele>605</ele>
        <time>2022-05-18T11:48:27Z</time>
      </trkpt>
      <trkpt lat="42.07252" lon="0.68077">
        <ele>605</ele>
        <time>2022-05-18T11:48:39Z</time>
      </trkpt>
      <trkpt lat="42.07242" lon="0.68092">
        <ele>605</ele>
        <time>2022-05-18T11:48:49Z</time>
      </trkpt>
      <trkpt lat="42.07228" lon="0.68095">
        <ele>605</ele>
        <time>2022-05-18T11:49:01Z</time>
      </trkpt>
      <trkpt lat="42.07213" lon="0.68106">
        <ele>605</ele>
        <time>2022-05-18T11:49:07Z</time>
      </trkpt>
      <trkpt lat="42.07205" lon="0.68104">
        <ele>605</ele>
        <time>2022-05-18T11:49:12Z</time>
      </trkpt>
      <trkpt lat="42.07193" lon="0.6811">
        <ele>605</ele>
        <time>2022-05-18T11:49:21Z</time>
      </trkpt>
      <trkpt lat="42.07187" lon="0.68103">
        <ele>605</ele>
        <time>2022-05-18T11:49:29Z</time>
      </trkpt>
      <trkpt lat="42.07168" lon="0.68109">
        <ele>605</ele>
        <time>2022-05-18T11:49:37Z</time>
      </trkpt>
      <trkpt lat="42.07149" lon="0.68124">
        <ele>605</ele>
        <time>2022-05-18T11:49:49Z</time>
      </trkpt>
      <trkpt lat="42.07135" lon="0.68138">
        <ele>605</ele>
        <time>2022-05-18T11:49:55Z</time>
      </trkpt>
      <trkpt lat="42.07121" lon="0.68136">
        <ele>605</ele>
        <time>2022-05-18T11:50:05Z</time>
      </trkpt>
      <trkpt lat="42.07115" lon="0.68143">
        <ele>605</ele>
        <time>2022-05-18T11:50:08Z</time>
      </trkpt>
      <trkpt lat="42.07109" lon="0.68146">
        <ele>605</ele>
        <time>2022-05-18T11:50:12Z</time>
      </trkpt>
      <trkpt lat="42.07108" lon="0.681">
        <ele>606</ele>
        <time>2022-05-18T11:50:28Z</time>
      </trkpt>
      <trkpt lat="42.07102" lon="0.68086">
        <ele>606</ele>
        <time>2022-05-18T11:50:35Z</time>
      </trkpt>
      <trkpt lat="42.07094" lon="0.68109">
        <ele>606</ele>
        <time>2022-05-18T11:50:43Z</time>
      </trkpt>
      <trkpt lat="42.07079" lon="0.68088">
        <ele>606</ele>
        <time>2022-05-18T11:50:55Z</time>
      </trkpt>
      <trkpt lat="42.07071" lon="0.68045">
        <ele>606</ele>
        <time>2022-05-18T11:51:08Z</time>
      </trkpt>
      <trkpt lat="42.07079" lon="0.67998">
        <ele>606</ele>
        <time>2022-05-18T11:51:18Z</time>
      </trkpt>
      <trkpt lat="42.07091" lon="0.67945">
        <ele>606</ele>
        <time>2022-05-18T11:51:31Z</time>
      </trkpt>
      <trkpt lat="42.0712" lon="0.68091">
        <ele>606</ele>
        <time>2022-05-18T11:51:34Z</time>
      </trkpt>
      <trkpt lat="42.07128" lon="0.68044">
        <ele>606</ele>
        <time>2022-05-18T11:51:54Z</time>
      </trkpt>
      <trkpt lat="42.07196" lon="0.67879">
        <ele>607</ele>
        <time>2022-05-18T11:52:15Z</time>
      </trkpt>
      <trkpt lat="42.07202" lon="0.67827">
        <ele>607</ele>
        <time>2022-05-18T11:52:26Z</time>
      </trkpt>
      <trkpt lat="42.07202" lon="0.6779">
        <ele>607</ele>
        <time>2022-05-18T11:52:43Z</time>
      </trkpt>
      <trkpt lat="42.07191" lon="0.67752">
        <ele>607</ele>
        <time>2022-05-18T11:53:10Z</time>
      </trkpt>
      <trkpt lat="42.07184" lon="0.67739">
        <ele>607</ele>
        <time>2022-05-18T11:53:21Z</time>
      </trkpt>
      <trkpt lat="42.07166" lon="0.67711">
        <ele>606</ele>
        <time>2022-05-18T11:53:52Z</time>
      </trkpt>
      <trkpt lat="42.07147" lon="0.67689">
        <ele>606</ele>
        <time>2022-05-18T11:54:28Z</time>
      </trkpt>
      <trkpt lat="42.07132" lon="0.67671">
        <ele>606</ele>
        <time>2022-05-18T11:54:52Z</time>
      </trkpt>
      <trkpt lat="42.0713" lon="0.67666">
        <ele>606</ele>
        <time>2022-05-18T11:55:06Z</time>
      </trkpt>
      <trkpt lat="42.07115" lon="0.67653">
        <ele>606</ele>
        <time>2022-05-18T11:55:26Z</time>
      </trkpt>
      <trkpt lat="42.07106" lon="0.67649">
        <ele>605</ele>
        <time>2022-05-18T11:55:36Z</time>
      </trkpt>
      <trkpt lat="42.07081" lon="0.67631">
        <ele>605</ele>
        <time>2022-05-18T11:56:12Z</time>
      </trkpt>
      <trkpt lat="42.07077" lon="0.67628">
        <ele>605</ele>
        <time>2022-05-18T11:56:17Z</time>
      </trkpt>
      <trkpt lat="42.07051" lon="0.67606">
        <ele>605</ele>
        <time>2022-05-18T11:56:48Z</time>
      </trkpt>
      <trkpt lat="42.07024" lon="0.67587">
        <ele>604</ele>
        <time>2022-05-18T11:57:21Z</time>
      </trkpt>
      <trkpt lat="42.06996" lon="0.67573">
        <ele>604</ele>
        <time>2022-05-18T11:57:54Z</time>
      </trkpt>
      <trkpt lat="42.06965" lon="0.67546">
        <ele>604</ele>
        <time>2022-05-18T11:58:28Z</time>
      </trkpt>
      <trkpt lat="42.06948" lon="0.6753">
        <ele>603</ele>
        <time>2022-05-18T11:58:50Z</time>
      </trkpt>
      <trkpt lat="42.06942" lon="0.67527">
        <ele>603</ele>
        <time>2022-05-18T11:58:59Z</time>
      </trkpt>
      <trkpt lat="42.06932" lon="0.67514">
        <ele>603</ele>
        <time>2022-05-18T11:59:17Z</time>
      </trkpt>
      <trkpt lat="42.06911" lon="0.67483">
        <ele>603</ele>
        <time>2022-05-18T11:59:52Z</time>
      </trkpt>
      <trkpt lat="42.06905" lon="0.67478">
        <ele>603</ele>
        <time>2022-05-18T12:00:01Z</time>
      </trkpt>
      <trkpt lat="42.06899" lon="0.67468">
        <ele>603</ele>
        <time>2022-05-18T12:00:10Z</time>
      </trkpt>
      <trkpt lat="42.06891" lon="0.67457">
        <ele>603</ele>
        <time>2022-05-18T12:00:23Z</time>
      </trkpt>
      <trkpt lat="42.06889" lon="0.67451">
        <ele>602</ele>
        <time>2022-05-18T12:00:29Z</time>
      </trkpt>
      <trkpt lat="42.06886" lon="0.67447">
        <ele>602</ele>
        <time>2022-05-18T12:00:35Z</time>
      </trkpt>
      <trkpt lat="42.06881" lon="0.67444">
        <ele>602</ele>
        <time>2022-05-18T12:00:41Z</time>
      </trkpt>
      <trkpt lat="42.06858" lon="0.67414">
        <ele>602</ele>
        <time>2022-05-18T12:01:19Z</time>
      </trkpt>
      <trkpt lat="42.06846" lon="0.67391">
        <ele>602</ele>
        <time>2022-05-18T12:01:41Z</time>
      </trkpt>
      <trkpt lat="42.06835" lon="0.67388">
        <ele>602</ele>
        <time>2022-05-18T12:01:52Z</time>
      </trkpt>
      <trkpt lat="42.0682" lon="0.67378">
        <ele>601</ele>
        <time>2022-05-18T12:02:20Z</time>
      </trkpt>
      <trkpt lat="42.06815" lon="0.67365">
        <ele>601</ele>
        <time>2022-05-18T12:02:38Z</time>
      </trkpt>
      <trkpt lat="42.0681" lon="0.67366">
        <ele>600</ele>
        <time>2022-05-18T12:03:57Z</time>
      </trkpt>
      <trkpt lat="42.06806" lon="0.67357">
        <ele>600</ele>
        <time>2022-05-18T12:04:15Z</time>
      </trkpt>
      <trkpt lat="42.06807" lon="0.67348">
        <ele>600</ele>
        <time>2022-05-18T12:04:33Z</time>
      </trkpt>
      <trkpt lat="42.06807" lon="0.67341">
        <ele>600</ele>
        <time>2022-05-18T12:04:40Z</time>
      </trkpt>
      <trkpt lat="42.06813" lon="0.67353">
        <ele>600</ele>
        <time>2022-05-18T12:04:58Z</time>
      </trkpt>
      <trkpt lat="42.06812" lon="0.6735">
        <ele>599</ele>
        <time>2022-05-18T12:05:45Z</time>
      </trkpt>
      <trkpt lat="42.06788" lon="0.67345">
        <ele>599</ele>
        <time>2022-05-18T12:06:11Z</time>
      </trkpt>
      <trkpt lat="42.068" lon="0.67354">
        <ele>599</ele>
        <time>2022-05-18T12:06:36Z</time>
      </trkpt>
      <trkpt lat="42.06805" lon="0.6735">
        <ele>599</ele>
        <time>2022-05-18T12:06:41Z</time>
      </trkpt>
      <trkpt lat="42.06811" lon="0.67337">
        <ele>598</ele>
        <time>2022-05-18T12:07:09Z</time>
      </trkpt>
      <trkpt lat="42.06804" lon="0.67337">
        <ele>598</ele>
        <time>2022-05-18T12:07:18Z</time>
      </trkpt>
      <trkpt lat="42.06805" lon="0.67348">
        <ele>598</ele>
        <time>2022-05-18T12:07:30Z</time>
      </trkpt>
      <trkpt lat="42.06817" lon="0.67356">
        <ele>598</ele>
        <time>2022-05-18T12:07:37Z</time>
      </trkpt>
      <trkpt lat="42.0681" lon="0.67357">
        <ele>598</ele>
        <time>2022-05-18T12:07:51Z</time>
      </trkpt>
      <trkpt lat="42.06803" lon="0.6736">
        <ele>598</ele>
        <time>2022-05-18T12:08:02Z</time>
      </trkpt>
      <trkpt lat="42.06804" lon="0.67354">
        <ele>598</ele>
        <time>2022-05-18T12:08:22Z</time>
      </trkpt>
      <trkpt lat="42.06805" lon="0.67356">
        <ele>597</ele>
        <time>2022-05-18T12:09:08Z</time>
      </trkpt>
      <trkpt lat="42.06808" lon="0.67354">
        <ele>597</ele>
        <time>2022-05-18T12:10:04Z</time>
      </trkpt>
      <trkpt lat="42.06808" lon="0.67354">
        <ele>596</ele>
        <time>2022-05-18T12:10:38Z</time>
      </trkpt>
      <trkpt lat="42.06803" lon="0.67346">
        <ele>596</ele>
        <time>2022-05-18T12:10:55Z</time>
      </trkpt>
      <trkpt lat="42.06799" lon="0.67336">
        <ele>596</ele>
        <time>2022-05-18T12:11:06Z</time>
      </trkpt>
      <trkpt lat="42.06787" lon="0.67332">
        <ele>596</ele>
        <time>2022-05-18T12:11:14Z</time>
      </trkpt>
      <trkpt lat="42.06772" lon="0.67334">
        <ele>596</ele>
        <time>2022-05-18T12:11:26Z</time>
      </trkpt>
      <trkpt lat="42.06776" lon="0.67342">
        <ele>596</ele>
        <time>2022-05-18T12:11:37Z</time>
      </trkpt>
      <trkpt lat="42.06791" lon="0.67355">
        <ele>596</ele>
        <time>2022-05-18T12:11:44Z</time>
      </trkpt>
      <trkpt lat="42.06797" lon="0.6735">
        <ele>596</ele>
        <time>2022-05-18T12:11:52Z</time>
      </trkpt>
      <trkpt lat="42.06798" lon="0.67336">
        <ele>596</ele>
        <time>2022-05-18T12:11:59Z</time>
      </trkpt>
      <trkpt lat="42.06798" lon="0.67345">
        <ele>595</ele>
        <time>2022-05-18T12:12:11Z</time>
      </trkpt>
      <trkpt lat="42.06806" lon="0.67358">
        <ele>595</ele>
        <time>2022-05-18T12:12:26Z</time>
      </trkpt>
      <trkpt lat="42.06803" lon="0.67358">
        <ele>595</ele>
        <time>2022-05-18T12:12:38Z</time>
      </trkpt>
      <trkpt lat="42.06803" lon="0.67365">
        <ele>595</ele>
        <time>2022-05-18T12:12:55Z</time>
      </trkpt>
      <trkpt lat="42.06801" lon="0.67372">
        <ele>595</ele>
        <time>2022-05-18T12:13:00Z</time>
      </trkpt>
      <trkpt lat="42.06797" lon="0.67377">
        <ele>595</ele>
        <time>2022-05-18T12:13:05Z</time>
      </trkpt>
      <trkpt lat="42.06793" lon="0.6738">
        <ele>595</ele>
        <time>2022-05-18T12:13:09Z</time>
      </trkpt>
      <trkpt lat="42.0679" lon="0.67385">
        <ele>595</ele>
        <time>2022-05-18T12:13:14Z</time>
      </trkpt>
      <trkpt lat="42.06783" lon="0.67381">
        <ele>594</ele>
        <time>2022-05-18T12:13:49Z</time>
      </trkpt>
      <trkpt lat="42.06772" lon="0.67391">
        <ele>594</ele>
        <time>2022-05-18T12:14:18Z</time>
      </trkpt>
      <trkpt lat="42.06768" lon="0.67394">
        <ele>594</ele>
        <time>2022-05-18T12:14:44Z</time>
      </trkpt>
      <trkpt lat="42.06763" lon="0.67397">
        <ele>594</ele>
        <time>2022-05-18T12:15:02Z</time>
      </trkpt>
      <trkpt lat="42.06759" lon="0.67402">
        <ele>594</ele>
        <time>2022-05-18T12:15:14Z</time>
      </trkpt>
      <trkpt lat="42.06759" lon="0.67408">
        <ele>594</ele>
        <time>2022-05-18T12:15:26Z</time>
      </trkpt>
      <trkpt lat="42.06752" lon="0.67407">
        <ele>593</ele>
        <time>2022-05-18T12:15:48Z</time>
      </trkpt>
      <trkpt lat="42.06746" lon="0.6741">
        <ele>593</ele>
        <time>2022-05-18T12:16:01Z</time>
      </trkpt>
      <trkpt lat="42.06742" lon="0.67412">
        <ele>588</ele>
        <time>2022-05-18T12:24:24Z</time>
      </trkpt>
      <trkpt lat="42.06731" lon="0.67401">
        <ele>588</ele>
        <time>2022-05-18T12:24:42Z</time>
      </trkpt>
      <trkpt lat="42.06715" lon="0.67379">
        <ele>588</ele>
        <time>2022-05-18T12:25:16Z</time>
      </trkpt>
      <trkpt lat="42.06706" lon="0.67365">
        <ele>587</ele>
        <time>2022-05-18T12:25:46Z</time>
      </trkpt>
      <trkpt lat="42.06703" lon="0.67359">
        <ele>587</ele>
        <time>2022-05-18T12:25:58Z</time>
      </trkpt>
      <trkpt lat="42.0669" lon="0.67361">
        <ele>587</ele>
        <time>2022-05-18T12:26:14Z</time>
      </trkpt>
      <trkpt lat="42.06686" lon="0.67355">
        <ele>587</ele>
        <time>2022-05-18T12:26:45Z</time>
      </trkpt>
      <trkpt lat="42.06684" lon="0.67346">
        <ele>586</ele>
        <time>2022-05-18T12:27:07Z</time>
      </trkpt>
      <trkpt lat="42.06678" lon="0.67346">
        <ele>586</ele>
        <time>2022-05-18T12:27:17Z</time>
      </trkpt>
      <trkpt lat="42.06667" lon="0.67339">
        <ele>586</ele>
        <time>2022-05-18T12:27:38Z</time>
      </trkpt>
      <trkpt lat="42.06655" lon="0.67337">
        <ele>586</ele>
        <time>2022-05-18T12:27:55Z</time>
      </trkpt>
      <trkpt lat="42.0664" lon="0.6733">
        <ele>586</ele>
        <time>2022-05-18T12:28:13Z</time>
      </trkpt>
      <trkpt lat="42.06627" lon="0.67329">
        <ele>586</ele>
        <time>2022-05-18T12:28:37Z</time>
      </trkpt>
      <trkpt lat="42.06622" lon="0.67327">
        <ele>586</ele>
        <time>2022-05-18T12:28:44Z</time>
      </trkpt>
      <trkpt lat="42.0661" lon="0.67327">
        <ele>585</ele>
        <time>2022-05-18T12:29:02Z</time>
      </trkpt>
      <trkpt lat="42.06576" lon="0.67315">
        <ele>585</ele>
        <time>2022-05-18T12:29:37Z</time>
      </trkpt>
      <trkpt lat="42.06563" lon="0.67309">
        <ele>585</ele>
        <time>2022-05-18T12:29:53Z</time>
      </trkpt>
      <trkpt lat="42.06557" lon="0.6731">
        <ele>585</ele>
        <time>2022-05-18T12:30:05Z</time>
      </trkpt>
      <trkpt lat="42.06548" lon="0.67307">
        <ele>585</ele>
        <time>2022-05-18T12:30:17Z</time>
      </trkpt>
      <trkpt lat="42.06544" lon="0.67303">
        <ele>585</ele>
        <time>2022-05-18T12:30:22Z</time>
      </trkpt>
      <trkpt lat="42.06538" lon="0.67301">
        <ele>584</ele>
        <time>2022-05-18T12:30:29Z</time>
      </trkpt>
      <trkpt lat="42.06532" lon="0.67297">
        <ele>584</ele>
        <time>2022-05-18T12:30:36Z</time>
      </trkpt>
      <trkpt lat="42.06528" lon="0.67292">
        <ele>584</ele>
        <time>2022-05-18T12:30:43Z</time>
      </trkpt>
      <trkpt lat="42.06531" lon="0.67287">
        <ele>584</ele>
        <time>2022-05-18T12:31:17Z</time>
      </trkpt>
      <trkpt lat="42.06535" lon="0.6728">
        <ele>584</ele>
        <time>2022-05-18T12:31:38Z</time>
      </trkpt>
      <trkpt lat="42.06546" lon="0.67273">
        <ele>583</ele>
        <time>2022-05-18T12:32:09Z</time>
      </trkpt>
      <trkpt lat="42.0654" lon="0.67291">
        <ele>583</ele>
        <time>2022-05-18T12:32:36Z</time>
      </trkpt>
      <trkpt lat="42.06534" lon="0.67299">
        <ele>583</ele>
        <time>2022-05-18T12:32:48Z</time>
      </trkpt>
      <trkpt lat="42.06525" lon="0.67303">
        <ele>583</ele>
        <time>2022-05-18T12:33:01Z</time>
      </trkpt>
      <trkpt lat="42.06501" lon="0.67309">
        <ele>583</ele>
        <time>2022-05-18T12:33:32Z</time>
      </trkpt>
      <trkpt lat="42.06484" lon="0.67308">
        <ele>582</ele>
        <time>2022-05-18T12:34:00Z</time>
      </trkpt>
      <trkpt lat="42.06478" lon="0.6731">
        <ele>582</ele>
        <time>2022-05-18T12:34:16Z</time>
      </trkpt>
      <trkpt lat="42.0647" lon="0.6731">
        <ele>582</ele>
        <time>2022-05-18T12:34:26Z</time>
      </trkpt>
      <trkpt lat="42.06465" lon="0.67308">
        <ele>582</ele>
        <time>2022-05-18T12:34:31Z</time>
      </trkpt>
      <trkpt lat="42.06462" lon="0.67303">
        <ele>582</ele>
        <time>2022-05-18T12:34:36Z</time>
      </trkpt>
      <trkpt lat="42.06456" lon="0.67286">
        <ele>582</ele>
        <time>2022-05-18T12:34:48Z</time>
      </trkpt>
      <trkpt lat="42.06429" lon="0.67255">
        <ele>582</ele>
        <time>2022-05-18T12:35:21Z</time>
      </trkpt>
      <trkpt lat="42.06405" lon="0.67222">
        <ele>581</ele>
        <time>2022-05-18T12:36:00Z</time>
      </trkpt>
      <trkpt lat="42.06394" lon="0.67205">
        <ele>581</ele>
        <time>2022-05-18T12:36:20Z</time>
      </trkpt>
      <trkpt lat="42.06384" lon="0.67196">
        <ele>581</ele>
        <time>2022-05-18T12:36:32Z</time>
      </trkpt>
      <trkpt lat="42.06375" lon="0.67178">
        <ele>581</ele>
        <time>2022-05-18T12:36:50Z</time>
      </trkpt>
      <trkpt lat="42.06368" lon="0.67169">
        <ele>581</ele>
        <time>2022-05-18T12:36:59Z</time>
      </trkpt>
      <trkpt lat="42.06365" lon="0.67163">
        <ele>581</ele>
        <time>2022-05-18T12:37:04Z</time>
      </trkpt>
      <trkpt lat="42.06347" lon="0.67151">
        <ele>580</ele>
        <time>2022-05-18T12:37:27Z</time>
      </trkpt>
      <trkpt lat="42.06326" lon="0.67143">
        <ele>580</ele>
        <time>2022-05-18T12:37:54Z</time>
      </trkpt>
      <trkpt lat="42.06299" lon="0.67125">
        <ele>580</ele>
        <time>2022-05-18T12:38:26Z</time>
      </trkpt>
      <trkpt lat="42.06295" lon="0.67122">
        <ele>580</ele>
        <time>2022-05-18T12:38:36Z</time>
      </trkpt>
      <trkpt lat="42.06282" lon="0.67124">
        <ele>579</ele>
        <time>2022-05-18T12:38:52Z</time>
      </trkpt>
      <trkpt lat="42.06269" lon="0.67119">
        <ele>579</ele>
        <time>2022-05-18T12:39:05Z</time>
      </trkpt>
      <trkpt lat="42.06263" lon="0.67118">
        <ele>579</ele>
        <time>2022-05-18T12:39:13Z</time>
      </trkpt>
      <trkpt lat="42.06237" lon="0.67106">
        <ele>579</ele>
        <time>2022-05-18T12:39:43Z</time>
      </trkpt>
      <trkpt lat="42.06212" lon="0.67103">
        <ele>579</ele>
        <time>2022-05-18T12:40:17Z</time>
      </trkpt>
      <trkpt lat="42.06192" lon="0.67091">
        <ele>578</ele>
        <time>2022-05-18T12:40:38Z</time>
      </trkpt>
      <trkpt lat="42.06187" lon="0.67089">
        <ele>578</ele>
        <time>2022-05-18T12:40:45Z</time>
      </trkpt>
      <trkpt lat="42.06176" lon="0.67082">
        <ele>578</ele>
        <time>2022-05-18T12:41:00Z</time>
      </trkpt>
      <trkpt lat="42.06171" lon="0.6708">
        <ele>578</ele>
        <time>2022-05-18T12:41:07Z</time>
      </trkpt>
      <trkpt lat="42.06167" lon="0.67077">
        <ele>578</ele>
        <time>2022-05-18T12:41:11Z</time>
      </trkpt>
      <trkpt lat="42.06148" lon="0.67067">
        <ele>578</ele>
        <time>2022-05-18T12:41:44Z</time>
      </trkpt>
      <trkpt lat="42.06147" lon="0.6706">
        <ele>578</ele>
        <time>2022-05-18T12:41:56Z</time>
      </trkpt>
      <trkpt lat="42.06143" lon="0.6705">
        <ele>577</ele>
        <time>2022-05-18T12:42:07Z</time>
      </trkpt>
      <trkpt lat="42.06132" lon="0.67035">
        <ele>577</ele>
        <time>2022-05-18T12:42:27Z</time>
      </trkpt>
      <trkpt lat="42.06116" lon="0.67024">
        <ele>577</ele>
        <time>2022-05-18T12:42:49Z</time>
      </trkpt>
      <trkpt lat="42.06097" lon="0.67017">
        <ele>577</ele>
        <time>2022-05-18T12:43:13Z</time>
      </trkpt>
      <trkpt lat="42.0608" lon="0.67001">
        <ele>577</ele>
        <time>2022-05-18T12:43:44Z</time>
      </trkpt>
      <trkpt lat="42.06073" lon="0.67001">
        <ele>576</ele>
        <time>2022-05-18T12:43:55Z</time>
      </trkpt>
      <trkpt lat="42.06062" lon="0.67001">
        <ele>576</ele>
        <time>2022-05-18T12:44:15Z</time>
      </trkpt>
      <trkpt lat="42.06045" lon="0.66984">
        <ele>576</ele>
        <time>2022-05-18T12:44:38Z</time>
      </trkpt>
      <trkpt lat="42.0604" lon="0.66981">
        <ele>576</ele>
        <time>2022-05-18T12:44:45Z</time>
      </trkpt>
      <trkpt lat="42.06026" lon="0.66978">
        <ele>576</ele>
        <time>2022-05-18T12:45:02Z</time>
      </trkpt>
      <trkpt lat="42.05996" lon="0.66968">
        <ele>575</ele>
        <time>2022-05-18T12:45:35Z</time>
      </trkpt>
      <trkpt lat="42.05987" lon="0.66968">
        <ele>575</ele>
        <time>2022-05-18T12:45:45Z</time>
      </trkpt>
      <trkpt lat="42.0598" lon="0.66969">
        <ele>575</ele>
        <time>2022-05-18T12:45:52Z</time>
      </trkpt>
      <trkpt lat="42.05967" lon="0.66966">
        <ele>575</ele>
        <time>2022-05-18T12:46:06Z</time>
      </trkpt>
      <trkpt lat="42.05942" lon="0.66965">
        <ele>575</ele>
        <time>2022-05-18T12:46:36Z</time>
      </trkpt>
      <trkpt lat="42.05921" lon="0.66962">
        <ele>575</ele>
        <time>2022-05-18T12:47:03Z</time>
      </trkpt>
      <trkpt lat="42.05891" lon="0.66952">
        <ele>574</ele>
        <time>2022-05-18T12:47:37Z</time>
      </trkpt>
      <trkpt lat="42.05863" lon="0.66946">
        <ele>574</ele>
        <time>2022-05-18T12:48:09Z</time>
      </trkpt>
      <trkpt lat="42.05844" lon="0.66943">
        <ele>574</ele>
        <time>2022-05-18T12:48:40Z</time>
      </trkpt>
      <trkpt lat="42.05836" lon="0.66943">
        <ele>573</ele>
        <time>2022-05-18T12:48:50Z</time>
      </trkpt>
      <trkpt lat="42.05825" lon="0.66938">
        <ele>573</ele>
        <time>2022-05-18T12:49:04Z</time>
      </trkpt>
      <trkpt lat="42.05793" lon="0.66942">
        <ele>573</ele>
        <time>2022-05-18T12:49:41Z</time>
      </trkpt>
      <trkpt lat="42.05789" lon="0.66942">
        <ele>573</ele>
        <time>2022-05-18T12:49:46Z</time>
      </trkpt>
      <trkpt lat="42.0577" lon="0.66947">
        <ele>573</ele>
        <time>2022-05-18T12:50:12Z</time>
      </trkpt>
      <trkpt lat="42.05745" lon="0.66945">
        <ele>572</ele>
        <time>2022-05-18T12:50:42Z</time>
      </trkpt>
      <trkpt lat="42.05719" lon="0.66945">
        <ele>572</ele>
        <time>2022-05-18T12:51:10Z</time>
      </trkpt>
      <trkpt lat="42.05685" lon="0.66936">
        <ele>572</ele>
        <time>2022-05-18T12:51:41Z</time>
      </trkpt>
      <trkpt lat="42.05667" lon="0.66928">
        <ele>572</ele>
        <time>2022-05-18T12:51:58Z</time>
      </trkpt>
      <trkpt lat="42.05647" lon="0.66925">
        <ele>571</ele>
        <time>2022-05-18T12:52:18Z</time>
      </trkpt>
      <trkpt lat="42.05634" lon="0.66918">
        <ele>571</ele>
        <time>2022-05-18T12:52:33Z</time>
      </trkpt>
      <trkpt lat="42.05617" lon="0.66901">
        <ele>571</ele>
        <time>2022-05-18T12:53:18Z</time>
      </trkpt>
      <trkpt lat="42.05587" lon="0.66881">
        <ele>570</ele>
        <time>2022-05-18T12:53:51Z</time>
      </trkpt>
      <trkpt lat="42.05557" lon="0.66868">
        <ele>570</ele>
        <time>2022-05-18T12:54:25Z</time>
      </trkpt>
      <trkpt lat="42.05547" lon="0.66864">
        <ele>570</ele>
        <time>2022-05-18T12:54:37Z</time>
      </trkpt>
      <trkpt lat="42.05522" lon="0.66848">
        <ele>570</ele>
        <time>2022-05-18T12:55:08Z</time>
      </trkpt>
      <trkpt lat="42.05493" lon="0.6682">
        <ele>569</ele>
        <time>2022-05-18T12:55:42Z</time>
      </trkpt>
      <trkpt lat="42.05473" lon="0.66801">
        <ele>569</ele>
        <time>2022-05-18T12:56:05Z</time>
      </trkpt>
      <trkpt lat="42.05456" lon="0.66792">
        <ele>569</ele>
        <time>2022-05-18T12:56:28Z</time>
      </trkpt>
      <trkpt lat="42.05443" lon="0.66791">
        <ele>569</ele>
        <time>2022-05-18T12:56:56Z</time>
      </trkpt>
      <trkpt lat="42.05419" lon="0.66799">
        <ele>568</ele>
        <time>2022-05-18T12:57:26Z</time>
      </trkpt>
      <trkpt lat="42.0541" lon="0.66798">
        <ele>568</ele>
        <time>2022-05-18T12:57:46Z</time>
      </trkpt>
      <trkpt lat="42.05406" lon="0.66794">
        <ele>568</ele>
        <time>2022-05-18T12:58:11Z</time>
      </trkpt>
      <trkpt lat="42.05407" lon="0.66795">
        <ele>567</ele>
        <time>2022-05-18T12:59:24Z</time>
      </trkpt>
      <trkpt lat="42.0541" lon="0.668">
        <ele>566</ele>
        <time>2022-05-18T13:00:45Z</time>
      </trkpt>
      <trkpt lat="42.05406" lon="0.6681">
        <ele>566</ele>
        <time>2022-05-18T13:00:56Z</time>
      </trkpt>
      <trkpt lat="42.05402" lon="0.66812">
        <ele>566</ele>
        <time>2022-05-18T13:01:01Z</time>
      </trkpt>
      <trkpt lat="42.05365" lon="0.66819">
        <ele>566</ele>
        <time>2022-05-18T13:01:34Z</time>
      </trkpt>
      <trkpt lat="42.05345" lon="0.66834">
        <ele>566</ele>
        <time>2022-05-18T13:01:54Z</time>
      </trkpt>
      <trkpt lat="42.05311" lon="0.66844">
        <ele>565</ele>
        <time>2022-05-18T13:02:26Z</time>
      </trkpt>
      <trkpt lat="42.05285" lon="0.66856">
        <ele>565</ele>
        <time>2022-05-18T13:02:51Z</time>
      </trkpt>
      <trkpt lat="42.05256" lon="0.66873">
        <ele>565</ele>
        <time>2022-05-18T13:03:22Z</time>
      </trkpt>
      <trkpt lat="42.0522" lon="0.66887">
        <ele>564</ele>
        <time>2022-05-18T13:03:55Z</time>
      </trkpt>
      <trkpt lat="42.05196" lon="0.66899">
        <ele>564</ele>
        <time>2022-05-18T13:04:17Z</time>
      </trkpt>
      <trkpt lat="42.05175" lon="0.66913">
        <ele>564</ele>
        <time>2022-05-18T13:04:40Z</time>
      </trkpt>
      <trkpt lat="42.05149" lon="0.66914">
        <ele>564</ele>
        <time>2022-05-18T13:05:06Z</time>
      </trkpt>
      <trkpt lat="42.05135" lon="0.66912">
        <ele>564</ele>
        <time>2022-05-18T13:05:22Z</time>
      </trkpt>
      <trkpt lat="42.05111" lon="0.66915">
        <ele>563</ele>
        <time>2022-05-18T13:05:44Z</time>
      </trkpt>
      <trkpt lat="42.05093" lon="0.66921">
        <ele>563</ele>
        <time>2022-05-18T13:06:06Z</time>
      </trkpt>
      <trkpt lat="42.05063" lon="0.66929">
        <ele>563</ele>
        <time>2022-05-18T13:06:36Z</time>
      </trkpt>
      <trkpt lat="42.05028" lon="0.66943">
        <ele>562</ele>
        <time>2022-05-18T13:07:14Z</time>
      </trkpt>
      <trkpt lat="42.04996" lon="0.66959">
        <ele>562</ele>
        <time>2022-05-18T13:07:45Z</time>
      </trkpt>
      <trkpt lat="42.04975" lon="0.66972">
        <ele>562</ele>
        <time>2022-05-18T13:08:09Z</time>
      </trkpt>
      <trkpt lat="42.04964" lon="0.6698">
        <ele>562</ele>
        <time>2022-05-18T13:08:23Z</time>
      </trkpt>
      <trkpt lat="42.04963" lon="0.66973">
        <ele>561</ele>
        <time>2022-05-18T13:09:09Z</time>
      </trkpt>
      <trkpt lat="42.04963" lon="0.66964">
        <ele>561</ele>
        <time>2022-05-18T13:09:29Z</time>
      </trkpt>
      <trkpt lat="42.04968" lon="0.66957">
        <ele>561</ele>
        <time>2022-05-18T13:09:44Z</time>
      </trkpt>
      <trkpt lat="42.04969" lon="0.66948">
        <ele>561</ele>
        <time>2022-05-18T13:09:54Z</time>
      </trkpt>
      <trkpt lat="42.04969" lon="0.66941">
        <ele>561</ele>
        <time>2022-05-18T13:10:04Z</time>
      </trkpt>
      <trkpt lat="42.04966" lon="0.66935">
        <ele>561</ele>
        <time>2022-05-18T13:10:10Z</time>
      </trkpt>
      <trkpt lat="42.04962" lon="0.6693">
        <ele>561</ele>
        <time>2022-05-18T13:10:14Z</time>
      </trkpt>
      <trkpt lat="42.04947" lon="0.66924">
        <ele>560</ele>
        <time>2022-05-18T13:10:30Z</time>
      </trkpt>
      <trkpt lat="42.04937" lon="0.66924">
        <ele>560</ele>
        <time>2022-05-18T13:10:41Z</time>
      </trkpt>
      <trkpt lat="42.0492" lon="0.66932">
        <ele>560</ele>
        <time>2022-05-18T13:10:58Z</time>
      </trkpt>
      <trkpt lat="42.04904" lon="0.66944">
        <ele>560</ele>
        <time>2022-05-18T13:11:15Z</time>
      </trkpt>
      <trkpt lat="42.04895" lon="0.6695">
        <ele>560</ele>
        <time>2022-05-18T13:11:24Z</time>
      </trkpt>
      <trkpt lat="42.04875" lon="0.66972">
        <ele>560</ele>
        <time>2022-05-18T13:11:50Z</time>
      </trkpt>
      <trkpt lat="42.04869" lon="0.66975">
        <ele>560</ele>
        <time>2022-05-18T13:11:57Z</time>
      </trkpt>
      <trkpt lat="42.0486" lon="0.66977">
        <ele>559</ele>
        <time>2022-05-18T13:12:09Z</time>
      </trkpt>
      <trkpt lat="42.0484" lon="0.66989">
        <ele>559</ele>
        <time>2022-05-18T13:12:30Z</time>
      </trkpt>
      <trkpt lat="42.04809" lon="0.6701">
        <ele>559</ele>
        <time>2022-05-18T13:13:00Z</time>
      </trkpt>
      <trkpt lat="42.04786" lon="0.67029">
        <ele>559</ele>
        <time>2022-05-18T13:13:26Z</time>
      </trkpt>
      <trkpt lat="42.04755" lon="0.67038">
        <ele>558</ele>
        <time>2022-05-18T13:13:59Z</time>
      </trkpt>
      <trkpt lat="42.0474" lon="0.67036">
        <ele>558</ele>
        <time>2022-05-18T13:14:14Z</time>
      </trkpt>
      <trkpt lat="42.0473" lon="0.67033">
        <ele>558</ele>
        <time>2022-05-18T13:14:24Z</time>
      </trkpt>
      <trkpt lat="42.04723" lon="0.67033">
        <ele>558</ele>
        <time>2022-05-18T13:14:32Z</time>
      </trkpt>
      <trkpt lat="42.04715" lon="0.67032">
        <ele>558</ele>
        <time>2022-05-18T13:14:44Z</time>
      </trkpt>
      <trkpt lat="42.04711" lon="0.67034">
        <ele>558</ele>
        <time>2022-05-18T13:14:59Z</time>
      </trkpt>
      <trkpt lat="42.04697" lon="0.67037">
        <ele>558</ele>
        <time>2022-05-18T13:15:26Z</time>
      </trkpt>
      <trkpt lat="42.04689" lon="0.67037">
        <ele>557</ele>
        <time>2022-05-18T13:15:35Z</time>
      </trkpt>
      <trkpt lat="42.04677" lon="0.67039">
        <ele>557</ele>
        <time>2022-05-18T13:15:48Z</time>
      </trkpt>
      <trkpt lat="42.04648" lon="0.67035">
        <ele>557</ele>
        <time>2022-05-18T13:16:20Z</time>
      </trkpt>
      <trkpt lat="42.04641" lon="0.67032">
        <ele>557</ele>
        <time>2022-05-18T13:16:30Z</time>
      </trkpt>
      <trkpt lat="42.04635" lon="0.67031">
        <ele>557</ele>
        <time>2022-05-18T13:16:40Z</time>
      </trkpt>
      <trkpt lat="42.04616" lon="0.67023">
        <ele>557</ele>
        <time>2022-05-18T13:17:05Z</time>
      </trkpt>
      <trkpt lat="42.04609" lon="0.67021">
        <ele>556</ele>
        <time>2022-05-18T13:17:14Z</time>
      </trkpt>
      <trkpt lat="42.0459" lon="0.67008">
        <ele>556</ele>
        <time>2022-05-18T13:17:35Z</time>
      </trkpt>
      <trkpt lat="42.04565" lon="0.66985">
        <ele>556</ele>
        <time>2022-05-18T13:18:08Z</time>
      </trkpt>
      <trkpt lat="42.04539" lon="0.66958">
        <ele>556</ele>
        <time>2022-05-18T13:18:42Z</time>
      </trkpt>
      <trkpt lat="42.04522" lon="0.66943">
        <ele>555</ele>
        <time>2022-05-18T13:19:05Z</time>
      </trkpt>
      <trkpt lat="42.04517" lon="0.66942">
        <ele>555</ele>
        <time>2022-05-18T13:19:12Z</time>
      </trkpt>
      <trkpt lat="42.0451" lon="0.66939">
        <ele>555</ele>
        <time>2022-05-18T13:19:22Z</time>
      </trkpt>
      <trkpt lat="42.04487" lon="0.66914">
        <ele>555</ele>
        <time>2022-05-18T13:19:54Z</time>
      </trkpt>
      <trkpt lat="42.04459" lon="0.66887">
        <ele>554</ele>
        <time>2022-05-18T13:20:27Z</time>
      </trkpt>
      <trkpt lat="42.04434" lon="0.66856">
        <ele>554</ele>
        <time>2022-05-18T13:21:00Z</time>
      </trkpt>
      <trkpt lat="42.04417" lon="0.66839">
        <ele>554</ele>
        <time>2022-05-18T13:21:22Z</time>
      </trkpt>
      <trkpt lat="42.04413" lon="0.66836">
        <ele>554</ele>
        <time>2022-05-18T13:21:27Z</time>
      </trkpt>
      <trkpt lat="42.04389" lon="0.66804">
        <ele>554</ele>
        <time>2022-05-18T13:22:03Z</time>
      </trkpt>
      <trkpt lat="42.04369" lon="0.66778">
        <ele>553</ele>
        <time>2022-05-18T13:22:35Z</time>
      </trkpt>
      <trkpt lat="42.04353" lon="0.66754">
        <ele>553</ele>
        <time>2022-05-18T13:23:01Z</time>
      </trkpt>
      <trkpt lat="42.04344" lon="0.66748">
        <ele>553</ele>
        <time>2022-05-18T13:23:13Z</time>
      </trkpt>
      <trkpt lat="42.04322" lon="0.66713">
        <ele>553</ele>
        <time>2022-05-18T13:23:44Z</time>
      </trkpt>
      <trkpt lat="42.04303" lon="0.66673">
        <ele>552</ele>
        <time>2022-05-18T13:24:18Z</time>
      </trkpt>
      <trkpt lat="42.0429" lon="0.66651">
        <ele>552</ele>
        <time>2022-05-18T13:24:40Z</time>
      </trkpt>
      <trkpt lat="42.04284" lon="0.66644">
        <ele>552</ele>
        <time>2022-05-18T13:24:50Z</time>
      </trkpt>
      <trkpt lat="42.04272" lon="0.66639">
        <ele>552</ele>
        <time>2022-05-18T13:25:10Z</time>
      </trkpt>
      <trkpt lat="42.04263" lon="0.66628">
        <ele>552</ele>
        <time>2022-05-18T13:25:25Z</time>
      </trkpt>
      <trkpt lat="42.04251" lon="0.66618">
        <ele>551</ele>
        <time>2022-05-18T13:25:43Z</time>
      </trkpt>
      <trkpt lat="42.04239" lon="0.66601">
        <ele>551</ele>
        <time>2022-05-18T13:26:06Z</time>
      </trkpt>
      <trkpt lat="42.04223" lon="0.66566">
        <ele>551</ele>
        <time>2022-05-18T13:26:39Z</time>
      </trkpt>
      <trkpt lat="42.04216" lon="0.66556">
        <ele>551</ele>
        <time>2022-05-18T13:26:49Z</time>
      </trkpt>
      <trkpt lat="42.04204" lon="0.66508">
        <ele>550</ele>
        <time>2022-05-18T13:27:23Z</time>
      </trkpt>
      <trkpt lat="42.04198" lon="0.66483">
        <ele>550</ele>
        <time>2022-05-18T13:27:45Z</time>
      </trkpt>
      <trkpt lat="42.04192" lon="0.66463">
        <ele>550</ele>
        <time>2022-05-18T13:28:05Z</time>
      </trkpt>
      <trkpt lat="42.04186" lon="0.66425">
        <ele>550</ele>
        <time>2022-05-18T13:28:42Z</time>
      </trkpt>
      <trkpt lat="42.04181" lon="0.66398">
        <ele>549</ele>
        <time>2022-05-18T13:29:05Z</time>
      </trkpt>
      <trkpt lat="42.04178" lon="0.66391">
        <ele>549</ele>
        <time>2022-05-18T13:29:15Z</time>
      </trkpt>
      <trkpt lat="42.04173" lon="0.66393">
        <ele>549</ele>
        <time>2022-05-18T13:29:25Z</time>
      </trkpt>
      <trkpt lat="42.0417" lon="0.664">
        <ele>549</ele>
        <time>2022-05-18T13:29:35Z</time>
      </trkpt>
      <trkpt lat="42.04158" lon="0.66404">
        <ele>549</ele>
        <time>2022-05-18T13:29:56Z</time>
      </trkpt>
      <trkpt lat="42.04147" lon="0.66398">
        <ele>549</ele>
        <time>2022-05-18T13:30:25Z</time>
      </trkpt>
      <trkpt lat="42.04146" lon="0.66389">
        <ele>548</ele>
        <time>2022-05-18T13:30:40Z</time>
      </trkpt>
      <trkpt lat="42.04144" lon="0.66384">
        <ele>548</ele>
        <time>2022-05-18T13:30:50Z</time>
      </trkpt>
      <trkpt lat="42.04146" lon="0.66377">
        <ele>548</ele>
        <time>2022-05-18T13:31:05Z</time>
      </trkpt>
      <trkpt lat="42.04149" lon="0.6637">
        <ele>548</ele>
        <time>2022-05-18T13:31:15Z</time>
      </trkpt>
      <trkpt lat="42.04152" lon="0.66354">
        <ele>548</ele>
        <time>2022-05-18T13:31:35Z</time>
      </trkpt>
      <trkpt lat="42.04152" lon="0.66324">
        <ele>548</ele>
        <time>2022-05-18T13:32:06Z</time>
      </trkpt>
      <trkpt lat="42.0415" lon="0.66311">
        <ele>547</ele>
        <time>2022-05-18T13:32:16Z</time>
      </trkpt>
      <trkpt lat="42.04152" lon="0.66298">
        <ele>547</ele>
        <time>2022-05-18T13:32:35Z</time>
      </trkpt>
      <trkpt lat="42.04147" lon="0.66297">
        <ele>547</ele>
        <time>2022-05-18T13:32:50Z</time>
      </trkpt>
      <trkpt lat="42.04135" lon="0.66289">
        <ele>547</ele>
        <time>2022-05-18T13:33:05Z</time>
      </trkpt>
      <trkpt lat="42.04129" lon="0.66291">
        <ele>547</ele>
        <time>2022-05-18T13:33:17Z</time>
      </trkpt>
      <trkpt lat="42.04125" lon="0.66291">
        <ele>547</ele>
        <time>2022-05-18T13:33:27Z</time>
      </trkpt>
      <trkpt lat="42.04121" lon="0.66296">
        <ele>547</ele>
        <time>2022-05-18T13:33:37Z</time>
      </trkpt>
      <trkpt lat="42.04117" lon="0.66299">
        <ele>547</ele>
        <time>2022-05-18T13:33:43Z</time>
      </trkpt>
      <trkpt lat="42.04104" lon="0.66299">
        <ele>546</ele>
        <time>2022-05-18T13:33:55Z</time>
      </trkpt>
      <trkpt lat="42.04094" lon="0.66295">
        <ele>546</ele>
        <time>2022-05-18T13:34:04Z</time>
      </trkpt>
      <trkpt lat="42.04085" lon="0.66289">
        <ele>546</ele>
        <time>2022-05-18T13:34:13Z</time>
      </trkpt>
      <trkpt lat="42.04081" lon="0.66285">
        <ele>546</ele>
        <time>2022-05-18T13:34:18Z</time>
      </trkpt>
      <trkpt lat="42.04078" lon="0.6628">
        <ele>546</ele>
        <time>2022-05-18T13:34:23Z</time>
      </trkpt>
      <trkpt lat="42.04081" lon="0.66273">
        <ele>546</ele>
        <time>2022-05-18T13:34:31Z</time>
      </trkpt>
      <trkpt lat="42.04099" lon="0.66264">
        <ele>546</ele>
        <time>2022-05-18T13:34:50Z</time>
      </trkpt>
      <trkpt lat="42.04106" lon="0.66255">
        <ele>546</ele>
        <time>2022-05-18T13:35:00Z</time>
      </trkpt>
      <trkpt lat="42.04109" lon="0.66246">
        <ele>546</ele>
        <time>2022-05-18T13:35:09Z</time>
      </trkpt>
      <trkpt lat="42.04113" lon="0.66224">
        <ele>545</ele>
        <time>2022-05-18T13:35:30Z</time>
      </trkpt>
      <trkpt lat="42.0412" lon="0.66199">
        <ele>545</ele>
        <time>2022-05-18T13:36:00Z</time>
      </trkpt>
      <trkpt lat="42.04124" lon="0.6619">
        <ele>545</ele>
        <time>2022-05-18T13:36:10Z</time>
      </trkpt>
      <trkpt lat="42.04125" lon="0.6618">
        <ele>545</ele>
        <time>2022-05-18T13:36:22Z</time>
      </trkpt>
      <trkpt lat="42.04128" lon="0.66171">
        <ele>545</ele>
        <time>2022-05-18T13:36:33Z</time>
      </trkpt>
      <trkpt lat="42.0413" lon="0.66162">
        <ele>545</ele>
        <time>2022-05-18T13:36:44Z</time>
      </trkpt>
      <trkpt lat="42.04135" lon="0.66145">
        <ele>545</ele>
        <time>2022-05-18T13:37:04Z</time>
      </trkpt>
      <trkpt lat="42.04136" lon="0.66126">
        <ele>544</ele>
        <time>2022-05-18T13:37:24Z</time>
      </trkpt>
      <trkpt lat="42.04141" lon="0.66117">
        <ele>544</ele>
        <time>2022-05-18T13:37:34Z</time>
      </trkpt>
      <trkpt lat="42.04151" lon="0.66081">
        <ele>544</ele>
        <time>2022-05-18T13:38:04Z</time>
      </trkpt>
      <trkpt lat="42.04155" lon="0.66074">
        <ele>544</ele>
        <time>2022-05-18T13:38:11Z</time>
      </trkpt>
      <trkpt lat="42.0416" lon="0.66062">
        <ele>544</ele>
        <time>2022-05-18T13:38:23Z</time>
      </trkpt>
      <trkpt lat="42.04169" lon="0.66025">
        <ele>543</ele>
        <time>2022-05-18T13:38:56Z</time>
      </trkpt>
      <trkpt lat="42.04176" lon="0.65987">
        <ele>543</ele>
        <time>2022-05-18T13:39:30Z</time>
      </trkpt>
      <trkpt lat="42.04187" lon="0.65946">
        <ele>543</ele>
        <time>2022-05-18T13:40:09Z</time>
      </trkpt>
      <trkpt lat="42.04191" lon="0.65912">
        <ele>542</ele>
        <time>2022-05-18T13:40:42Z</time>
      </trkpt>
      <trkpt lat="42.04193" lon="0.65899">
        <ele>542</ele>
        <time>2022-05-18T13:40:52Z</time>
      </trkpt>
      <trkpt lat="42.04192" lon="0.6588">
        <ele>542</ele>
        <time>2022-05-18T13:41:11Z</time>
      </trkpt>
      <trkpt lat="42.04188" lon="0.65844">
        <ele>542</ele>
        <time>2022-05-18T13:41:44Z</time>
      </trkpt>
      <trkpt lat="42.04188" lon="0.65805">
        <ele>541</ele>
        <time>2022-05-18T13:42:18Z</time>
      </trkpt>
      <trkpt lat="42.04185" lon="0.6577">
        <ele>541</ele>
        <time>2022-05-18T13:42:50Z</time>
      </trkpt>
      <trkpt lat="42.04184" lon="0.65754">
        <ele>541</ele>
        <time>2022-05-18T13:43:15Z</time>
      </trkpt>
      <trkpt lat="42.04182" lon="0.6575">
        <ele>540</ele>
        <time>2022-05-18T13:44:05Z</time>
      </trkpt>
      <trkpt lat="42.04181" lon="0.65747">
        <ele>540</ele>
        <time>2022-05-18T13:44:54Z</time>
      </trkpt>
      <trkpt lat="42.04184" lon="0.65743">
        <ele>539</ele>
        <time>2022-05-18T13:46:45Z</time>
      </trkpt>
      <trkpt lat="42.0419" lon="0.65742">
        <ele>520</ele>
        <time>2022-05-18T14:17:56Z</time>
      </trkpt>
      <trkpt lat="42.04208" lon="0.65747">
        <ele>520</ele>
        <time>2022-05-18T14:18:31Z</time>
      </trkpt>
      <trkpt lat="42.04218" lon="0.65752">
        <ele>519</ele>
        <time>2022-05-18T14:19:06Z</time>
      </trkpt>
      <trkpt lat="42.04224" lon="0.65754">
        <ele>518</ele>
        <time>2022-05-18T14:21:08Z</time>
      </trkpt>
      <trkpt lat="42.04231" lon="0.65755">
        <ele>518</ele>
        <time>2022-05-18T14:21:16Z</time>
      </trkpt>
      <trkpt lat="42.0424" lon="0.65761">
        <ele>518</ele>
        <time>2022-05-18T14:21:29Z</time>
      </trkpt>
      <trkpt lat="42.04245" lon="0.65762">
        <ele>518</ele>
        <time>2022-05-18T14:21:34Z</time>
      </trkpt>
      <trkpt lat="42.0426" lon="0.65768">
        <ele>518</ele>
        <time>2022-05-18T14:21:49Z</time>
      </trkpt>
      <trkpt lat="42.04283" lon="0.65775">
        <ele>517</ele>
        <time>2022-05-18T14:22:19Z</time>
      </trkpt>
      <trkpt lat="42.0428" lon="0.6578">
        <ele>516</ele>
        <time>2022-05-18T14:24:47Z</time>
      </trkpt>
      <trkpt lat="42.04286" lon="0.65781">
        <ele>516</ele>
        <time>2022-05-18T14:24:53Z</time>
      </trkpt>
      <trkpt lat="42.04306" lon="0.65798">
        <ele>516</ele>
        <time>2022-05-18T14:25:01Z</time>
      </trkpt>
      <trkpt lat="42.04311" lon="0.65805">
        <ele>516</ele>
        <time>2022-05-18T14:25:03Z</time>
      </trkpt>
      <trkpt lat="42.04318" lon="0.6582">
        <ele>516</ele>
        <time>2022-05-18T14:25:06Z</time>
      </trkpt>
      <trkpt lat="42.04319" lon="0.65827">
        <ele>516</ele>
        <time>2022-05-18T14:25:07Z</time>
      </trkpt>
      <trkpt lat="42.04319" lon="0.65851">
        <ele>516</ele>
        <time>2022-05-18T14:25:11Z</time>
      </trkpt>
      <trkpt lat="42.04326" lon="0.65866">
        <ele>516</ele>
        <time>2022-05-18T14:25:14Z</time>
      </trkpt>
      <trkpt lat="42.04341" lon="0.659">
        <ele>516</ele>
        <time>2022-05-18T14:25:19Z</time>
      </trkpt>
      <trkpt lat="42.04346" lon="0.65925">
        <ele>516</ele>
        <time>2022-05-18T14:25:22Z</time>
      </trkpt>
      <trkpt lat="42.04352" lon="0.65956">
        <ele>516</ele>
        <time>2022-05-18T14:25:26Z</time>
      </trkpt>
      <trkpt lat="42.04363" lon="0.65983">
        <ele>516</ele>
        <time>2022-05-18T14:25:30Z</time>
      </trkpt>
      <trkpt lat="42.04364" lon="0.6599">
        <ele>516</ele>
        <time>2022-05-18T14:25:31Z</time>
      </trkpt>
      <trkpt lat="42.04363" lon="0.65998">
        <ele>516</ele>
        <time>2022-05-18T14:25:32Z</time>
      </trkpt>
      <trkpt lat="42.04358" lon="0.66003">
        <ele>516</ele>
        <time>2022-05-18T14:25:33Z</time>
      </trkpt>
      <trkpt lat="42.04313" lon="0.66057">
        <ele>516</ele>
        <time>2022-05-18T14:25:42Z</time>
      </trkpt>
      <trkpt lat="42.0431" lon="0.66063">
        <ele>516</ele>
        <time>2022-05-18T14:25:43Z</time>
      </trkpt>
      <trkpt lat="42.0431" lon="0.6607">
        <ele>516</ele>
        <time>2022-05-18T14:25:44Z</time>
      </trkpt>
      <trkpt lat="42.04311" lon="0.66077">
        <ele>516</ele>
        <time>2022-05-18T14:25:45Z</time>
      </trkpt>
      <trkpt lat="42.04315" lon="0.66085">
        <ele>516</ele>
        <time>2022-05-18T14:25:46Z</time>
      </trkpt>
      <trkpt lat="42.0433" lon="0.66102">
        <ele>516</ele>
        <time>2022-05-18T14:25:49Z</time>
      </trkpt>
      <trkpt lat="42.04384" lon="0.66148">
        <ele>516</ele>
        <time>2022-05-18T14:25:59Z</time>
      </trkpt>
      <trkpt lat="42.04398" lon="0.66152">
        <ele>516</ele>
        <time>2022-05-18T14:26:01Z</time>
      </trkpt>
      <trkpt lat="42.04487" lon="0.66157">
        <ele>516</ele>
        <time>2022-05-18T14:26:15Z</time>
      </trkpt>
      <trkpt lat="42.04502" lon="0.66155">
        <ele>516</ele>
        <time>2022-05-18T14:26:18Z</time>
      </trkpt>
      <trkpt lat="42.04507" lon="0.66158">
        <ele>516</ele>
        <time>2022-05-18T14:26:19Z</time>
      </trkpt>
      <trkpt lat="42.04512" lon="0.66162">
        <ele>516</ele>
        <time>2022-05-18T14:26:20Z</time>
      </trkpt>
      <trkpt lat="42.04527" lon="0.66186">
        <ele>516</ele>
        <time>2022-05-18T14:26:24Z</time>
      </trkpt>
      <trkpt lat="42.04531" lon="0.66186">
        <ele>516</ele>
        <time>2022-05-18T14:26:25Z</time>
      </trkpt>
      <trkpt lat="42.04538" lon="0.66178">
        <ele>516</ele>
        <time>2022-05-18T14:26:27Z</time>
      </trkpt>
      <trkpt lat="42.04542" lon="0.66167">
        <ele>516</ele>
        <time>2022-05-18T14:26:29Z</time>
      </trkpt>
      <trkpt lat="42.0454" lon="0.6614">
        <ele>516</ele>
        <time>2022-05-18T14:26:32Z</time>
      </trkpt>
      <trkpt lat="42.04535" lon="0.66125">
        <ele>516</ele>
        <time>2022-05-18T14:26:34Z</time>
      </trkpt>
      <trkpt lat="42.04523" lon="0.66101">
        <ele>516</ele>
        <time>2022-05-18T14:26:38Z</time>
      </trkpt>
      <trkpt lat="42.04523" lon="0.66094">
        <ele>516</ele>
        <time>2022-05-18T14:26:39Z</time>
      </trkpt>
      <trkpt lat="42.04529" lon="0.66084">
        <ele>516</ele>
        <time>2022-05-18T14:26:41Z</time>
      </trkpt>
      <trkpt lat="42.04536" lon="0.66081">
        <ele>516</ele>
        <time>2022-05-18T14:26:42Z</time>
      </trkpt>
      <trkpt lat="42.04542" lon="0.6608">
        <ele>516</ele>
        <time>2022-05-18T14:26:43Z</time>
      </trkpt>
      <trkpt lat="42.04546" lon="0.66082">
        <ele>516</ele>
        <time>2022-05-18T14:26:44Z</time>
      </trkpt>
      <trkpt lat="42.04551" lon="0.66085">
        <ele>516</ele>
        <time>2022-05-18T14:26:45Z</time>
      </trkpt>
      <trkpt lat="42.04571" lon="0.66111">
        <ele>516</ele>
        <time>2022-05-18T14:26:49Z</time>
      </trkpt>
      <trkpt lat="42.04579" lon="0.66126">
        <ele>516</ele>
        <time>2022-05-18T14:26:51Z</time>
      </trkpt>
      <trkpt lat="42.04587" lon="0.66151">
        <ele>516</ele>
        <time>2022-05-18T14:26:54Z</time>
      </trkpt>
      <trkpt lat="42.04588" lon="0.66192">
        <ele>517</ele>
        <time>2022-05-18T14:26:59Z</time>
      </trkpt>
      <trkpt lat="42.04593" lon="0.66212">
        <ele>517</ele>
        <time>2022-05-18T14:27:03Z</time>
      </trkpt>
      <trkpt lat="42.04593" lon="0.66219">
        <ele>517</ele>
        <time>2022-05-18T14:27:05Z</time>
      </trkpt>
      <trkpt lat="42.0459" lon="0.66225">
        <ele>517</ele>
        <time>2022-05-18T14:27:07Z</time>
      </trkpt>
      <trkpt lat="42.04575" lon="0.66241">
        <ele>517</ele>
        <time>2022-05-18T14:27:13Z</time>
      </trkpt>
      <trkpt lat="42.04574" lon="0.66247">
        <ele>517</ele>
        <time>2022-05-18T14:27:14Z</time>
      </trkpt>
      <trkpt lat="42.04573" lon="0.66258">
        <ele>517</ele>
        <time>2022-05-18T14:27:16Z</time>
      </trkpt>
      <trkpt lat="42.04576" lon="0.66277">
        <ele>517</ele>
        <time>2022-05-18T14:27:20Z</time>
      </trkpt>
      <trkpt lat="42.04575" lon="0.66287">
        <ele>517</ele>
        <time>2022-05-18T14:27:22Z</time>
      </trkpt>
      <trkpt lat="42.0457" lon="0.66304">
        <ele>517</ele>
        <time>2022-05-18T14:27:26Z</time>
      </trkpt>
      <trkpt lat="42.0457" lon="0.66313">
        <ele>517</ele>
        <time>2022-05-18T14:27:28Z</time>
      </trkpt>
      <trkpt lat="42.04575" lon="0.66328">
        <ele>517</ele>
        <time>2022-05-18T14:27:31Z</time>
      </trkpt>
      <trkpt lat="42.04581" lon="0.66335">
        <ele>517</ele>
        <time>2022-05-18T14:27:33Z</time>
      </trkpt>
      <trkpt lat="42.04585" lon="0.66337">
        <ele>517</ele>
        <time>2022-05-18T14:27:34Z</time>
      </trkpt>
      <trkpt lat="42.04596" lon="0.66336">
        <ele>517</ele>
        <time>2022-05-18T14:27:36Z</time>
      </trkpt>
      <trkpt lat="42.04602" lon="0.66331">
        <ele>517</ele>
        <time>2022-05-18T14:27:37Z</time>
      </trkpt>
      <trkpt lat="42.04611" lon="0.6632">
        <ele>517</ele>
        <time>2022-05-18T14:27:39Z</time>
      </trkpt>
      <trkpt lat="42.04616" lon="0.66307">
        <ele>517</ele>
        <time>2022-05-18T14:27:41Z</time>
      </trkpt>
      <trkpt lat="42.04618" lon="0.66284">
        <ele>517</ele>
        <time>2022-05-18T14:27:44Z</time>
      </trkpt>
      <trkpt lat="42.04625" lon="0.66271">
        <ele>517</ele>
        <time>2022-05-18T14:27:46Z</time>
      </trkpt>
      <trkpt lat="42.04634" lon="0.66262">
        <ele>517</ele>
        <time>2022-05-18T14:27:48Z</time>
      </trkpt>
      <trkpt lat="42.04649" lon="0.66251">
        <ele>517</ele>
        <time>2022-05-18T14:27:55Z</time>
      </trkpt>
      <trkpt lat="42.04659" lon="0.66241">
        <ele>517</ele>
        <time>2022-05-18T14:27:59Z</time>
      </trkpt>
      <trkpt lat="42.04662" lon="0.66234">
        <ele>517</ele>
        <time>2022-05-18T14:28:01Z</time>
      </trkpt>
      <trkpt lat="42.04664" lon="0.66223">
        <ele>517</ele>
        <time>2022-05-18T14:28:03Z</time>
      </trkpt>
      <trkpt lat="42.04664" lon="0.6617">
        <ele>517</ele>
        <time>2022-05-18T14:28:10Z</time>
      </trkpt>
      <trkpt lat="42.04666" lon="0.66163">
        <ele>517</ele>
        <time>2022-05-18T14:28:11Z</time>
      </trkpt>
      <trkpt lat="42.04679" lon="0.66137">
        <ele>517</ele>
        <time>2022-05-18T14:28:15Z</time>
      </trkpt>
      <trkpt lat="42.0468" lon="0.66116">
        <ele>517</ele>
        <time>2022-05-18T14:28:18Z</time>
      </trkpt>
      <trkpt lat="42.0468" lon="0.66103">
        <ele>517</ele>
        <time>2022-05-18T14:28:20Z</time>
      </trkpt>
      <trkpt lat="42.0468" lon="0.66096">
        <ele>517</ele>
        <time>2022-05-18T14:28:21Z</time>
      </trkpt>
      <trkpt lat="42.04684" lon="0.6609">
        <ele>517</ele>
        <time>2022-05-18T14:28:22Z</time>
      </trkpt>
      <trkpt lat="42.0469" lon="0.66079">
        <ele>517</ele>
        <time>2022-05-18T14:28:26Z</time>
      </trkpt>
      <trkpt lat="42.04692" lon="0.66071">
        <ele>517</ele>
        <time>2022-05-18T14:28:28Z</time>
      </trkpt>
      <trkpt lat="42.04692" lon="0.66065">
        <ele>517</ele>
        <time>2022-05-18T14:28:30Z</time>
      </trkpt>
      <trkpt lat="42.04688" lon="0.66024">
        <ele>518</ele>
        <time>2022-05-18T14:28:40Z</time>
      </trkpt>
      <trkpt lat="42.0469" lon="0.66016">
        <ele>518</ele>
        <time>2022-05-18T14:28:42Z</time>
      </trkpt>
      <trkpt lat="42.04693" lon="0.66009">
        <ele>518</ele>
        <time>2022-05-18T14:28:44Z</time>
      </trkpt>
      <trkpt lat="42.04711" lon="0.65989">
        <ele>518</ele>
        <time>2022-05-18T14:28:52Z</time>
      </trkpt>
      <trkpt lat="42.04725" lon="0.65955">
        <ele>518</ele>
        <time>2022-05-18T14:29:01Z</time>
      </trkpt>
      <trkpt lat="42.0475" lon="0.6592">
        <ele>518</ele>
        <time>2022-05-18T14:29:11Z</time>
      </trkpt>
      <trkpt lat="42.04787" lon="0.65897">
        <ele>518</ele>
        <time>2022-05-18T14:29:23Z</time>
      </trkpt>
      <trkpt lat="42.04794" lon="0.65896">
        <ele>518</ele>
        <time>2022-05-18T14:29:25Z</time>
      </trkpt>
      <trkpt lat="42.04799" lon="0.659">
        <ele>518</ele>
        <time>2022-05-18T14:29:27Z</time>
      </trkpt>
      <trkpt lat="42.04803" lon="0.65909">
        <ele>518</ele>
        <time>2022-05-18T14:29:29Z</time>
      </trkpt>
      <trkpt lat="42.04801" lon="0.65966">
        <ele>518</ele>
        <time>2022-05-18T14:29:39Z</time>
      </trkpt>
      <trkpt lat="42.04802" lon="0.65974">
        <ele>518</ele>
        <time>2022-05-18T14:29:41Z</time>
      </trkpt>
      <trkpt lat="42.04804" lon="0.65982">
        <ele>518</ele>
        <time>2022-05-18T14:29:43Z</time>
      </trkpt>
      <trkpt lat="42.04809" lon="0.65986">
        <ele>518</ele>
        <time>2022-05-18T14:29:45Z</time>
      </trkpt>
      <trkpt lat="42.04819" lon="0.65983">
        <ele>518</ele>
        <time>2022-05-18T14:29:49Z</time>
      </trkpt>
      <trkpt lat="42.04824" lon="0.65979">
        <ele>518</ele>
        <time>2022-05-18T14:29:51Z</time>
      </trkpt>
      <trkpt lat="42.0491" lon="0.6586">
        <ele>518</ele>
        <time>2022-05-18T14:30:16Z</time>
      </trkpt>
      <trkpt lat="42.04918" lon="0.65837">
        <ele>519</ele>
        <time>2022-05-18T14:30:19Z</time>
      </trkpt>
      <trkpt lat="42.04918" lon="0.65829">
        <ele>519</ele>
        <time>2022-05-18T14:30:20Z</time>
      </trkpt>
      <trkpt lat="42.04918" lon="0.65813">
        <ele>519</ele>
        <time>2022-05-18T14:30:22Z</time>
      </trkpt>
      <trkpt lat="42.04915" lon="0.65784">
        <ele>519</ele>
        <time>2022-05-18T14:30:28Z</time>
      </trkpt>
      <trkpt lat="42.04916" lon="0.65777">
        <ele>519</ele>
        <time>2022-05-18T14:30:30Z</time>
      </trkpt>
      <trkpt lat="42.04946" lon="0.65719">
        <ele>519</ele>
        <time>2022-05-18T14:30:42Z</time>
      </trkpt>
      <trkpt lat="42.04963" lon="0.65705">
        <ele>519</ele>
        <time>2022-05-18T14:30:45Z</time>
      </trkpt>
      <trkpt lat="42.05091" lon="0.65634">
        <ele>519</ele>
        <time>2022-05-18T14:31:09Z</time>
      </trkpt>
      <trkpt lat="42.05105" lon="0.6563">
        <ele>519</ele>
        <time>2022-05-18T14:31:13Z</time>
      </trkpt>
      <trkpt lat="42.0511" lon="0.65627">
        <ele>519</ele>
        <time>2022-05-18T14:31:15Z</time>
      </trkpt>
      <trkpt lat="42.05126" lon="0.65612">
        <ele>519</ele>
        <time>2022-05-18T14:31:21Z</time>
      </trkpt>
      <trkpt lat="42.05133" lon="0.65598">
        <ele>519</ele>
        <time>2022-05-18T14:31:24Z</time>
      </trkpt>
      <trkpt lat="42.05145" lon="0.65538">
        <ele>519</ele>
        <time>2022-05-18T14:31:32Z</time>
      </trkpt>
      <trkpt lat="42.05142" lon="0.65494">
        <ele>519</ele>
        <time>2022-05-18T14:31:37Z</time>
      </trkpt>
      <trkpt lat="42.05136" lon="0.65414">
        <ele>519</ele>
        <time>2022-05-18T14:31:46Z</time>
      </trkpt>
      <trkpt lat="42.05137" lon="0.65398">
        <ele>519</ele>
        <time>2022-05-18T14:31:48Z</time>
      </trkpt>
      <trkpt lat="42.05145" lon="0.65394">
        <ele>519</ele>
        <time>2022-05-18T14:31:50Z</time>
      </trkpt>
      <trkpt lat="42.05151" lon="0.65395">
        <ele>519</ele>
        <time>2022-05-18T14:31:51Z</time>
      </trkpt>
      <trkpt lat="42.05155" lon="0.654">
        <ele>519</ele>
        <time>2022-05-18T14:31:52Z</time>
      </trkpt>
      <trkpt lat="42.05158" lon="0.65406">
        <ele>519</ele>
        <time>2022-05-18T14:31:53Z</time>
      </trkpt>
      <trkpt lat="42.0516" lon="0.65413">
        <ele>519</ele>
        <time>2022-05-18T14:31:54Z</time>
      </trkpt>
      <trkpt lat="42.05164" lon="0.65453">
        <ele>520</ele>
        <time>2022-05-18T14:31:59Z</time>
      </trkpt>
      <trkpt lat="42.05202" lon="0.65529">
        <ele>520</ele>
        <time>2022-05-18T14:32:15Z</time>
      </trkpt>
      <trkpt lat="42.05203" lon="0.65538">
        <ele>520</ele>
        <time>2022-05-18T14:32:17Z</time>
      </trkpt>
      <trkpt lat="42.05205" lon="0.65544">
        <ele>520</ele>
        <time>2022-05-18T14:32:19Z</time>
      </trkpt>
      <trkpt lat="42.05209" lon="0.65548">
        <ele>520</ele>
        <time>2022-05-18T14:32:21Z</time>
      </trkpt>
      <trkpt lat="42.05208" lon="0.65548">
        <ele>521</ele>
        <time>2022-05-18T14:35:01Z</time>
      </trkpt>
      <trkpt lat="42.05206" lon="0.6554">
        <ele>522</ele>
        <time>2022-05-18T14:35:28Z</time>
      </trkpt>
      <trkpt lat="42.05206" lon="0.65533">
        <ele>522</ele>
        <time>2022-05-18T14:35:31Z</time>
      </trkpt>
      <trkpt lat="42.05211" lon="0.65529">
        <ele>522</ele>
        <time>2022-05-18T14:35:35Z</time>
      </trkpt>
      <trkpt lat="42.05214" lon="0.65528">
        <ele>526</ele>
        <time>2022-05-18T14:43:07Z</time>
      </trkpt>
      <trkpt lat="42.05208" lon="0.65524">
        <ele>526</ele>
        <time>2022-05-18T14:43:27Z</time>
      </trkpt>
    </trkseg>
  </trk>
</gpx>